<?xml version="1.0" encoding="UTF-8" standalone="no" ?>
<gpx xmlns="http://www.topografix.com/GPX/1/1" xmlns:xsi="http://www.w3.org/2001/XMLSchema-instance" xsi:schemaLocation="http://www.topografix.com/GPX/1/1 http://www.topografix.com/GPX/1/1/gpx.xsd" version="1.1" creator="VisuGPX - https://www.visugpx.com">
  <metadata>
    <name>Alaise (Série Alésia)</name>
    <desc><![CDATA[Rando effectuée le 28 mai 2015]]></desc>
  </metadata>
  <trk>
    <name><![CDATA[Alaise 28 mai 2015 ]]></name>
    <cmt><![CDATA[28 mai 2015 08:49:58]]></cmt>
    <trkseg>
      <trkpt lat="46.97686" lon="5.99909">
        <ele>369</ele>
        <time>2015-05-28T06:49:59Z</time>
      </trkpt>
      <trkpt lat="46.97687" lon="5.99906">
        <ele>371</ele>
        <time>2015-05-28T06:51:57Z</time>
      </trkpt>
      <trkpt lat="46.97687" lon="5.99907">
        <ele>371</ele>
        <time>2015-05-28T06:52:37Z</time>
      </trkpt>
      <trkpt lat="46.97692" lon="5.99907">
        <ele>368</ele>
        <time>2015-05-28T06:53:03Z</time>
      </trkpt>
      <trkpt lat="46.97691" lon="5.99913">
        <ele>364</ele>
        <time>2015-05-28T06:54:03Z</time>
      </trkpt>
      <trkpt lat="46.9769" lon="5.99915">
        <ele>366</ele>
        <time>2015-05-28T06:54:49Z</time>
      </trkpt>
      <trkpt lat="46.97692" lon="5.99937">
        <ele>369</ele>
        <time>2015-05-28T06:59:27Z</time>
      </trkpt>
      <trkpt lat="46.97696" lon="5.99949">
        <ele>368</ele>
        <time>2015-05-28T06:59:35Z</time>
      </trkpt>
      <trkpt lat="46.9771" lon="5.99966">
        <ele>368</ele>
        <time>2015-05-28T06:59:51Z</time>
      </trkpt>
      <trkpt lat="46.97733" lon="5.99978">
        <ele>368</ele>
        <time>2015-05-28T07:00:14Z</time>
      </trkpt>
      <trkpt lat="46.97736" lon="5.99983">
        <ele>369</ele>
        <time>2015-05-28T07:00:20Z</time>
      </trkpt>
      <trkpt lat="46.97736" lon="5.99991">
        <ele>369</ele>
        <time>2015-05-28T07:00:26Z</time>
      </trkpt>
      <trkpt lat="46.97739" lon="5.99995">
        <ele>370</ele>
        <time>2015-05-28T07:00:33Z</time>
      </trkpt>
      <trkpt lat="46.97742" lon="6.00002">
        <ele>371</ele>
        <time>2015-05-28T07:00:42Z</time>
      </trkpt>
      <trkpt lat="46.97746" lon="6.00007">
        <ele>371</ele>
        <time>2015-05-28T07:00:45Z</time>
      </trkpt>
      <trkpt lat="46.97759" lon="6.00032">
        <ele>370</ele>
        <time>2015-05-28T07:01:00Z</time>
      </trkpt>
      <trkpt lat="46.97758" lon="6.00039">
        <ele>370</ele>
        <time>2015-05-28T07:01:05Z</time>
      </trkpt>
      <trkpt lat="46.97756" lon="6.00054">
        <ele>370</ele>
        <time>2015-05-28T07:01:13Z</time>
      </trkpt>
      <trkpt lat="46.97753" lon="6.00074">
        <ele>372</ele>
        <time>2015-05-28T07:01:24Z</time>
      </trkpt>
      <trkpt lat="46.97745" lon="6.00116">
        <ele>374</ele>
        <time>2015-05-28T07:01:48Z</time>
      </trkpt>
      <trkpt lat="46.97743" lon="6.00127">
        <ele>373</ele>
        <time>2015-05-28T07:01:53Z</time>
      </trkpt>
      <trkpt lat="46.97744" lon="6.00142">
        <ele>371</ele>
        <time>2015-05-28T07:02:02Z</time>
      </trkpt>
      <trkpt lat="46.97742" lon="6.00149">
        <ele>370</ele>
        <time>2015-05-28T07:02:07Z</time>
      </trkpt>
      <trkpt lat="46.97742" lon="6.00156">
        <ele>369</ele>
        <time>2015-05-28T07:02:12Z</time>
      </trkpt>
      <trkpt lat="46.97743" lon="6.0017">
        <ele>369</ele>
        <time>2015-05-28T07:02:27Z</time>
      </trkpt>
      <trkpt lat="46.9775" lon="6.00182">
        <ele>370</ele>
        <time>2015-05-28T07:02:33Z</time>
      </trkpt>
      <trkpt lat="46.97751" lon="6.00191">
        <ele>370</ele>
        <time>2015-05-28T07:02:35Z</time>
      </trkpt>
      <trkpt lat="46.9775" lon="6.002">
        <ele>370</ele>
        <time>2015-05-28T07:02:38Z</time>
      </trkpt>
      <trkpt lat="46.97747" lon="6.00213">
        <ele>371</ele>
        <time>2015-05-28T07:02:48Z</time>
      </trkpt>
      <trkpt lat="46.97752" lon="6.00224">
        <ele>372</ele>
        <time>2015-05-28T07:02:54Z</time>
      </trkpt>
      <trkpt lat="46.97761" lon="6.00231">
        <ele>372</ele>
        <time>2015-05-28T07:03:02Z</time>
      </trkpt>
      <trkpt lat="46.97769" lon="6.00238">
        <ele>373</ele>
        <time>2015-05-28T07:03:14Z</time>
      </trkpt>
      <trkpt lat="46.97778" lon="6.00237">
        <ele>375</ele>
        <time>2015-05-28T07:03:27Z</time>
      </trkpt>
      <trkpt lat="46.97796" lon="6.0023">
        <ele>377</ele>
        <time>2015-05-28T07:03:49Z</time>
      </trkpt>
      <trkpt lat="46.97805" lon="6.00234">
        <ele>377</ele>
        <time>2015-05-28T07:03:55Z</time>
      </trkpt>
      <trkpt lat="46.97814" lon="6.0023">
        <ele>376</ele>
        <time>2015-05-28T07:04:06Z</time>
      </trkpt>
      <trkpt lat="46.97816" lon="6.00247">
        <ele>376</ele>
        <time>2015-05-28T07:04:14Z</time>
      </trkpt>
      <trkpt lat="46.97818" lon="6.00259">
        <ele>376</ele>
        <time>2015-05-28T07:04:19Z</time>
      </trkpt>
      <trkpt lat="46.97823" lon="6.00272">
        <ele>376</ele>
        <time>2015-05-28T07:04:25Z</time>
      </trkpt>
      <trkpt lat="46.97828" lon="6.00283">
        <ele>377</ele>
        <time>2015-05-28T07:04:33Z</time>
      </trkpt>
      <trkpt lat="46.97837" lon="6.00285">
        <ele>378</ele>
        <time>2015-05-28T07:04:42Z</time>
      </trkpt>
      <trkpt lat="46.97844" lon="6.00297">
        <ele>380</ele>
        <time>2015-05-28T07:05:08Z</time>
      </trkpt>
      <trkpt lat="46.97854" lon="6.00301">
        <ele>381</ele>
        <time>2015-05-28T07:05:16Z</time>
      </trkpt>
      <trkpt lat="46.97873" lon="6.00313">
        <ele>381</ele>
        <time>2015-05-28T07:05:45Z</time>
      </trkpt>
      <trkpt lat="46.97884" lon="6.00338">
        <ele>381</ele>
        <time>2015-05-28T07:06:06Z</time>
      </trkpt>
      <trkpt lat="46.97885" lon="6.00347">
        <ele>383</ele>
        <time>2015-05-28T07:06:24Z</time>
      </trkpt>
      <trkpt lat="46.97878" lon="6.00356">
        <ele>384</ele>
        <time>2015-05-28T07:06:38Z</time>
      </trkpt>
      <trkpt lat="46.97881" lon="6.00369">
        <ele>386</ele>
        <time>2015-05-28T07:06:53Z</time>
      </trkpt>
      <trkpt lat="46.97869" lon="6.00374">
        <ele>391</ele>
        <time>2015-05-28T07:07:22Z</time>
      </trkpt>
      <trkpt lat="46.97871" lon="6.00387">
        <ele>392</ele>
        <time>2015-05-28T07:07:34Z</time>
      </trkpt>
      <trkpt lat="46.9788" lon="6.0039">
        <ele>393</ele>
        <time>2015-05-28T07:07:39Z</time>
      </trkpt>
      <trkpt lat="46.97875" lon="6.00404">
        <ele>396</ele>
        <time>2015-05-28T07:07:56Z</time>
      </trkpt>
      <trkpt lat="46.97873" lon="6.00418">
        <ele>397</ele>
        <time>2015-05-28T07:08:11Z</time>
      </trkpt>
      <trkpt lat="46.97877" lon="6.0043">
        <ele>398</ele>
        <time>2015-05-28T07:08:24Z</time>
      </trkpt>
      <trkpt lat="46.97883" lon="6.0044">
        <ele>398</ele>
        <time>2015-05-28T07:08:35Z</time>
      </trkpt>
      <trkpt lat="46.97883" lon="6.00451">
        <ele>399</ele>
        <time>2015-05-28T07:08:53Z</time>
      </trkpt>
      <trkpt lat="46.97872" lon="6.00477">
        <ele>398</ele>
        <time>2015-05-28T07:09:19Z</time>
      </trkpt>
      <trkpt lat="46.97863" lon="6.00487">
        <ele>398</ele>
        <time>2015-05-28T07:09:25Z</time>
      </trkpt>
      <trkpt lat="46.97858" lon="6.00498">
        <ele>399</ele>
        <time>2015-05-28T07:09:33Z</time>
      </trkpt>
      <trkpt lat="46.9785" lon="6.00502">
        <ele>402</ele>
        <time>2015-05-28T07:10:04Z</time>
      </trkpt>
      <trkpt lat="46.97844" lon="6.0049">
        <ele>403</ele>
        <time>2015-05-28T07:10:11Z</time>
      </trkpt>
      <trkpt lat="46.97852" lon="6.00486">
        <ele>406</ele>
        <time>2015-05-28T07:10:55Z</time>
      </trkpt>
      <trkpt lat="46.97859" lon="6.00487">
        <ele>408</ele>
        <time>2015-05-28T07:11:12Z</time>
      </trkpt>
      <trkpt lat="46.97867" lon="6.00498">
        <ele>409</ele>
        <time>2015-05-28T07:11:17Z</time>
      </trkpt>
      <trkpt lat="46.97871" lon="6.0049">
        <ele>412</ele>
        <time>2015-05-28T07:11:29Z</time>
      </trkpt>
      <trkpt lat="46.97858" lon="6.00495">
        <ele>416</ele>
        <time>2015-05-28T07:11:53Z</time>
      </trkpt>
      <trkpt lat="46.97869" lon="6.00506">
        <ele>417</ele>
        <time>2015-05-28T07:12:11Z</time>
      </trkpt>
      <trkpt lat="46.97878" lon="6.00509">
        <ele>417</ele>
        <time>2015-05-28T07:12:24Z</time>
      </trkpt>
      <trkpt lat="46.97875" lon="6.00493">
        <ele>416</ele>
        <time>2015-05-28T07:12:35Z</time>
      </trkpt>
      <trkpt lat="46.97864" lon="6.0049">
        <ele>416</ele>
        <time>2015-05-28T07:13:06Z</time>
      </trkpt>
      <trkpt lat="46.97856" lon="6.00486">
        <ele>416</ele>
        <time>2015-05-28T07:13:17Z</time>
      </trkpt>
      <trkpt lat="46.97856" lon="6.0049">
        <ele>421</ele>
        <time>2015-05-28T07:13:55Z</time>
      </trkpt>
      <trkpt lat="46.97863" lon="6.005">
        <ele>422</ele>
        <time>2015-05-28T07:14:01Z</time>
      </trkpt>
      <trkpt lat="46.97874" lon="6.00498">
        <ele>419</ele>
        <time>2015-05-28T07:14:16Z</time>
      </trkpt>
      <trkpt lat="46.9787" lon="6.00485">
        <ele>417</ele>
        <time>2015-05-28T07:14:27Z</time>
      </trkpt>
      <trkpt lat="46.9787" lon="6.00471">
        <ele>415</ele>
        <time>2015-05-28T07:14:37Z</time>
      </trkpt>
      <trkpt lat="46.97875" lon="6.00459">
        <ele>413</ele>
        <time>2015-05-28T07:14:48Z</time>
      </trkpt>
      <trkpt lat="46.97882" lon="6.0045">
        <ele>413</ele>
        <time>2015-05-28T07:14:56Z</time>
      </trkpt>
      <trkpt lat="46.97891" lon="6.00445">
        <ele>413</ele>
        <time>2015-05-28T07:15:05Z</time>
      </trkpt>
      <trkpt lat="46.97891" lon="6.0043">
        <ele>414</ele>
        <time>2015-05-28T07:15:17Z</time>
      </trkpt>
      <trkpt lat="46.97876" lon="6.00395">
        <ele>412</ele>
        <time>2015-05-28T07:15:51Z</time>
      </trkpt>
      <trkpt lat="46.97877" lon="6.00379">
        <ele>410</ele>
        <time>2015-05-28T07:16:20Z</time>
      </trkpt>
      <trkpt lat="46.97886" lon="6.00365">
        <ele>408</ele>
        <time>2015-05-28T07:16:50Z</time>
      </trkpt>
      <trkpt lat="46.97889" lon="6.00353">
        <ele>408</ele>
        <time>2015-05-28T07:16:59Z</time>
      </trkpt>
      <trkpt lat="46.97887" lon="6.00339">
        <ele>408</ele>
        <time>2015-05-28T07:17:13Z</time>
      </trkpt>
      <trkpt lat="46.97884" lon="6.00326">
        <ele>408</ele>
        <time>2015-05-28T07:17:22Z</time>
      </trkpt>
      <trkpt lat="46.97877" lon="6.00315">
        <ele>408</ele>
        <time>2015-05-28T07:17:32Z</time>
      </trkpt>
      <trkpt lat="46.97873" lon="6.00311">
        <ele>407</ele>
        <time>2015-05-28T07:17:47Z</time>
      </trkpt>
      <trkpt lat="46.97867" lon="6.003">
        <ele>406</ele>
        <time>2015-05-28T07:17:57Z</time>
      </trkpt>
      <trkpt lat="46.97857" lon="6.00301">
        <ele>404</ele>
        <time>2015-05-28T07:18:18Z</time>
      </trkpt>
      <trkpt lat="46.97848" lon="6.00291">
        <ele>401</ele>
        <time>2015-05-28T07:18:37Z</time>
      </trkpt>
      <trkpt lat="46.97839" lon="6.00288">
        <ele>399</ele>
        <time>2015-05-28T07:18:47Z</time>
      </trkpt>
      <trkpt lat="46.97829" lon="6.00285">
        <ele>399</ele>
        <time>2015-05-28T07:18:59Z</time>
      </trkpt>
      <trkpt lat="46.97822" lon="6.00276">
        <ele>399</ele>
        <time>2015-05-28T07:19:11Z</time>
      </trkpt>
      <trkpt lat="46.97814" lon="6.00237">
        <ele>395</ele>
        <time>2015-05-28T07:19:45Z</time>
      </trkpt>
      <trkpt lat="46.97805" lon="6.0023">
        <ele>394</ele>
        <time>2015-05-28T07:19:52Z</time>
      </trkpt>
      <trkpt lat="46.97799" lon="6.00234">
        <ele>384</ele>
        <time>2015-05-28T07:20:44Z</time>
      </trkpt>
      <trkpt lat="46.9778" lon="6.00231">
        <ele>382</ele>
        <time>2015-05-28T07:21:12Z</time>
      </trkpt>
      <trkpt lat="46.9777" lon="6.00231">
        <ele>382</ele>
        <time>2015-05-28T07:21:23Z</time>
      </trkpt>
      <trkpt lat="46.97766" lon="6.00234">
        <ele>385</ele>
        <time>2015-05-28T07:21:40Z</time>
      </trkpt>
      <trkpt lat="46.97742" lon="6.00212">
        <ele>386</ele>
        <time>2015-05-28T07:22:12Z</time>
      </trkpt>
      <trkpt lat="46.97746" lon="6.00199">
        <ele>386</ele>
        <time>2015-05-28T07:22:22Z</time>
      </trkpt>
      <trkpt lat="46.97745" lon="6.00185">
        <ele>387</ele>
        <time>2015-05-28T07:22:31Z</time>
      </trkpt>
      <trkpt lat="46.9774" lon="6.00174">
        <ele>387</ele>
        <time>2015-05-28T07:22:40Z</time>
      </trkpt>
      <trkpt lat="46.97737" lon="6.0016">
        <ele>387</ele>
        <time>2015-05-28T07:22:51Z</time>
      </trkpt>
      <trkpt lat="46.97737" lon="6.00147">
        <ele>386</ele>
        <time>2015-05-28T07:22:58Z</time>
      </trkpt>
      <trkpt lat="46.97738" lon="6.00133">
        <ele>385</ele>
        <time>2015-05-28T07:23:07Z</time>
      </trkpt>
      <trkpt lat="46.9774" lon="6.00118">
        <ele>385</ele>
        <time>2015-05-28T07:23:14Z</time>
      </trkpt>
      <trkpt lat="46.97759" lon="6.00069">
        <ele>385</ele>
        <time>2015-05-28T07:23:44Z</time>
      </trkpt>
      <trkpt lat="46.97763" lon="6.00055">
        <ele>384</ele>
        <time>2015-05-28T07:23:53Z</time>
      </trkpt>
      <trkpt lat="46.97763" lon="6.00027">
        <ele>385</ele>
        <time>2015-05-28T07:24:12Z</time>
      </trkpt>
      <trkpt lat="46.9777" lon="6.00018">
        <ele>385</ele>
        <time>2015-05-28T07:24:19Z</time>
      </trkpt>
      <trkpt lat="46.97778" lon="6.00007">
        <ele>385</ele>
        <time>2015-05-28T07:24:26Z</time>
      </trkpt>
      <trkpt lat="46.97819" lon="5.99959">
        <ele>376</ele>
        <time>2015-05-28T07:25:04Z</time>
      </trkpt>
      <trkpt lat="46.97827" lon="5.99951">
        <ele>376</ele>
        <time>2015-05-28T07:25:10Z</time>
      </trkpt>
      <trkpt lat="46.97857" lon="5.99918">
        <ele>372</ele>
        <time>2015-05-28T07:25:46Z</time>
      </trkpt>
      <trkpt lat="46.97865" lon="5.99911">
        <ele>371</ele>
        <time>2015-05-28T07:25:58Z</time>
      </trkpt>
      <trkpt lat="46.9788" lon="5.99893">
        <ele>372</ele>
        <time>2015-05-28T07:26:11Z</time>
      </trkpt>
      <trkpt lat="46.97882" lon="5.9988">
        <ele>372</ele>
        <time>2015-05-28T07:26:20Z</time>
      </trkpt>
      <trkpt lat="46.97891" lon="5.99875">
        <ele>372</ele>
        <time>2015-05-28T07:26:29Z</time>
      </trkpt>
      <trkpt lat="46.97912" lon="5.99866">
        <ele>372</ele>
        <time>2015-05-28T07:26:55Z</time>
      </trkpt>
      <trkpt lat="46.97904" lon="5.99855">
        <ele>371</ele>
        <time>2015-05-28T07:27:06Z</time>
      </trkpt>
      <trkpt lat="46.97911" lon="5.99845">
        <ele>370</ele>
        <time>2015-05-28T07:27:19Z</time>
      </trkpt>
      <trkpt lat="46.97946" lon="5.99827">
        <ele>366</ele>
        <time>2015-05-28T07:27:44Z</time>
      </trkpt>
      <trkpt lat="46.97984" lon="5.99808">
        <ele>366</ele>
        <time>2015-05-28T07:28:18Z</time>
      </trkpt>
      <trkpt lat="46.97993" lon="5.99801">
        <ele>366</ele>
        <time>2015-05-28T07:28:29Z</time>
      </trkpt>
      <trkpt lat="46.98021" lon="5.99788">
        <ele>369</ele>
        <time>2015-05-28T07:28:51Z</time>
      </trkpt>
      <trkpt lat="46.9803" lon="5.99783">
        <ele>369</ele>
        <time>2015-05-28T07:28:58Z</time>
      </trkpt>
      <trkpt lat="46.9804" lon="5.99779">
        <ele>369</ele>
        <time>2015-05-28T07:29:06Z</time>
      </trkpt>
      <trkpt lat="46.98049" lon="5.99778">
        <ele>369</ele>
        <time>2015-05-28T07:29:13Z</time>
      </trkpt>
      <trkpt lat="46.98097" lon="5.99752">
        <ele>371</ele>
        <time>2015-05-28T07:29:48Z</time>
      </trkpt>
      <trkpt lat="46.98107" lon="5.99748">
        <ele>370</ele>
        <time>2015-05-28T07:29:57Z</time>
      </trkpt>
      <trkpt lat="46.98142" lon="5.99726">
        <ele>370</ele>
        <time>2015-05-28T07:30:27Z</time>
      </trkpt>
      <trkpt lat="46.98179" lon="5.99718">
        <ele>371</ele>
        <time>2015-05-28T07:31:02Z</time>
      </trkpt>
      <trkpt lat="46.98196" lon="5.99708">
        <ele>371</ele>
        <time>2015-05-28T07:31:16Z</time>
      </trkpt>
      <trkpt lat="46.98204" lon="5.99716">
        <ele>371</ele>
        <time>2015-05-28T07:31:24Z</time>
      </trkpt>
      <trkpt lat="46.98214" lon="5.99711">
        <ele>371</ele>
        <time>2015-05-28T07:31:30Z</time>
      </trkpt>
      <trkpt lat="46.9826" lon="5.99694">
        <ele>372</ele>
        <time>2015-05-28T07:32:05Z</time>
      </trkpt>
      <trkpt lat="46.98309" lon="5.99689">
        <ele>373</ele>
        <time>2015-05-28T07:32:40Z</time>
      </trkpt>
      <trkpt lat="46.98317" lon="5.99696">
        <ele>372</ele>
        <time>2015-05-28T07:32:50Z</time>
      </trkpt>
      <trkpt lat="46.98326" lon="5.99692">
        <ele>372</ele>
        <time>2015-05-28T07:32:57Z</time>
      </trkpt>
      <trkpt lat="46.98337" lon="5.99691">
        <ele>370</ele>
        <time>2015-05-28T07:33:03Z</time>
      </trkpt>
      <trkpt lat="46.98346" lon="5.9969">
        <ele>369</ele>
        <time>2015-05-28T07:33:12Z</time>
      </trkpt>
      <trkpt lat="46.98384" lon="5.9969">
        <ele>370</ele>
        <time>2015-05-28T07:33:49Z</time>
      </trkpt>
      <trkpt lat="46.98423" lon="5.99703">
        <ele>371</ele>
        <time>2015-05-28T07:34:11Z</time>
      </trkpt>
      <trkpt lat="46.98429" lon="5.99713">
        <ele>371</ele>
        <time>2015-05-28T07:34:24Z</time>
      </trkpt>
      <trkpt lat="46.98437" lon="5.9972">
        <ele>371</ele>
        <time>2015-05-28T07:34:30Z</time>
      </trkpt>
      <trkpt lat="46.98467" lon="5.99726">
        <ele>371</ele>
        <time>2015-05-28T07:34:49Z</time>
      </trkpt>
      <trkpt lat="46.98482" lon="5.99744">
        <ele>372</ele>
        <time>2015-05-28T07:35:08Z</time>
      </trkpt>
      <trkpt lat="46.98502" lon="5.99749">
        <ele>372</ele>
        <time>2015-05-28T07:35:22Z</time>
      </trkpt>
      <trkpt lat="46.98543" lon="5.99753">
        <ele>373</ele>
        <time>2015-05-28T07:35:41Z</time>
      </trkpt>
      <trkpt lat="46.9855" lon="5.99762">
        <ele>373</ele>
        <time>2015-05-28T07:35:52Z</time>
      </trkpt>
      <trkpt lat="46.98569" lon="5.99767">
        <ele>374</ele>
        <time>2015-05-28T07:36:08Z</time>
      </trkpt>
      <trkpt lat="46.98594" lon="5.99797">
        <ele>377</ele>
        <time>2015-05-28T07:36:41Z</time>
      </trkpt>
      <trkpt lat="46.98602" lon="5.99804">
        <ele>377</ele>
        <time>2015-05-28T07:36:47Z</time>
      </trkpt>
      <trkpt lat="46.98606" lon="5.99821">
        <ele>376</ele>
        <time>2015-05-28T07:36:55Z</time>
      </trkpt>
      <trkpt lat="46.98606" lon="5.99835">
        <ele>374</ele>
        <time>2015-05-28T07:37:01Z</time>
      </trkpt>
      <trkpt lat="46.98612" lon="5.99846">
        <ele>372</ele>
        <time>2015-05-28T07:37:10Z</time>
      </trkpt>
      <trkpt lat="46.98621" lon="5.9985">
        <ele>371</ele>
        <time>2015-05-28T07:37:19Z</time>
      </trkpt>
      <trkpt lat="46.98642" lon="5.99851">
        <ele>370</ele>
        <time>2015-05-28T07:37:28Z</time>
      </trkpt>
      <trkpt lat="46.9865" lon="5.99851">
        <ele>369</ele>
        <time>2015-05-28T07:37:33Z</time>
      </trkpt>
      <trkpt lat="46.98666" lon="5.99837">
        <ele>366</ele>
        <time>2015-05-28T07:37:52Z</time>
      </trkpt>
      <trkpt lat="46.98674" lon="5.99828">
        <ele>366</ele>
        <time>2015-05-28T07:38:00Z</time>
      </trkpt>
      <trkpt lat="46.98677" lon="5.99822">
        <ele>366</ele>
        <time>2015-05-28T07:38:04Z</time>
      </trkpt>
      <trkpt lat="46.98681" lon="5.99818">
        <ele>366</ele>
        <time>2015-05-28T07:38:11Z</time>
      </trkpt>
      <trkpt lat="46.98682" lon="5.99814">
        <ele>365</ele>
        <time>2015-05-28T07:38:18Z</time>
      </trkpt>
      <trkpt lat="46.98678" lon="5.9981">
        <ele>365</ele>
        <time>2015-05-28T07:38:23Z</time>
      </trkpt>
      <trkpt lat="46.98668" lon="5.99794">
        <ele>366</ele>
        <time>2015-05-28T07:38:38Z</time>
      </trkpt>
      <trkpt lat="46.98662" lon="5.99782">
        <ele>365</ele>
        <time>2015-05-28T07:38:47Z</time>
      </trkpt>
      <trkpt lat="46.98659" lon="5.99777">
        <ele>365</ele>
        <time>2015-05-28T07:38:51Z</time>
      </trkpt>
      <trkpt lat="46.98654" lon="5.99764">
        <ele>366</ele>
        <time>2015-05-28T07:39:00Z</time>
      </trkpt>
      <trkpt lat="46.98653" lon="5.99757">
        <ele>366</ele>
        <time>2015-05-28T07:39:05Z</time>
      </trkpt>
      <trkpt lat="46.98658" lon="5.99768">
        <ele>366</ele>
        <time>2015-05-28T07:39:16Z</time>
      </trkpt>
      <trkpt lat="46.98672" lon="5.99791">
        <ele>365</ele>
        <time>2015-05-28T07:39:34Z</time>
      </trkpt>
      <trkpt lat="46.98684" lon="5.99815">
        <ele>365</ele>
        <time>2015-05-28T07:39:48Z</time>
      </trkpt>
      <trkpt lat="46.98687" lon="5.99802">
        <ele>364</ele>
        <time>2015-05-28T07:40:05Z</time>
      </trkpt>
      <trkpt lat="46.98688" lon="5.99789">
        <ele>364</ele>
        <time>2015-05-28T07:40:16Z</time>
      </trkpt>
      <trkpt lat="46.98687" lon="5.99761">
        <ele>366</ele>
        <time>2015-05-28T07:40:36Z</time>
      </trkpt>
      <trkpt lat="46.98691" lon="5.99748">
        <ele>369</ele>
        <time>2015-05-28T07:40:50Z</time>
      </trkpt>
      <trkpt lat="46.987" lon="5.99749">
        <ele>370</ele>
        <time>2015-05-28T07:41:09Z</time>
      </trkpt>
      <trkpt lat="46.98709" lon="5.99741">
        <ele>372</ele>
        <time>2015-05-28T07:41:23Z</time>
      </trkpt>
      <trkpt lat="46.98715" lon="5.99752">
        <ele>373</ele>
        <time>2015-05-28T07:41:32Z</time>
      </trkpt>
      <trkpt lat="46.98732" lon="5.99762">
        <ele>377</ele>
        <time>2015-05-28T07:42:01Z</time>
      </trkpt>
      <trkpt lat="46.98741" lon="5.99761">
        <ele>378</ele>
        <time>2015-05-28T07:42:11Z</time>
      </trkpt>
      <trkpt lat="46.98749" lon="5.99758">
        <ele>380</ele>
        <time>2015-05-28T07:42:32Z</time>
      </trkpt>
      <trkpt lat="46.98756" lon="5.99746">
        <ele>382</ele>
        <time>2015-05-28T07:42:52Z</time>
      </trkpt>
      <trkpt lat="46.98773" lon="5.99735">
        <ele>387</ele>
        <time>2015-05-28T07:43:14Z</time>
      </trkpt>
      <trkpt lat="46.98781" lon="5.99742">
        <ele>390</ele>
        <time>2015-05-28T07:43:25Z</time>
      </trkpt>
      <trkpt lat="46.98786" lon="5.99746">
        <ele>394</ele>
        <time>2015-05-28T07:43:38Z</time>
      </trkpt>
      <trkpt lat="46.98793" lon="5.99737">
        <ele>396</ele>
        <time>2015-05-28T07:43:51Z</time>
      </trkpt>
      <trkpt lat="46.98802" lon="5.99738">
        <ele>396</ele>
        <time>2015-05-28T07:44:03Z</time>
      </trkpt>
      <trkpt lat="46.98811" lon="5.9974">
        <ele>398</ele>
        <time>2015-05-28T07:44:14Z</time>
      </trkpt>
      <trkpt lat="46.98821" lon="5.99739">
        <ele>398</ele>
        <time>2015-05-28T07:44:23Z</time>
      </trkpt>
      <trkpt lat="46.98829" lon="5.99725">
        <ele>402</ele>
        <time>2015-05-28T07:44:49Z</time>
      </trkpt>
      <trkpt lat="46.98838" lon="5.99723">
        <ele>402</ele>
        <time>2015-05-28T07:44:54Z</time>
      </trkpt>
      <trkpt lat="46.9884" lon="5.9971">
        <ele>403</ele>
        <time>2015-05-28T07:45:06Z</time>
      </trkpt>
      <trkpt lat="46.98836" lon="5.99709">
        <ele>415</ele>
        <time>2015-05-28T07:46:03Z</time>
      </trkpt>
      <trkpt lat="46.98824" lon="5.99713">
        <ele>415</ele>
        <time>2015-05-28T07:46:06Z</time>
      </trkpt>
      <trkpt lat="46.98831" lon="5.99713">
        <ele>415</ele>
        <time>2015-05-28T07:46:31Z</time>
      </trkpt>
      <trkpt lat="46.98838" lon="5.99719">
        <ele>416</ele>
        <time>2015-05-28T07:46:48Z</time>
      </trkpt>
      <trkpt lat="46.98842" lon="5.99705">
        <ele>415</ele>
        <time>2015-05-28T07:47:09Z</time>
      </trkpt>
      <trkpt lat="46.98837" lon="5.99706">
        <ele>412</ele>
        <time>2015-05-28T07:47:46Z</time>
      </trkpt>
      <trkpt lat="46.98843" lon="5.99702">
        <ele>419</ele>
        <time>2015-05-28T07:49:34Z</time>
      </trkpt>
      <trkpt lat="46.98844" lon="5.99688">
        <ele>420</ele>
        <time>2015-05-28T07:49:43Z</time>
      </trkpt>
      <trkpt lat="46.98853" lon="5.99685">
        <ele>421</ele>
        <time>2015-05-28T07:49:51Z</time>
      </trkpt>
      <trkpt lat="46.98863" lon="5.99686">
        <ele>422</ele>
        <time>2015-05-28T07:49:59Z</time>
      </trkpt>
      <trkpt lat="46.98869" lon="5.99697">
        <ele>422</ele>
        <time>2015-05-28T07:50:09Z</time>
      </trkpt>
      <trkpt lat="46.98881" lon="5.99738">
        <ele>422</ele>
        <time>2015-05-28T07:50:38Z</time>
      </trkpt>
      <trkpt lat="46.98889" lon="5.99743">
        <ele>422</ele>
        <time>2015-05-28T07:50:45Z</time>
      </trkpt>
      <trkpt lat="46.98898" lon="5.99745">
        <ele>423</ele>
        <time>2015-05-28T07:50:54Z</time>
      </trkpt>
      <trkpt lat="46.98905" lon="5.99756">
        <ele>422</ele>
        <time>2015-05-28T07:51:09Z</time>
      </trkpt>
      <trkpt lat="46.98919" lon="5.99759">
        <ele>422</ele>
        <time>2015-05-28T07:51:17Z</time>
      </trkpt>
      <trkpt lat="46.98936" lon="5.9975">
        <ele>422</ele>
        <time>2015-05-28T07:51:33Z</time>
      </trkpt>
      <trkpt lat="46.98955" lon="5.99754">
        <ele>422</ele>
        <time>2015-05-28T07:51:50Z</time>
      </trkpt>
      <trkpt lat="46.98985" lon="5.99748">
        <ele>424</ele>
        <time>2015-05-28T07:52:11Z</time>
      </trkpt>
      <trkpt lat="46.98993" lon="5.99758">
        <ele>425</ele>
        <time>2015-05-28T07:52:22Z</time>
      </trkpt>
      <trkpt lat="46.99021" lon="5.99762">
        <ele>429</ele>
        <time>2015-05-28T07:52:46Z</time>
      </trkpt>
      <trkpt lat="46.99038" lon="5.99774">
        <ele>429</ele>
        <time>2015-05-28T07:53:00Z</time>
      </trkpt>
      <trkpt lat="46.99043" lon="5.99785">
        <ele>429</ele>
        <time>2015-05-28T07:53:10Z</time>
      </trkpt>
      <trkpt lat="46.99053" lon="5.99784">
        <ele>429</ele>
        <time>2015-05-28T07:53:15Z</time>
      </trkpt>
      <trkpt lat="46.9908" lon="5.99797">
        <ele>433</ele>
        <time>2015-05-28T07:53:41Z</time>
      </trkpt>
      <trkpt lat="46.99098" lon="5.99828">
        <ele>437</ele>
        <time>2015-05-28T07:54:01Z</time>
      </trkpt>
      <trkpt lat="46.99111" lon="5.99866">
        <ele>440</ele>
        <time>2015-05-28T07:54:23Z</time>
      </trkpt>
      <trkpt lat="46.99118" lon="5.99869">
        <ele>440</ele>
        <time>2015-05-28T07:54:25Z</time>
      </trkpt>
      <trkpt lat="46.99127" lon="5.99862">
        <ele>441</ele>
        <time>2015-05-28T07:54:33Z</time>
      </trkpt>
      <trkpt lat="46.99136" lon="5.99855">
        <ele>442</ele>
        <time>2015-05-28T07:54:40Z</time>
      </trkpt>
      <trkpt lat="46.99145" lon="5.99856">
        <ele>443</ele>
        <time>2015-05-28T07:54:50Z</time>
      </trkpt>
      <trkpt lat="46.99163" lon="5.99846">
        <ele>446</ele>
        <time>2015-05-28T07:55:10Z</time>
      </trkpt>
      <trkpt lat="46.99174" lon="5.9984">
        <ele>447</ele>
        <time>2015-05-28T07:55:14Z</time>
      </trkpt>
      <trkpt lat="46.99184" lon="5.99836">
        <ele>446</ele>
        <time>2015-05-28T07:55:19Z</time>
      </trkpt>
      <trkpt lat="46.99193" lon="5.9983">
        <ele>447</ele>
        <time>2015-05-28T07:55:26Z</time>
      </trkpt>
      <trkpt lat="46.9921" lon="5.99819">
        <ele>446</ele>
        <time>2015-05-28T07:55:40Z</time>
      </trkpt>
      <trkpt lat="46.99226" lon="5.99804">
        <ele>447</ele>
        <time>2015-05-28T07:55:57Z</time>
      </trkpt>
      <trkpt lat="46.99235" lon="5.99804">
        <ele>448</ele>
        <time>2015-05-28T07:56:02Z</time>
      </trkpt>
      <trkpt lat="46.99239" lon="5.99791">
        <ele>448</ele>
        <time>2015-05-28T07:56:10Z</time>
      </trkpt>
      <trkpt lat="46.99255" lon="5.99778">
        <ele>449</ele>
        <time>2015-05-28T07:56:36Z</time>
      </trkpt>
      <trkpt lat="46.99272" lon="5.9977">
        <ele>450</ele>
        <time>2015-05-28T07:56:55Z</time>
      </trkpt>
      <trkpt lat="46.9928" lon="5.99779">
        <ele>450</ele>
        <time>2015-05-28T07:57:03Z</time>
      </trkpt>
      <trkpt lat="46.99289" lon="5.99776">
        <ele>451</ele>
        <time>2015-05-28T07:57:11Z</time>
      </trkpt>
      <trkpt lat="46.99306" lon="5.9976">
        <ele>453</ele>
        <time>2015-05-28T07:57:28Z</time>
      </trkpt>
      <trkpt lat="46.99313" lon="5.99751">
        <ele>452</ele>
        <time>2015-05-28T07:57:36Z</time>
      </trkpt>
      <trkpt lat="46.99311" lon="5.99736">
        <ele>451</ele>
        <time>2015-05-28T07:57:44Z</time>
      </trkpt>
      <trkpt lat="46.99311" lon="5.99728">
        <ele>451</ele>
        <time>2015-05-28T07:57:46Z</time>
      </trkpt>
      <trkpt lat="46.99319" lon="5.99721">
        <ele>452</ele>
        <time>2015-05-28T07:57:54Z</time>
      </trkpt>
      <trkpt lat="46.99326" lon="5.99713">
        <ele>454</ele>
        <time>2015-05-28T07:58:09Z</time>
      </trkpt>
      <trkpt lat="46.99335" lon="5.99715">
        <ele>456</ele>
        <time>2015-05-28T07:58:17Z</time>
      </trkpt>
      <trkpt lat="46.99345" lon="5.99711">
        <ele>457</ele>
        <time>2015-05-28T07:58:23Z</time>
      </trkpt>
      <trkpt lat="46.99349" lon="5.99699">
        <ele>459</ele>
        <time>2015-05-28T07:58:42Z</time>
      </trkpt>
      <trkpt lat="46.9935" lon="5.99685">
        <ele>460</ele>
        <time>2015-05-28T07:58:52Z</time>
      </trkpt>
      <trkpt lat="46.99355" lon="5.99685">
        <ele>462</ele>
        <time>2015-05-28T07:58:55Z</time>
      </trkpt>
      <trkpt lat="46.99366" lon="5.99677">
        <ele>464</ele>
        <time>2015-05-28T07:59:06Z</time>
      </trkpt>
      <trkpt lat="46.99364" lon="5.99664">
        <ele>467</ele>
        <time>2015-05-28T07:59:16Z</time>
      </trkpt>
      <trkpt lat="46.99369" lon="5.99653">
        <ele>468</ele>
        <time>2015-05-28T07:59:30Z</time>
      </trkpt>
      <trkpt lat="46.99387" lon="5.99638">
        <ele>471</ele>
        <time>2015-05-28T08:00:00Z</time>
      </trkpt>
      <trkpt lat="46.9939" lon="5.9963">
        <ele>475</ele>
        <time>2015-05-28T08:00:17Z</time>
      </trkpt>
      <trkpt lat="46.99407" lon="5.99618">
        <ele>479</ele>
        <time>2015-05-28T08:00:50Z</time>
      </trkpt>
      <trkpt lat="46.99431" lon="5.99598">
        <ele>486</ele>
        <time>2015-05-28T08:01:22Z</time>
      </trkpt>
      <trkpt lat="46.99437" lon="5.99587">
        <ele>489</ele>
        <time>2015-05-28T08:01:39Z</time>
      </trkpt>
      <trkpt lat="46.99446" lon="5.99581">
        <ele>490</ele>
        <time>2015-05-28T08:01:51Z</time>
      </trkpt>
      <trkpt lat="46.99454" lon="5.99575">
        <ele>489</ele>
        <time>2015-05-28T08:02:00Z</time>
      </trkpt>
      <trkpt lat="46.99459" lon="5.99564">
        <ele>490</ele>
        <time>2015-05-28T08:02:14Z</time>
      </trkpt>
      <trkpt lat="46.99465" lon="5.99552">
        <ele>492</ele>
        <time>2015-05-28T08:02:26Z</time>
      </trkpt>
      <trkpt lat="46.99478" lon="5.99533">
        <ele>493</ele>
        <time>2015-05-28T08:02:45Z</time>
      </trkpt>
      <trkpt lat="46.99493" lon="5.99512">
        <ele>500</ele>
        <time>2015-05-28T08:03:26Z</time>
      </trkpt>
      <trkpt lat="46.99507" lon="5.99504">
        <ele>503</ele>
        <time>2015-05-28T08:03:49Z</time>
      </trkpt>
      <trkpt lat="46.99515" lon="5.99479">
        <ele>504</ele>
        <time>2015-05-28T08:04:11Z</time>
      </trkpt>
      <trkpt lat="46.99518" lon="5.99466">
        <ele>505</ele>
        <time>2015-05-28T08:04:19Z</time>
      </trkpt>
      <trkpt lat="46.99527" lon="5.99468">
        <ele>505</ele>
        <time>2015-05-28T08:04:26Z</time>
      </trkpt>
      <trkpt lat="46.99535" lon="5.99456">
        <ele>506</ele>
        <time>2015-05-28T08:04:42Z</time>
      </trkpt>
      <trkpt lat="46.99541" lon="5.99447">
        <ele>506</ele>
        <time>2015-05-28T08:04:49Z</time>
      </trkpt>
      <trkpt lat="46.99559" lon="5.99438">
        <ele>512</ele>
        <time>2015-05-28T08:05:19Z</time>
      </trkpt>
      <trkpt lat="46.99569" lon="5.9944">
        <ele>513</ele>
        <time>2015-05-28T08:05:26Z</time>
      </trkpt>
      <trkpt lat="46.99575" lon="5.9943">
        <ele>515</ele>
        <time>2015-05-28T08:05:33Z</time>
      </trkpt>
      <trkpt lat="46.99579" lon="5.99416">
        <ele>516</ele>
        <time>2015-05-28T08:05:44Z</time>
      </trkpt>
      <trkpt lat="46.99581" lon="5.99405">
        <ele>516</ele>
        <time>2015-05-28T08:06:03Z</time>
      </trkpt>
      <trkpt lat="46.99615" lon="5.9941">
        <ele>514</ele>
        <time>2015-05-28T08:06:48Z</time>
      </trkpt>
      <trkpt lat="46.9961" lon="5.99423">
        <ele>515</ele>
        <time>2015-05-28T08:07:02Z</time>
      </trkpt>
      <trkpt lat="46.99614" lon="5.99435">
        <ele>516</ele>
        <time>2015-05-28T08:07:10Z</time>
      </trkpt>
      <trkpt lat="46.99618" lon="5.99443">
        <ele>518</ele>
        <time>2015-05-28T08:07:26Z</time>
      </trkpt>
      <trkpt lat="46.99624" lon="5.9944">
        <ele>521</ele>
        <time>2015-05-28T08:07:54Z</time>
      </trkpt>
      <trkpt lat="46.99629" lon="5.99452">
        <ele>522</ele>
        <time>2015-05-28T08:08:05Z</time>
      </trkpt>
      <trkpt lat="46.99638" lon="5.99446">
        <ele>527</ele>
        <time>2015-05-28T08:08:22Z</time>
      </trkpt>
      <trkpt lat="46.99637" lon="5.99438">
        <ele>527</ele>
        <time>2015-05-28T08:08:44Z</time>
      </trkpt>
      <trkpt lat="46.99638" lon="5.99424">
        <ele>527</ele>
        <time>2015-05-28T08:09:03Z</time>
      </trkpt>
      <trkpt lat="46.99641" lon="5.99412">
        <ele>526</ele>
        <time>2015-05-28T08:09:10Z</time>
      </trkpt>
      <trkpt lat="46.99639" lon="5.99398">
        <ele>526</ele>
        <time>2015-05-28T08:09:26Z</time>
      </trkpt>
      <trkpt lat="46.99633" lon="5.99388">
        <ele>525</ele>
        <time>2015-05-28T08:09:36Z</time>
      </trkpt>
      <trkpt lat="46.99633" lon="5.99374">
        <ele>526</ele>
        <time>2015-05-28T08:09:51Z</time>
      </trkpt>
      <trkpt lat="46.99634" lon="5.99346">
        <ele>526</ele>
        <time>2015-05-28T08:10:09Z</time>
      </trkpt>
      <trkpt lat="46.99642" lon="5.9934">
        <ele>526</ele>
        <time>2015-05-28T08:10:16Z</time>
      </trkpt>
      <trkpt lat="46.99648" lon="5.99329">
        <ele>527</ele>
        <time>2015-05-28T08:10:32Z</time>
      </trkpt>
      <trkpt lat="46.99658" lon="5.99326">
        <ele>528</ele>
        <time>2015-05-28T08:10:43Z</time>
      </trkpt>
      <trkpt lat="46.99665" lon="5.99318">
        <ele>529</ele>
        <time>2015-05-28T08:10:51Z</time>
      </trkpt>
      <trkpt lat="46.99677" lon="5.99298">
        <ele>533</ele>
        <time>2015-05-28T08:11:09Z</time>
      </trkpt>
      <trkpt lat="46.99685" lon="5.99291">
        <ele>533</ele>
        <time>2015-05-28T08:11:21Z</time>
      </trkpt>
      <trkpt lat="46.99692" lon="5.99281">
        <ele>534</ele>
        <time>2015-05-28T08:11:29Z</time>
      </trkpt>
      <trkpt lat="46.99723" lon="5.99248">
        <ele>533</ele>
        <time>2015-05-28T08:12:03Z</time>
      </trkpt>
      <trkpt lat="46.9974" lon="5.99235">
        <ele>534</ele>
        <time>2015-05-28T08:12:17Z</time>
      </trkpt>
      <trkpt lat="46.99746" lon="5.99225">
        <ele>536</ele>
        <time>2015-05-28T08:12:29Z</time>
      </trkpt>
      <trkpt lat="46.99755" lon="5.99188">
        <ele>537</ele>
        <time>2015-05-28T08:12:50Z</time>
      </trkpt>
      <trkpt lat="46.99772" lon="5.99174">
        <ele>538</ele>
        <time>2015-05-28T08:13:06Z</time>
      </trkpt>
      <trkpt lat="46.99781" lon="5.99169">
        <ele>539</ele>
        <time>2015-05-28T08:13:14Z</time>
      </trkpt>
      <trkpt lat="46.99795" lon="5.99158">
        <ele>541</ele>
        <time>2015-05-28T08:13:43Z</time>
      </trkpt>
      <trkpt lat="46.99803" lon="5.99154">
        <ele>540</ele>
        <time>2015-05-28T08:13:53Z</time>
      </trkpt>
      <trkpt lat="46.99812" lon="5.9915">
        <ele>539</ele>
        <time>2015-05-28T08:14:01Z</time>
      </trkpt>
      <trkpt lat="46.99822" lon="5.99145">
        <ele>539</ele>
        <time>2015-05-28T08:14:09Z</time>
      </trkpt>
      <trkpt lat="46.99828" lon="5.99134">
        <ele>538</ele>
        <time>2015-05-28T08:14:18Z</time>
      </trkpt>
      <trkpt lat="46.99831" lon="5.99122">
        <ele>537</ele>
        <time>2015-05-28T08:14:27Z</time>
      </trkpt>
      <trkpt lat="46.9983" lon="5.99094">
        <ele>536</ele>
        <time>2015-05-28T08:14:42Z</time>
      </trkpt>
      <trkpt lat="46.99836" lon="5.99082">
        <ele>534</ele>
        <time>2015-05-28T08:14:50Z</time>
      </trkpt>
      <trkpt lat="46.99834" lon="5.99068">
        <ele>533</ele>
        <time>2015-05-28T08:14:58Z</time>
      </trkpt>
      <trkpt lat="46.99828" lon="5.99057">
        <ele>534</ele>
        <time>2015-05-28T08:15:07Z</time>
      </trkpt>
      <trkpt lat="46.99829" lon="5.99043">
        <ele>535</ele>
        <time>2015-05-28T08:15:16Z</time>
      </trkpt>
      <trkpt lat="46.9983" lon="5.9903">
        <ele>535</ele>
        <time>2015-05-28T08:15:27Z</time>
      </trkpt>
      <trkpt lat="46.99828" lon="5.99017">
        <ele>535</ele>
        <time>2015-05-28T08:15:35Z</time>
      </trkpt>
      <trkpt lat="46.99822" lon="5.98963">
        <ele>528</ele>
        <time>2015-05-28T08:16:08Z</time>
      </trkpt>
      <trkpt lat="46.99811" lon="5.98936">
        <ele>527</ele>
        <time>2015-05-28T08:16:26Z</time>
      </trkpt>
      <trkpt lat="46.998" lon="5.98919">
        <ele>524</ele>
        <time>2015-05-28T08:16:57Z</time>
      </trkpt>
      <trkpt lat="46.99795" lon="5.98904">
        <ele>523</ele>
        <time>2015-05-28T08:17:13Z</time>
      </trkpt>
      <trkpt lat="46.99792" lon="5.98891">
        <ele>523</ele>
        <time>2015-05-28T08:17:23Z</time>
      </trkpt>
      <trkpt lat="46.99788" lon="5.98878">
        <ele>523</ele>
        <time>2015-05-28T08:17:37Z</time>
      </trkpt>
      <trkpt lat="46.9978" lon="5.98868">
        <ele>523</ele>
        <time>2015-05-28T08:17:44Z</time>
      </trkpt>
      <trkpt lat="46.99776" lon="5.98855">
        <ele>524</ele>
        <time>2015-05-28T08:17:54Z</time>
      </trkpt>
      <trkpt lat="46.99764" lon="5.98817">
        <ele>524</ele>
        <time>2015-05-28T08:18:23Z</time>
      </trkpt>
      <trkpt lat="46.99761" lon="5.98802">
        <ele>522</ele>
        <time>2015-05-28T08:18:33Z</time>
      </trkpt>
      <trkpt lat="46.99754" lon="5.98792">
        <ele>519</ele>
        <time>2015-05-28T08:18:46Z</time>
      </trkpt>
      <trkpt lat="46.9974" lon="5.98772">
        <ele>517</ele>
        <time>2015-05-28T08:19:01Z</time>
      </trkpt>
      <trkpt lat="46.99735" lon="5.98759">
        <ele>518</ele>
        <time>2015-05-28T08:19:10Z</time>
      </trkpt>
      <trkpt lat="46.99726" lon="5.9872">
        <ele>513</ele>
        <time>2015-05-28T08:19:42Z</time>
      </trkpt>
      <trkpt lat="46.99722" lon="5.98694">
        <ele>509</ele>
        <time>2015-05-28T08:19:59Z</time>
      </trkpt>
      <trkpt lat="46.9971" lon="5.98674">
        <ele>508</ele>
        <time>2015-05-28T08:20:20Z</time>
      </trkpt>
      <trkpt lat="46.99708" lon="5.98659">
        <ele>508</ele>
        <time>2015-05-28T08:20:28Z</time>
      </trkpt>
      <trkpt lat="46.99709" lon="5.98646">
        <ele>509</ele>
        <time>2015-05-28T08:20:35Z</time>
      </trkpt>
      <trkpt lat="46.9971" lon="5.98632">
        <ele>509</ele>
        <time>2015-05-28T08:20:43Z</time>
      </trkpt>
      <trkpt lat="46.9971" lon="5.98589">
        <ele>504</ele>
        <time>2015-05-28T08:21:16Z</time>
      </trkpt>
      <trkpt lat="46.99692" lon="5.98525">
        <ele>503</ele>
        <time>2015-05-28T08:21:54Z</time>
      </trkpt>
      <trkpt lat="46.99696" lon="5.98483">
        <ele>504</ele>
        <time>2015-05-28T08:22:23Z</time>
      </trkpt>
      <trkpt lat="46.997" lon="5.9847">
        <ele>504</ele>
        <time>2015-05-28T08:22:33Z</time>
      </trkpt>
      <trkpt lat="46.99703" lon="5.98456">
        <ele>504</ele>
        <time>2015-05-28T08:22:43Z</time>
      </trkpt>
      <trkpt lat="46.99708" lon="5.98429">
        <ele>504</ele>
        <time>2015-05-28T08:23:08Z</time>
      </trkpt>
      <trkpt lat="46.99709" lon="5.98416">
        <ele>504</ele>
        <time>2015-05-28T08:23:28Z</time>
      </trkpt>
      <trkpt lat="46.99707" lon="5.98401">
        <ele>505</ele>
        <time>2015-05-28T08:24:35Z</time>
      </trkpt>
      <trkpt lat="46.997" lon="5.98399">
        <ele>504</ele>
        <time>2015-05-28T08:24:51Z</time>
      </trkpt>
      <trkpt lat="46.99696" lon="5.98388">
        <ele>504</ele>
        <time>2015-05-28T08:25:29Z</time>
      </trkpt>
      <trkpt lat="46.997" lon="5.98376">
        <ele>504</ele>
        <time>2015-05-28T08:27:05Z</time>
      </trkpt>
      <trkpt lat="46.9969" lon="5.98366">
        <ele>508</ele>
        <time>2015-05-28T08:27:22Z</time>
      </trkpt>
      <trkpt lat="46.99683" lon="5.98357">
        <ele>510</ele>
        <time>2015-05-28T08:27:31Z</time>
      </trkpt>
      <trkpt lat="46.99682" lon="5.98342">
        <ele>511</ele>
        <time>2015-05-28T08:27:40Z</time>
      </trkpt>
      <trkpt lat="46.9968" lon="5.98302">
        <ele>510</ele>
        <time>2015-05-28T08:28:03Z</time>
      </trkpt>
      <trkpt lat="46.99678" lon="5.98289">
        <ele>511</ele>
        <time>2015-05-28T08:28:15Z</time>
      </trkpt>
      <trkpt lat="46.99674" lon="5.98276">
        <ele>511</ele>
        <time>2015-05-28T08:28:25Z</time>
      </trkpt>
      <trkpt lat="46.99671" lon="5.98263">
        <ele>512</ele>
        <time>2015-05-28T08:28:34Z</time>
      </trkpt>
      <trkpt lat="46.99672" lon="5.98249">
        <ele>512</ele>
        <time>2015-05-28T08:28:45Z</time>
      </trkpt>
      <trkpt lat="46.9968" lon="5.98224">
        <ele>511</ele>
        <time>2015-05-28T08:29:06Z</time>
      </trkpt>
      <trkpt lat="46.9969" lon="5.98199">
        <ele>512</ele>
        <time>2015-05-28T08:29:21Z</time>
      </trkpt>
      <trkpt lat="46.99693" lon="5.98186">
        <ele>513</ele>
        <time>2015-05-28T08:29:30Z</time>
      </trkpt>
      <trkpt lat="46.99698" lon="5.98175">
        <ele>513</ele>
        <time>2015-05-28T08:29:39Z</time>
      </trkpt>
      <trkpt lat="46.99707" lon="5.98173">
        <ele>514</ele>
        <time>2015-05-28T08:29:49Z</time>
      </trkpt>
      <trkpt lat="46.99716" lon="5.98171">
        <ele>515</ele>
        <time>2015-05-28T08:30:00Z</time>
      </trkpt>
      <trkpt lat="46.99753" lon="5.98152">
        <ele>515</ele>
        <time>2015-05-28T08:30:39Z</time>
      </trkpt>
      <trkpt lat="46.99773" lon="5.98156">
        <ele>515</ele>
        <time>2015-05-28T08:30:54Z</time>
      </trkpt>
      <trkpt lat="46.99788" lon="5.98157">
        <ele>513</ele>
        <time>2015-05-28T08:31:23Z</time>
      </trkpt>
      <trkpt lat="46.99781" lon="5.98163">
        <ele>516</ele>
        <time>2015-05-28T08:32:45Z</time>
      </trkpt>
      <trkpt lat="46.99776" lon="5.98157">
        <ele>515</ele>
        <time>2015-05-28T08:34:12Z</time>
      </trkpt>
      <trkpt lat="46.99777" lon="5.98142">
        <ele>516</ele>
        <time>2015-05-28T08:34:26Z</time>
      </trkpt>
      <trkpt lat="46.99786" lon="5.98138">
        <ele>515</ele>
        <time>2015-05-28T08:34:34Z</time>
      </trkpt>
      <trkpt lat="46.99814" lon="5.9813">
        <ele>515</ele>
        <time>2015-05-28T08:35:04Z</time>
      </trkpt>
      <trkpt lat="46.99841" lon="5.98117">
        <ele>519</ele>
        <time>2015-05-28T08:35:27Z</time>
      </trkpt>
      <trkpt lat="46.99849" lon="5.98109">
        <ele>520</ele>
        <time>2015-05-28T08:35:33Z</time>
      </trkpt>
      <trkpt lat="46.99863" lon="5.9809">
        <ele>517</ele>
        <time>2015-05-28T08:35:55Z</time>
      </trkpt>
      <trkpt lat="46.9987" lon="5.9808">
        <ele>517</ele>
        <time>2015-05-28T08:36:00Z</time>
      </trkpt>
      <trkpt lat="46.99873" lon="5.98068">
        <ele>517</ele>
        <time>2015-05-28T08:36:07Z</time>
      </trkpt>
      <trkpt lat="46.99878" lon="5.98055">
        <ele>517</ele>
        <time>2015-05-28T08:36:18Z</time>
      </trkpt>
      <trkpt lat="46.99895" lon="5.98019">
        <ele>517</ele>
        <time>2015-05-28T08:36:55Z</time>
      </trkpt>
      <trkpt lat="46.99897" lon="5.98006">
        <ele>516</ele>
        <time>2015-05-28T08:37:04Z</time>
      </trkpt>
      <trkpt lat="46.99925" lon="5.97959">
        <ele>516</ele>
        <time>2015-05-28T08:37:41Z</time>
      </trkpt>
      <trkpt lat="46.99928" lon="5.97957">
        <ele>518</ele>
        <time>2015-05-28T08:37:52Z</time>
      </trkpt>
      <trkpt lat="46.99968" lon="5.97939">
        <ele>523</ele>
        <time>2015-05-28T08:38:24Z</time>
      </trkpt>
      <trkpt lat="46.99972" lon="5.97936">
        <ele>523</ele>
        <time>2015-05-28T08:38:28Z</time>
      </trkpt>
      <trkpt lat="46.99989" lon="5.97921">
        <ele>521</ele>
        <time>2015-05-28T08:38:48Z</time>
      </trkpt>
      <trkpt lat="47.00023" lon="5.97899">
        <ele>521</ele>
        <time>2015-05-28T08:39:19Z</time>
      </trkpt>
      <trkpt lat="47.00047" lon="5.97874">
        <ele>522</ele>
        <time>2015-05-28T08:39:43Z</time>
      </trkpt>
      <trkpt lat="47.00063" lon="5.9786">
        <ele>524</ele>
        <time>2015-05-28T08:39:57Z</time>
      </trkpt>
      <trkpt lat="47.00101" lon="5.97848">
        <ele>527</ele>
        <time>2015-05-28T08:40:29Z</time>
      </trkpt>
      <trkpt lat="47.0011" lon="5.97843">
        <ele>528</ele>
        <time>2015-05-28T08:40:37Z</time>
      </trkpt>
      <trkpt lat="47.0013" lon="5.97844">
        <ele>530</ele>
        <time>2015-05-28T08:40:53Z</time>
      </trkpt>
      <trkpt lat="47.00139" lon="5.97847">
        <ele>530</ele>
        <time>2015-05-28T08:41:01Z</time>
      </trkpt>
      <trkpt lat="47.00173" lon="5.97841">
        <ele>530</ele>
        <time>2015-05-28T08:41:26Z</time>
      </trkpt>
      <trkpt lat="47.00211" lon="5.97847">
        <ele>535</ele>
        <time>2015-05-28T08:41:59Z</time>
      </trkpt>
      <trkpt lat="47.0024" lon="5.9784">
        <ele>536</ele>
        <time>2015-05-28T08:42:15Z</time>
      </trkpt>
      <trkpt lat="47.00259" lon="5.97836">
        <ele>538</ele>
        <time>2015-05-28T08:42:31Z</time>
      </trkpt>
      <trkpt lat="47.00278" lon="5.97839">
        <ele>539</ele>
        <time>2015-05-28T08:42:48Z</time>
      </trkpt>
      <trkpt lat="47.00282" lon="5.97835">
        <ele>539</ele>
        <time>2015-05-28T08:42:51Z</time>
      </trkpt>
      <trkpt lat="47.00292" lon="5.97838">
        <ele>540</ele>
        <time>2015-05-28T08:43:03Z</time>
      </trkpt>
      <trkpt lat="47.00302" lon="5.97834">
        <ele>540</ele>
        <time>2015-05-28T08:43:11Z</time>
      </trkpt>
      <trkpt lat="47.00331" lon="5.9783">
        <ele>540</ele>
        <time>2015-05-28T08:43:42Z</time>
      </trkpt>
      <trkpt lat="47.00349" lon="5.97825">
        <ele>540</ele>
        <time>2015-05-28T08:43:59Z</time>
      </trkpt>
      <trkpt lat="47.00358" lon="5.97825">
        <ele>539</ele>
        <time>2015-05-28T08:44:08Z</time>
      </trkpt>
      <trkpt lat="47.00365" lon="5.97824">
        <ele>537</ele>
        <time>2015-05-28T08:46:00Z</time>
      </trkpt>
      <trkpt lat="47.00362" lon="5.97812">
        <ele>536</ele>
        <time>2015-05-28T08:46:29Z</time>
      </trkpt>
      <trkpt lat="47.00364" lon="5.97813">
        <ele>534</ele>
        <time>2015-05-28T08:47:24Z</time>
      </trkpt>
      <trkpt lat="47.00361" lon="5.97795">
        <ele>533</ele>
        <time>2015-05-28T08:47:36Z</time>
      </trkpt>
      <trkpt lat="47.00359" lon="5.97796">
        <ele>532</ele>
        <time>2015-05-28T08:48:03Z</time>
      </trkpt>
      <trkpt lat="47.00351" lon="5.97797">
        <ele>532</ele>
        <time>2015-05-28T08:48:06Z</time>
      </trkpt>
      <trkpt lat="47.00357" lon="5.9781">
        <ele>531</ele>
        <time>2015-05-28T08:48:10Z</time>
      </trkpt>
      <trkpt lat="47.00367" lon="5.97807">
        <ele>531</ele>
        <time>2015-05-28T08:48:13Z</time>
      </trkpt>
      <trkpt lat="47.00372" lon="5.97806">
        <ele>530</ele>
        <time>2015-05-28T08:48:24Z</time>
      </trkpt>
      <trkpt lat="47.0037" lon="5.97806">
        <ele>532</ele>
        <time>2015-05-28T08:48:54Z</time>
      </trkpt>
      <trkpt lat="47.00362" lon="5.97805">
        <ele>537</ele>
        <time>2015-05-28T08:50:36Z</time>
      </trkpt>
      <trkpt lat="47.00361" lon="5.97797">
        <ele>538</ele>
        <time>2015-05-28T08:51:08Z</time>
      </trkpt>
      <trkpt lat="47.00372" lon="5.97807">
        <ele>544</ele>
        <time>2015-05-28T08:52:14Z</time>
      </trkpt>
      <trkpt lat="47.00374" lon="5.9781">
        <ele>545</ele>
        <time>2015-05-28T08:53:30Z</time>
      </trkpt>
      <trkpt lat="47.00368" lon="5.97812">
        <ele>540</ele>
        <time>2015-05-28T08:56:08Z</time>
      </trkpt>
      <trkpt lat="47.00375" lon="5.97812">
        <ele>539</ele>
        <time>2015-05-28T08:56:45Z</time>
      </trkpt>
      <trkpt lat="47.00384" lon="5.9781">
        <ele>539</ele>
        <time>2015-05-28T08:56:56Z</time>
      </trkpt>
      <trkpt lat="47.00431" lon="5.97797">
        <ele>530</ele>
        <time>2015-05-28T08:57:32Z</time>
      </trkpt>
      <trkpt lat="47.0044" lon="5.97796">
        <ele>529</ele>
        <time>2015-05-28T08:57:40Z</time>
      </trkpt>
      <trkpt lat="47.00459" lon="5.97797">
        <ele>529</ele>
        <time>2015-05-28T08:58:01Z</time>
      </trkpt>
      <trkpt lat="47.00478" lon="5.97804">
        <ele>531</ele>
        <time>2015-05-28T08:58:14Z</time>
      </trkpt>
      <trkpt lat="47.00496" lon="5.97803">
        <ele>533</ele>
        <time>2015-05-28T08:58:34Z</time>
      </trkpt>
      <trkpt lat="47.00507" lon="5.97801">
        <ele>533</ele>
        <time>2015-05-28T08:58:40Z</time>
      </trkpt>
      <trkpt lat="47.00554" lon="5.97799">
        <ele>532</ele>
        <time>2015-05-28T08:59:12Z</time>
      </trkpt>
      <trkpt lat="47.00582" lon="5.97812">
        <ele>532</ele>
        <time>2015-05-28T08:59:36Z</time>
      </trkpt>
      <trkpt lat="47.00592" lon="5.97811">
        <ele>532</ele>
        <time>2015-05-28T08:59:44Z</time>
      </trkpt>
      <trkpt lat="47.00601" lon="5.97817">
        <ele>531</ele>
        <time>2015-05-28T08:59:54Z</time>
      </trkpt>
      <trkpt lat="47.00628" lon="5.97814">
        <ele>532</ele>
        <time>2015-05-28T09:00:16Z</time>
      </trkpt>
      <trkpt lat="47.00655" lon="5.97803">
        <ele>536</ele>
        <time>2015-05-28T09:00:39Z</time>
      </trkpt>
      <trkpt lat="47.00683" lon="5.97815">
        <ele>537</ele>
        <time>2015-05-28T09:01:03Z</time>
      </trkpt>
      <trkpt lat="47.00691" lon="5.97819">
        <ele>536</ele>
        <time>2015-05-28T09:01:10Z</time>
      </trkpt>
      <trkpt lat="47.00728" lon="5.97841">
        <ele>535</ele>
        <time>2015-05-28T09:01:30Z</time>
      </trkpt>
      <trkpt lat="47.00734" lon="5.97836">
        <ele>535</ele>
        <time>2015-05-28T09:01:34Z</time>
      </trkpt>
      <trkpt lat="47.00742" lon="5.97847">
        <ele>534</ele>
        <time>2015-05-28T09:01:41Z</time>
      </trkpt>
      <trkpt lat="47.00747" lon="5.97858">
        <ele>533</ele>
        <time>2015-05-28T09:01:50Z</time>
      </trkpt>
      <trkpt lat="47.00755" lon="5.97864">
        <ele>533</ele>
        <time>2015-05-28T09:02:00Z</time>
      </trkpt>
      <trkpt lat="47.00774" lon="5.9787">
        <ele>529</ele>
        <time>2015-05-28T09:02:23Z</time>
      </trkpt>
      <trkpt lat="47.00802" lon="5.97874">
        <ele>527</ele>
        <time>2015-05-28T09:02:42Z</time>
      </trkpt>
      <trkpt lat="47.00819" lon="5.97873">
        <ele>527</ele>
        <time>2015-05-28T09:02:50Z</time>
      </trkpt>
      <trkpt lat="47.00828" lon="5.97874">
        <ele>525</ele>
        <time>2015-05-28T09:02:59Z</time>
      </trkpt>
      <trkpt lat="47.00837" lon="5.97869">
        <ele>523</ele>
        <time>2015-05-28T09:03:08Z</time>
      </trkpt>
      <trkpt lat="47.00846" lon="5.97872">
        <ele>522</ele>
        <time>2015-05-28T09:03:18Z</time>
      </trkpt>
      <trkpt lat="47.00854" lon="5.97878">
        <ele>521</ele>
        <time>2015-05-28T09:03:27Z</time>
      </trkpt>
      <trkpt lat="47.00873" lon="5.97879">
        <ele>520</ele>
        <time>2015-05-28T09:03:41Z</time>
      </trkpt>
      <trkpt lat="47.00882" lon="5.97874">
        <ele>519</ele>
        <time>2015-05-28T09:03:47Z</time>
      </trkpt>
      <trkpt lat="47.00881" lon="5.97864">
        <ele>519</ele>
        <time>2015-05-28T09:04:18Z</time>
      </trkpt>
      <trkpt lat="47.00872" lon="5.97866">
        <ele>520</ele>
        <time>2015-05-28T09:04:32Z</time>
      </trkpt>
      <trkpt lat="47.00877" lon="5.97869">
        <ele>521</ele>
        <time>2015-05-28T09:05:48Z</time>
      </trkpt>
      <trkpt lat="47.00887" lon="5.97878">
        <ele>523</ele>
        <time>2015-05-28T09:06:10Z</time>
      </trkpt>
      <trkpt lat="47.00896" lon="5.97883">
        <ele>522</ele>
        <time>2015-05-28T09:06:18Z</time>
      </trkpt>
      <trkpt lat="47.00906" lon="5.97884">
        <ele>523</ele>
        <time>2015-05-28T09:06:25Z</time>
      </trkpt>
      <trkpt lat="47.00915" lon="5.97885">
        <ele>523</ele>
        <time>2015-05-28T09:06:30Z</time>
      </trkpt>
      <trkpt lat="47.00924" lon="5.97881">
        <ele>523</ele>
        <time>2015-05-28T09:06:37Z</time>
      </trkpt>
      <trkpt lat="47.00943" lon="5.97882">
        <ele>524</ele>
        <time>2015-05-28T09:06:52Z</time>
      </trkpt>
      <trkpt lat="47.00941" lon="5.97882">
        <ele>521</ele>
        <time>2015-05-28T09:07:32Z</time>
      </trkpt>
      <trkpt lat="47.00913" lon="5.97879">
        <ele>520</ele>
        <time>2015-05-28T09:07:55Z</time>
      </trkpt>
      <trkpt lat="47.00921" lon="5.97891">
        <ele>519</ele>
        <time>2015-05-28T09:08:13Z</time>
      </trkpt>
      <trkpt lat="47.00927" lon="5.97904">
        <ele>517</ele>
        <time>2015-05-28T09:08:24Z</time>
      </trkpt>
      <trkpt lat="47.00937" lon="5.97907">
        <ele>515</ele>
        <time>2015-05-28T09:08:28Z</time>
      </trkpt>
      <trkpt lat="47.00944" lon="5.97925">
        <ele>513</ele>
        <time>2015-05-28T09:08:45Z</time>
      </trkpt>
      <trkpt lat="47.00949" lon="5.97938">
        <ele>512</ele>
        <time>2015-05-28T09:08:53Z</time>
      </trkpt>
      <trkpt lat="47.00958" lon="5.97946">
        <ele>511</ele>
        <time>2015-05-28T09:08:58Z</time>
      </trkpt>
      <trkpt lat="47.00986" lon="5.97948">
        <ele>507</ele>
        <time>2015-05-28T09:09:29Z</time>
      </trkpt>
      <trkpt lat="47.00997" lon="5.97948">
        <ele>505</ele>
        <time>2015-05-28T09:09:41Z</time>
      </trkpt>
      <trkpt lat="47.01007" lon="5.97946">
        <ele>505</ele>
        <time>2015-05-28T09:09:50Z</time>
      </trkpt>
      <trkpt lat="47.01013" lon="5.97955">
        <ele>504</ele>
        <time>2015-05-28T09:09:57Z</time>
      </trkpt>
      <trkpt lat="47.01023" lon="5.97954">
        <ele>504</ele>
        <time>2015-05-28T09:10:12Z</time>
      </trkpt>
      <trkpt lat="47.01032" lon="5.97958">
        <ele>502</ele>
        <time>2015-05-28T09:10:26Z</time>
      </trkpt>
      <trkpt lat="47.01038" lon="5.97967">
        <ele>502</ele>
        <time>2015-05-28T09:10:36Z</time>
      </trkpt>
      <trkpt lat="47.01047" lon="5.97964">
        <ele>501</ele>
        <time>2015-05-28T09:10:48Z</time>
      </trkpt>
      <trkpt lat="47.01056" lon="5.97966">
        <ele>501</ele>
        <time>2015-05-28T09:10:57Z</time>
      </trkpt>
      <trkpt lat="47.01064" lon="5.97974">
        <ele>501</ele>
        <time>2015-05-28T09:11:05Z</time>
      </trkpt>
      <trkpt lat="47.01073" lon="5.9797">
        <ele>501</ele>
        <time>2015-05-28T09:11:13Z</time>
      </trkpt>
      <trkpt lat="47.01082" lon="5.97966">
        <ele>501</ele>
        <time>2015-05-28T09:11:20Z</time>
      </trkpt>
      <trkpt lat="47.01079" lon="5.97966">
        <ele>502</ele>
        <time>2015-05-28T09:12:29Z</time>
      </trkpt>
      <trkpt lat="47.01059" lon="5.97966">
        <ele>500</ele>
        <time>2015-05-28T09:12:40Z</time>
      </trkpt>
      <trkpt lat="47.01056" lon="5.97974">
        <ele>499</ele>
        <time>2015-05-28T09:12:55Z</time>
      </trkpt>
      <trkpt lat="47.01063" lon="5.97982">
        <ele>498</ele>
        <time>2015-05-28T09:13:08Z</time>
      </trkpt>
      <trkpt lat="47.01081" lon="5.97994">
        <ele>497</ele>
        <time>2015-05-28T09:13:24Z</time>
      </trkpt>
      <trkpt lat="47.01084" lon="5.98007">
        <ele>497</ele>
        <time>2015-05-28T09:13:33Z</time>
      </trkpt>
      <trkpt lat="47.01092" lon="5.98016">
        <ele>496</ele>
        <time>2015-05-28T09:13:53Z</time>
      </trkpt>
      <trkpt lat="47.01101" lon="5.98041">
        <ele>494</ele>
        <time>2015-05-28T09:14:06Z</time>
      </trkpt>
      <trkpt lat="47.01111" lon="5.98041">
        <ele>494</ele>
        <time>2015-05-28T09:14:12Z</time>
      </trkpt>
      <trkpt lat="47.01119" lon="5.98051">
        <ele>494</ele>
        <time>2015-05-28T09:14:19Z</time>
      </trkpt>
      <trkpt lat="47.01115" lon="5.98064">
        <ele>493</ele>
        <time>2015-05-28T09:14:30Z</time>
      </trkpt>
      <trkpt lat="47.01121" lon="5.98079">
        <ele>490</ele>
        <time>2015-05-28T09:14:49Z</time>
      </trkpt>
      <trkpt lat="47.01124" lon="5.98093">
        <ele>489</ele>
        <time>2015-05-28T09:14:55Z</time>
      </trkpt>
      <trkpt lat="47.01138" lon="5.98099">
        <ele>487</ele>
        <time>2015-05-28T09:15:05Z</time>
      </trkpt>
      <trkpt lat="47.01144" lon="5.98109">
        <ele>486</ele>
        <time>2015-05-28T09:15:10Z</time>
      </trkpt>
      <trkpt lat="47.01153" lon="5.98116">
        <ele>487</ele>
        <time>2015-05-28T09:15:18Z</time>
      </trkpt>
      <trkpt lat="47.01162" lon="5.9812">
        <ele>485</ele>
        <time>2015-05-28T09:15:25Z</time>
      </trkpt>
      <trkpt lat="47.01158" lon="5.98132">
        <ele>485</ele>
        <time>2015-05-28T09:15:35Z</time>
      </trkpt>
      <trkpt lat="47.01162" lon="5.98146">
        <ele>483</ele>
        <time>2015-05-28T09:15:46Z</time>
      </trkpt>
      <trkpt lat="47.01167" lon="5.98159">
        <ele>482</ele>
        <time>2015-05-28T09:15:53Z</time>
      </trkpt>
      <trkpt lat="47.01166" lon="5.98173">
        <ele>480</ele>
        <time>2015-05-28T09:16:02Z</time>
      </trkpt>
      <trkpt lat="47.01162" lon="5.98181">
        <ele>478</ele>
        <time>2015-05-28T09:17:01Z</time>
      </trkpt>
      <trkpt lat="47.01158" lon="5.98225">
        <ele>476</ele>
        <time>2015-05-28T09:17:24Z</time>
      </trkpt>
      <trkpt lat="47.01152" lon="5.98235">
        <ele>476</ele>
        <time>2015-05-28T09:17:30Z</time>
      </trkpt>
      <trkpt lat="47.0114" lon="5.98275">
        <ele>479</ele>
        <time>2015-05-28T09:17:53Z</time>
      </trkpt>
      <trkpt lat="47.01144" lon="5.98287">
        <ele>479</ele>
        <time>2015-05-28T09:18:00Z</time>
      </trkpt>
      <trkpt lat="47.01144" lon="5.98317">
        <ele>477</ele>
        <time>2015-05-28T09:18:17Z</time>
      </trkpt>
      <trkpt lat="47.01157" lon="5.98333">
        <ele>476</ele>
        <time>2015-05-28T09:18:28Z</time>
      </trkpt>
      <trkpt lat="47.01159" lon="5.9836">
        <ele>476</ele>
        <time>2015-05-28T09:18:41Z</time>
      </trkpt>
      <trkpt lat="47.01165" lon="5.98354">
        <ele>477</ele>
        <time>2015-05-28T09:20:17Z</time>
      </trkpt>
      <trkpt lat="47.01171" lon="5.98356">
        <ele>478</ele>
        <time>2015-05-28T09:21:02Z</time>
      </trkpt>
      <trkpt lat="47.01181" lon="5.98354">
        <ele>479</ele>
        <time>2015-05-28T09:21:09Z</time>
      </trkpt>
      <trkpt lat="47.0119" lon="5.98359">
        <ele>479</ele>
        <time>2015-05-28T09:21:15Z</time>
      </trkpt>
      <trkpt lat="47.01198" lon="5.98366">
        <ele>482</ele>
        <time>2015-05-28T09:21:24Z</time>
      </trkpt>
      <trkpt lat="47.01223" lon="5.9839">
        <ele>483</ele>
        <time>2015-05-28T09:21:51Z</time>
      </trkpt>
      <trkpt lat="47.01232" lon="5.98396">
        <ele>482</ele>
        <time>2015-05-28T09:22:00Z</time>
      </trkpt>
      <trkpt lat="47.01238" lon="5.98405">
        <ele>483</ele>
        <time>2015-05-28T09:22:07Z</time>
      </trkpt>
      <trkpt lat="47.01245" lon="5.98413">
        <ele>484</ele>
        <time>2015-05-28T09:22:14Z</time>
      </trkpt>
      <trkpt lat="47.01254" lon="5.98419">
        <ele>484</ele>
        <time>2015-05-28T09:22:22Z</time>
      </trkpt>
      <trkpt lat="47.01273" lon="5.98416">
        <ele>483</ele>
        <time>2015-05-28T09:22:41Z</time>
      </trkpt>
      <trkpt lat="47.0128" lon="5.98406">
        <ele>483</ele>
        <time>2015-05-28T09:22:55Z</time>
      </trkpt>
      <trkpt lat="47.01288" lon="5.98412">
        <ele>482</ele>
        <time>2015-05-28T09:23:24Z</time>
      </trkpt>
      <trkpt lat="47.01305" lon="5.9841">
        <ele>481</ele>
        <time>2015-05-28T09:23:37Z</time>
      </trkpt>
      <trkpt lat="47.01314" lon="5.98412">
        <ele>482</ele>
        <time>2015-05-28T09:23:46Z</time>
      </trkpt>
      <trkpt lat="47.01322" lon="5.98403">
        <ele>482</ele>
        <time>2015-05-28T09:24:17Z</time>
      </trkpt>
      <trkpt lat="47.0133" lon="5.98407">
        <ele>482</ele>
        <time>2015-05-28T09:24:39Z</time>
      </trkpt>
      <trkpt lat="47.01341" lon="5.98409">
        <ele>483</ele>
        <time>2015-05-28T09:25:04Z</time>
      </trkpt>
      <trkpt lat="47.01352" lon="5.98404">
        <ele>482</ele>
        <time>2015-05-28T09:25:30Z</time>
      </trkpt>
      <trkpt lat="47.01353" lon="5.98393">
        <ele>484</ele>
        <time>2015-05-28T09:26:44Z</time>
      </trkpt>
      <trkpt lat="47.01348" lon="5.98402">
        <ele>483</ele>
        <time>2015-05-28T09:28:27Z</time>
      </trkpt>
      <trkpt lat="47.0135" lon="5.98415">
        <ele>482</ele>
        <time>2015-05-28T09:28:37Z</time>
      </trkpt>
      <trkpt lat="47.01358" lon="5.98413">
        <ele>481</ele>
        <time>2015-05-28T09:30:33Z</time>
      </trkpt>
      <trkpt lat="47.01368" lon="5.98412">
        <ele>481</ele>
        <time>2015-05-28T09:30:50Z</time>
      </trkpt>
      <trkpt lat="47.01383" lon="5.98419">
        <ele>479</ele>
        <time>2015-05-28T09:31:52Z</time>
      </trkpt>
      <trkpt lat="47.01392" lon="5.98422">
        <ele>480</ele>
        <time>2015-05-28T09:32:02Z</time>
      </trkpt>
      <trkpt lat="47.01401" lon="5.98428">
        <ele>480</ele>
        <time>2015-05-28T09:32:12Z</time>
      </trkpt>
      <trkpt lat="47.0141" lon="5.98433">
        <ele>479</ele>
        <time>2015-05-28T09:32:23Z</time>
      </trkpt>
      <trkpt lat="47.01416" lon="5.98423">
        <ele>479</ele>
        <time>2015-05-28T09:32:40Z</time>
      </trkpt>
      <trkpt lat="47.01426" lon="5.98423">
        <ele>479</ele>
        <time>2015-05-28T09:32:57Z</time>
      </trkpt>
      <trkpt lat="47.01426" lon="5.98413">
        <ele>477</ele>
        <time>2015-05-28T09:33:30Z</time>
      </trkpt>
      <trkpt lat="47.01412" lon="5.98402">
        <ele>476</ele>
        <time>2015-05-28T09:33:57Z</time>
      </trkpt>
      <trkpt lat="47.01414" lon="5.98405">
        <ele>474</ele>
        <time>2015-05-28T09:35:10Z</time>
      </trkpt>
      <trkpt lat="47.01423" lon="5.9841">
        <ele>474</ele>
        <time>2015-05-28T09:35:40Z</time>
      </trkpt>
      <trkpt lat="47.01432" lon="5.98415">
        <ele>474</ele>
        <time>2015-05-28T09:36:04Z</time>
      </trkpt>
      <trkpt lat="47.0143" lon="5.98433">
        <ele>474</ele>
        <time>2015-05-28T09:36:27Z</time>
      </trkpt>
      <trkpt lat="47.01438" lon="5.98443">
        <ele>475</ele>
        <time>2015-05-28T09:36:53Z</time>
      </trkpt>
      <trkpt lat="47.01456" lon="5.9845">
        <ele>478</ele>
        <time>2015-05-28T09:37:14Z</time>
      </trkpt>
      <trkpt lat="47.01492" lon="5.98465">
        <ele>474</ele>
        <time>2015-05-28T09:37:50Z</time>
      </trkpt>
      <trkpt lat="47.015" lon="5.98471">
        <ele>473</ele>
        <time>2015-05-28T09:37:59Z</time>
      </trkpt>
      <trkpt lat="47.01518" lon="5.98482">
        <ele>473</ele>
        <time>2015-05-28T09:38:15Z</time>
      </trkpt>
      <trkpt lat="47.01546" lon="5.98492">
        <ele>475</ele>
        <time>2015-05-28T09:38:41Z</time>
      </trkpt>
      <trkpt lat="47.01552" lon="5.98502">
        <ele>475</ele>
        <time>2015-05-28T09:38:53Z</time>
      </trkpt>
      <trkpt lat="47.0156" lon="5.98509">
        <ele>473</ele>
        <time>2015-05-28T09:39:16Z</time>
      </trkpt>
      <trkpt lat="47.01569" lon="5.98504">
        <ele>473</ele>
        <time>2015-05-28T09:39:46Z</time>
      </trkpt>
      <trkpt lat="47.01578" lon="5.98507">
        <ele>472</ele>
        <time>2015-05-28T09:39:56Z</time>
      </trkpt>
      <trkpt lat="47.0158" lon="5.98521">
        <ele>472</ele>
        <time>2015-05-28T09:40:09Z</time>
      </trkpt>
      <trkpt lat="47.01583" lon="5.98534">
        <ele>471</ele>
        <time>2015-05-28T09:40:21Z</time>
      </trkpt>
      <trkpt lat="47.01579" lon="5.98547">
        <ele>472</ele>
        <time>2015-05-28T09:40:29Z</time>
      </trkpt>
      <trkpt lat="47.01567" lon="5.98562">
        <ele>472</ele>
        <time>2015-05-28T09:41:04Z</time>
      </trkpt>
      <trkpt lat="47.01574" lon="5.98561">
        <ele>486</ele>
        <time>2015-05-28T09:42:13Z</time>
      </trkpt>
      <trkpt lat="47.01578" lon="5.98552">
        <ele>483</ele>
        <time>2015-05-28T09:42:27Z</time>
      </trkpt>
      <trkpt lat="47.01575" lon="5.98542">
        <ele>474</ele>
        <time>2015-05-28T09:42:58Z</time>
      </trkpt>
      <trkpt lat="47.01581" lon="5.98532">
        <ele>472</ele>
        <time>2015-05-28T09:43:10Z</time>
      </trkpt>
      <trkpt lat="47.01581" lon="5.98525">
        <ele>471</ele>
        <time>2015-05-28T09:43:25Z</time>
      </trkpt>
      <trkpt lat="47.01582" lon="5.98508">
        <ele>471</ele>
        <time>2015-05-28T09:43:49Z</time>
      </trkpt>
      <trkpt lat="47.01587" lon="5.98509">
        <ele>469</ele>
        <time>2015-05-28T09:45:16Z</time>
      </trkpt>
      <trkpt lat="47.01596" lon="5.98515">
        <ele>469</ele>
        <time>2015-05-28T09:45:24Z</time>
      </trkpt>
      <trkpt lat="47.01596" lon="5.98514">
        <ele>468</ele>
        <time>2015-05-28T09:46:28Z</time>
      </trkpt>
      <trkpt lat="47.01605" lon="5.98512">
        <ele>468</ele>
        <time>2015-05-28T09:46:41Z</time>
      </trkpt>
      <trkpt lat="47.01644" lon="5.98522">
        <ele>466</ele>
        <time>2015-05-28T09:47:17Z</time>
      </trkpt>
      <trkpt lat="47.01682" lon="5.98528">
        <ele>462</ele>
        <time>2015-05-28T09:47:52Z</time>
      </trkpt>
      <trkpt lat="47.01729" lon="5.9854">
        <ele>461</ele>
        <time>2015-05-28T09:48:30Z</time>
      </trkpt>
      <trkpt lat="47.01757" lon="5.98539">
        <ele>461</ele>
        <time>2015-05-28T09:48:52Z</time>
      </trkpt>
      <trkpt lat="47.01766" lon="5.98544">
        <ele>461</ele>
        <time>2015-05-28T09:49:01Z</time>
      </trkpt>
      <trkpt lat="47.01776" lon="5.98544">
        <ele>461</ele>
        <time>2015-05-28T09:49:08Z</time>
      </trkpt>
      <trkpt lat="47.01795" lon="5.98548">
        <ele>461</ele>
        <time>2015-05-28T09:49:24Z</time>
      </trkpt>
      <trkpt lat="47.01832" lon="5.98565">
        <ele>456</ele>
        <time>2015-05-28T09:49:54Z</time>
      </trkpt>
      <trkpt lat="47.01849" lon="5.98578">
        <ele>456</ele>
        <time>2015-05-28T09:50:10Z</time>
      </trkpt>
      <trkpt lat="47.01851" lon="5.98586">
        <ele>456</ele>
        <time>2015-05-28T09:50:26Z</time>
      </trkpt>
      <trkpt lat="47.01844" lon="5.98596">
        <ele>455</ele>
        <time>2015-05-28T09:50:36Z</time>
      </trkpt>
      <trkpt lat="47.01843" lon="5.9861">
        <ele>452</ele>
        <time>2015-05-28T09:50:49Z</time>
      </trkpt>
      <trkpt lat="47.01838" lon="5.98649">
        <ele>452</ele>
        <time>2015-05-28T09:51:11Z</time>
      </trkpt>
      <trkpt lat="47.01829" lon="5.98702">
        <ele>445</ele>
        <time>2015-05-28T09:51:53Z</time>
      </trkpt>
      <trkpt lat="47.01821" lon="5.98709">
        <ele>442</ele>
        <time>2015-05-28T09:52:05Z</time>
      </trkpt>
      <trkpt lat="47.01785" lon="5.9872">
        <ele>433</ele>
        <time>2015-05-28T09:52:45Z</time>
      </trkpt>
      <trkpt lat="47.01775" lon="5.9873">
        <ele>432</ele>
        <time>2015-05-28T09:53:01Z</time>
      </trkpt>
      <trkpt lat="47.01783" lon="5.98742">
        <ele>430</ele>
        <time>2015-05-28T09:53:22Z</time>
      </trkpt>
      <trkpt lat="47.01801" lon="5.98752">
        <ele>424</ele>
        <time>2015-05-28T09:53:45Z</time>
      </trkpt>
      <trkpt lat="47.0181" lon="5.98747">
        <ele>422</ele>
        <time>2015-05-28T09:53:57Z</time>
      </trkpt>
      <trkpt lat="47.01846" lon="5.98768">
        <ele>416</ele>
        <time>2015-05-28T09:54:31Z</time>
      </trkpt>
      <trkpt lat="47.01875" lon="5.98776">
        <ele>412</ele>
        <time>2015-05-28T09:55:03Z</time>
      </trkpt>
      <trkpt lat="47.01911" lon="5.98795">
        <ele>410</ele>
        <time>2015-05-28T09:55:36Z</time>
      </trkpt>
      <trkpt lat="47.01946" lon="5.98809">
        <ele>406</ele>
        <time>2015-05-28T09:56:10Z</time>
      </trkpt>
      <trkpt lat="47.01974" lon="5.98814">
        <ele>402</ele>
        <time>2015-05-28T09:56:35Z</time>
      </trkpt>
      <trkpt lat="47.01983" lon="5.98822">
        <ele>402</ele>
        <time>2015-05-28T09:56:43Z</time>
      </trkpt>
      <trkpt lat="47.02" lon="5.9883">
        <ele>400</ele>
        <time>2015-05-28T09:57:01Z</time>
      </trkpt>
      <trkpt lat="47.02008" lon="5.98825">
        <ele>398</ele>
        <time>2015-05-28T09:57:10Z</time>
      </trkpt>
      <trkpt lat="47.02018" lon="5.98823">
        <ele>397</ele>
        <time>2015-05-28T09:57:19Z</time>
      </trkpt>
      <trkpt lat="47.02027" lon="5.98826">
        <ele>396</ele>
        <time>2015-05-28T09:57:28Z</time>
      </trkpt>
      <trkpt lat="47.02065" lon="5.98834">
        <ele>396</ele>
        <time>2015-05-28T09:58:04Z</time>
      </trkpt>
      <trkpt lat="47.02083" lon="5.98839">
        <ele>395</ele>
        <time>2015-05-28T09:58:22Z</time>
      </trkpt>
      <trkpt lat="47.02093" lon="5.98838">
        <ele>394</ele>
        <time>2015-05-28T09:58:29Z</time>
      </trkpt>
      <trkpt lat="47.02129" lon="5.98827">
        <ele>386</ele>
        <time>2015-05-28T09:59:03Z</time>
      </trkpt>
      <trkpt lat="47.02157" lon="5.98839">
        <ele>385</ele>
        <time>2015-05-28T09:59:31Z</time>
      </trkpt>
      <trkpt lat="47.02172" lon="5.98829">
        <ele>383</ele>
        <time>2015-05-28T09:59:57Z</time>
      </trkpt>
      <trkpt lat="47.02174" lon="5.98836">
        <ele>381</ele>
        <time>2015-05-28T10:00:23Z</time>
      </trkpt>
      <trkpt lat="47.0218" lon="5.98822">
        <ele>382</ele>
        <time>2015-05-28T10:00:34Z</time>
      </trkpt>
      <trkpt lat="47.02188" lon="5.98818">
        <ele>379</ele>
        <time>2015-05-28T10:01:34Z</time>
      </trkpt>
      <trkpt lat="47.02191" lon="5.9881">
        <ele>378</ele>
        <time>2015-05-28T10:01:59Z</time>
      </trkpt>
      <trkpt lat="47.022" lon="5.98808">
        <ele>376</ele>
        <time>2015-05-28T10:02:09Z</time>
      </trkpt>
      <trkpt lat="47.02219" lon="5.98806">
        <ele>377</ele>
        <time>2015-05-28T10:02:28Z</time>
      </trkpt>
      <trkpt lat="47.02227" lon="5.98799">
        <ele>378</ele>
        <time>2015-05-28T10:02:35Z</time>
      </trkpt>
      <trkpt lat="47.02245" lon="5.98788">
        <ele>378</ele>
        <time>2015-05-28T10:02:50Z</time>
      </trkpt>
      <trkpt lat="47.02253" lon="5.98783">
        <ele>378</ele>
        <time>2015-05-28T10:03:00Z</time>
      </trkpt>
      <trkpt lat="47.02263" lon="5.98782">
        <ele>378</ele>
        <time>2015-05-28T10:03:12Z</time>
      </trkpt>
      <trkpt lat="47.02272" lon="5.98781">
        <ele>376</ele>
        <time>2015-05-28T10:03:23Z</time>
      </trkpt>
      <trkpt lat="47.0229" lon="5.98773">
        <ele>376</ele>
        <time>2015-05-28T10:03:37Z</time>
      </trkpt>
      <trkpt lat="47.02333" lon="5.98749">
        <ele>377</ele>
        <time>2015-05-28T10:04:15Z</time>
      </trkpt>
      <trkpt lat="47.02365" lon="5.98719">
        <ele>378</ele>
        <time>2015-05-28T10:04:50Z</time>
      </trkpt>
      <trkpt lat="47.024" lon="5.98702">
        <ele>380</ele>
        <time>2015-05-28T10:05:22Z</time>
      </trkpt>
      <trkpt lat="47.02405" lon="5.98691">
        <ele>381</ele>
        <time>2015-05-28T10:05:32Z</time>
      </trkpt>
      <trkpt lat="47.0241" lon="5.98678">
        <ele>381</ele>
        <time>2015-05-28T10:05:44Z</time>
      </trkpt>
      <trkpt lat="47.02416" lon="5.98669">
        <ele>379</ele>
        <time>2015-05-28T10:05:54Z</time>
      </trkpt>
      <trkpt lat="47.02421" lon="5.98658">
        <ele>379</ele>
        <time>2015-05-28T10:06:03Z</time>
      </trkpt>
      <trkpt lat="47.02427" lon="5.98647">
        <ele>380</ele>
        <time>2015-05-28T10:06:11Z</time>
      </trkpt>
      <trkpt lat="47.02425" lon="5.98633">
        <ele>380</ele>
        <time>2015-05-28T10:06:24Z</time>
      </trkpt>
      <trkpt lat="47.02417" lon="5.98625">
        <ele>380</ele>
        <time>2015-05-28T10:06:37Z</time>
      </trkpt>
      <trkpt lat="47.02409" lon="5.98618">
        <ele>380</ele>
        <time>2015-05-28T10:06:45Z</time>
      </trkpt>
      <trkpt lat="47.02374" lon="5.98593">
        <ele>385</ele>
        <time>2015-05-28T10:07:16Z</time>
      </trkpt>
      <trkpt lat="47.02365" lon="5.98589">
        <ele>386</ele>
        <time>2015-05-28T10:07:24Z</time>
      </trkpt>
      <trkpt lat="47.02357" lon="5.98582">
        <ele>386</ele>
        <time>2015-05-28T10:07:30Z</time>
      </trkpt>
      <trkpt lat="47.02346" lon="5.98579">
        <ele>386</ele>
        <time>2015-05-28T10:07:39Z</time>
      </trkpt>
      <trkpt lat="47.02338" lon="5.9857">
        <ele>386</ele>
        <time>2015-05-28T10:07:47Z</time>
      </trkpt>
      <trkpt lat="47.02334" lon="5.98558">
        <ele>385</ele>
        <time>2015-05-28T10:07:55Z</time>
      </trkpt>
      <trkpt lat="47.02343" lon="5.98556">
        <ele>385</ele>
        <time>2015-05-28T10:08:09Z</time>
      </trkpt>
      <trkpt lat="47.02372" lon="5.98562">
        <ele>384</ele>
        <time>2015-05-28T10:08:36Z</time>
      </trkpt>
      <trkpt lat="47.02386" lon="5.98569">
        <ele>385</ele>
        <time>2015-05-28T10:09:00Z</time>
      </trkpt>
      <trkpt lat="47.02414" lon="5.98571">
        <ele>381</ele>
        <time>2015-05-28T10:09:35Z</time>
      </trkpt>
      <trkpt lat="47.02424" lon="5.98575">
        <ele>381</ele>
        <time>2015-05-28T10:09:45Z</time>
      </trkpt>
      <trkpt lat="47.02429" lon="5.98576">
        <ele>381</ele>
        <time>2015-05-28T10:09:58Z</time>
      </trkpt>
      <trkpt lat="47.0245" lon="5.98583">
        <ele>381</ele>
        <time>2015-05-28T10:10:31Z</time>
      </trkpt>
      <trkpt lat="47.0246" lon="5.98583">
        <ele>382</ele>
        <time>2015-05-28T10:10:40Z</time>
      </trkpt>
      <trkpt lat="47.02452" lon="5.98566">
        <ele>380</ele>
        <time>2015-05-28T10:10:56Z</time>
      </trkpt>
      <trkpt lat="47.02451" lon="5.98559">
        <ele>380</ele>
        <time>2015-05-28T10:10:58Z</time>
      </trkpt>
      <trkpt lat="47.02451" lon="5.98544">
        <ele>378</ele>
        <time>2015-05-28T10:11:03Z</time>
      </trkpt>
      <trkpt lat="47.0244" lon="5.98535">
        <ele>372</ele>
        <time>2015-05-28T10:11:41Z</time>
      </trkpt>
      <trkpt lat="47.02434" lon="5.98531">
        <ele>370</ele>
        <time>2015-05-28T10:12:03Z</time>
      </trkpt>
      <trkpt lat="47.02433" lon="5.98545">
        <ele>369</ele>
        <time>2015-05-28T10:12:16Z</time>
      </trkpt>
      <trkpt lat="47.02442" lon="5.9855">
        <ele>369</ele>
        <time>2015-05-28T10:12:23Z</time>
      </trkpt>
      <trkpt lat="47.02458" lon="5.98562">
        <ele>366</ele>
        <time>2015-05-28T10:12:42Z</time>
      </trkpt>
      <trkpt lat="47.02489" lon="5.98556">
        <ele>365</ele>
        <time>2015-05-28T10:12:57Z</time>
      </trkpt>
      <trkpt lat="47.02498" lon="5.98559">
        <ele>363</ele>
        <time>2015-05-28T10:13:10Z</time>
      </trkpt>
      <trkpt lat="47.02508" lon="5.98582">
        <ele>362</ele>
        <time>2015-05-28T10:13:18Z</time>
      </trkpt>
      <trkpt lat="47.02516" lon="5.98589">
        <ele>362</ele>
        <time>2015-05-28T10:13:24Z</time>
      </trkpt>
      <trkpt lat="47.02525" lon="5.98592">
        <ele>363</ele>
        <time>2015-05-28T10:13:33Z</time>
      </trkpt>
      <trkpt lat="47.02539" lon="5.98594">
        <ele>362</ele>
        <time>2015-05-28T10:13:51Z</time>
      </trkpt>
      <trkpt lat="47.02555" lon="5.9858">
        <ele>353</ele>
        <time>2015-05-28T10:14:05Z</time>
      </trkpt>
      <trkpt lat="47.02563" lon="5.9857">
        <ele>348</ele>
        <time>2015-05-28T10:14:14Z</time>
      </trkpt>
      <trkpt lat="47.02564" lon="5.98552">
        <ele>347</ele>
        <time>2015-05-28T10:14:23Z</time>
      </trkpt>
      <trkpt lat="47.02563" lon="5.98538">
        <ele>347</ele>
        <time>2015-05-28T10:14:30Z</time>
      </trkpt>
      <trkpt lat="47.0256" lon="5.98526">
        <ele>349</ele>
        <time>2015-05-28T10:14:40Z</time>
      </trkpt>
      <trkpt lat="47.02564" lon="5.98513">
        <ele>349</ele>
        <time>2015-05-28T10:14:51Z</time>
      </trkpt>
      <trkpt lat="47.02572" lon="5.98505">
        <ele>349</ele>
        <time>2015-05-28T10:14:59Z</time>
      </trkpt>
      <trkpt lat="47.02578" lon="5.98493">
        <ele>349</ele>
        <time>2015-05-28T10:15:06Z</time>
      </trkpt>
      <trkpt lat="47.02582" lon="5.9848">
        <ele>348</ele>
        <time>2015-05-28T10:15:14Z</time>
      </trkpt>
      <trkpt lat="47.02587" lon="5.98467">
        <ele>348</ele>
        <time>2015-05-28T10:15:21Z</time>
      </trkpt>
      <trkpt lat="47.02601" lon="5.98448">
        <ele>348</ele>
        <time>2015-05-28T10:15:38Z</time>
      </trkpt>
      <trkpt lat="47.02605" lon="5.98435">
        <ele>349</ele>
        <time>2015-05-28T10:15:49Z</time>
      </trkpt>
      <trkpt lat="47.02624" lon="5.98411">
        <ele>350</ele>
        <time>2015-05-28T10:16:02Z</time>
      </trkpt>
      <trkpt lat="47.02618" lon="5.984">
        <ele>352</ele>
        <time>2015-05-28T10:16:15Z</time>
      </trkpt>
      <trkpt lat="47.02596" lon="5.98374">
        <ele>356</ele>
        <time>2015-05-28T10:16:40Z</time>
      </trkpt>
      <trkpt lat="47.02589" lon="5.98376">
        <ele>356</ele>
        <time>2015-05-28T10:17:03Z</time>
      </trkpt>
      <trkpt lat="47.02596" lon="5.98359">
        <ele>357</ele>
        <time>2015-05-28T10:18:01Z</time>
      </trkpt>
      <trkpt lat="47.02609" lon="5.98348">
        <ele>358</ele>
        <time>2015-05-28T10:18:07Z</time>
      </trkpt>
      <trkpt lat="47.02611" lon="5.98333">
        <ele>358</ele>
        <time>2015-05-28T10:18:15Z</time>
      </trkpt>
      <trkpt lat="47.02626" lon="5.98315">
        <ele>358</ele>
        <time>2015-05-28T10:18:32Z</time>
      </trkpt>
      <trkpt lat="47.02636" lon="5.98315">
        <ele>359</ele>
        <time>2015-05-28T10:18:40Z</time>
      </trkpt>
      <trkpt lat="47.02654" lon="5.98322">
        <ele>360</ele>
        <time>2015-05-28T10:18:59Z</time>
      </trkpt>
      <trkpt lat="47.02664" lon="5.98325">
        <ele>362</ele>
        <time>2015-05-28T10:19:09Z</time>
      </trkpt>
      <trkpt lat="47.02672" lon="5.98333">
        <ele>363</ele>
        <time>2015-05-28T10:19:22Z</time>
      </trkpt>
      <trkpt lat="47.02701" lon="5.98344">
        <ele>365</ele>
        <time>2015-05-28T10:19:41Z</time>
      </trkpt>
      <trkpt lat="47.02708" lon="5.98353">
        <ele>365</ele>
        <time>2015-05-28T10:19:49Z</time>
      </trkpt>
      <trkpt lat="47.02725" lon="5.98368">
        <ele>366</ele>
        <time>2015-05-28T10:20:07Z</time>
      </trkpt>
      <trkpt lat="47.02761" lon="5.98384">
        <ele>361</ele>
        <time>2015-05-28T10:20:39Z</time>
      </trkpt>
      <trkpt lat="47.02807" lon="5.98407">
        <ele>352</ele>
        <time>2015-05-28T10:21:18Z</time>
      </trkpt>
      <trkpt lat="47.02844" lon="5.9842">
        <ele>347</ele>
        <time>2015-05-28T10:21:51Z</time>
      </trkpt>
      <trkpt lat="47.02863" lon="5.98421">
        <ele>347</ele>
        <time>2015-05-28T10:22:09Z</time>
      </trkpt>
      <trkpt lat="47.02901" lon="5.98434">
        <ele>345</ele>
        <time>2015-05-28T10:22:40Z</time>
      </trkpt>
      <trkpt lat="47.02948" lon="5.98437">
        <ele>341</ele>
        <time>2015-05-28T10:23:13Z</time>
      </trkpt>
      <trkpt lat="47.02994" lon="5.98427">
        <ele>335</ele>
        <time>2015-05-28T10:23:51Z</time>
      </trkpt>
      <trkpt lat="47.03032" lon="5.98385">
        <ele>333</ele>
        <time>2015-05-28T10:24:22Z</time>
      </trkpt>
      <trkpt lat="47.03059" lon="5.98344">
        <ele>331</ele>
        <time>2015-05-28T10:24:49Z</time>
      </trkpt>
      <trkpt lat="47.03063" lon="5.98335">
        <ele>331</ele>
        <time>2015-05-28T10:25:06Z</time>
      </trkpt>
      <trkpt lat="47.03062" lon="5.9832">
        <ele>328</ele>
        <time>2015-05-28T10:25:43Z</time>
      </trkpt>
      <trkpt lat="47.03066" lon="5.98321">
        <ele>326</ele>
        <time>2015-05-28T10:25:57Z</time>
      </trkpt>
      <trkpt lat="47.03069" lon="5.9832">
        <ele>326</ele>
        <time>2015-05-28T10:26:17Z</time>
      </trkpt>
      <trkpt lat="47.03071" lon="5.98313">
        <ele>326</ele>
        <time>2015-05-28T10:26:25Z</time>
      </trkpt>
      <trkpt lat="47.03076" lon="5.9831">
        <ele>326</ele>
        <time>2015-05-28T10:26:30Z</time>
      </trkpt>
      <trkpt lat="47.03081" lon="5.98314">
        <ele>326</ele>
        <time>2015-05-28T10:26:35Z</time>
      </trkpt>
      <trkpt lat="47.03089" lon="5.98322">
        <ele>326</ele>
        <time>2015-05-28T10:26:46Z</time>
      </trkpt>
      <trkpt lat="47.03095" lon="5.98332">
        <ele>324</ele>
        <time>2015-05-28T10:26:57Z</time>
      </trkpt>
      <trkpt lat="47.03101" lon="5.98335">
        <ele>324</ele>
        <time>2015-05-28T10:27:32Z</time>
      </trkpt>
      <trkpt lat="47.03107" lon="5.98345">
        <ele>324</ele>
        <time>2015-05-28T10:27:40Z</time>
      </trkpt>
      <trkpt lat="47.03102" lon="5.98357">
        <ele>323</ele>
        <time>2015-05-28T10:27:51Z</time>
      </trkpt>
      <trkpt lat="47.03106" lon="5.98361">
        <ele>322</ele>
        <time>2015-05-28T10:28:04Z</time>
      </trkpt>
      <trkpt lat="47.03119" lon="5.98363">
        <ele>320</ele>
        <time>2015-05-28T10:28:10Z</time>
      </trkpt>
      <trkpt lat="47.03125" lon="5.98374">
        <ele>320</ele>
        <time>2015-05-28T10:28:16Z</time>
      </trkpt>
      <trkpt lat="47.03123" lon="5.98391">
        <ele>320</ele>
        <time>2015-05-28T10:28:28Z</time>
      </trkpt>
      <trkpt lat="47.03123" lon="5.98405">
        <ele>320</ele>
        <time>2015-05-28T10:29:08Z</time>
      </trkpt>
      <trkpt lat="47.03128" lon="5.98417">
        <ele>319</ele>
        <time>2015-05-28T10:29:18Z</time>
      </trkpt>
      <trkpt lat="47.03126" lon="5.98444">
        <ele>316</ele>
        <time>2015-05-28T10:29:38Z</time>
      </trkpt>
      <trkpt lat="47.03131" lon="5.98444">
        <ele>316</ele>
        <time>2015-05-28T10:29:49Z</time>
      </trkpt>
      <trkpt lat="47.03134" lon="5.98458">
        <ele>318</ele>
        <time>2015-05-28T10:30:53Z</time>
      </trkpt>
      <trkpt lat="47.03131" lon="5.985">
        <ele>321</ele>
        <time>2015-05-28T10:31:17Z</time>
      </trkpt>
      <trkpt lat="47.0313" lon="5.98542">
        <ele>321</ele>
        <time>2015-05-28T10:31:41Z</time>
      </trkpt>
      <trkpt lat="47.0313" lon="5.98557">
        <ele>321</ele>
        <time>2015-05-28T10:31:49Z</time>
      </trkpt>
      <trkpt lat="47.03128" lon="5.9857">
        <ele>321</ele>
        <time>2015-05-28T10:31:57Z</time>
      </trkpt>
      <trkpt lat="47.03118" lon="5.98592">
        <ele>323</ele>
        <time>2015-05-28T10:32:12Z</time>
      </trkpt>
      <trkpt lat="47.0311" lon="5.986">
        <ele>324</ele>
        <time>2015-05-28T10:32:20Z</time>
      </trkpt>
      <trkpt lat="47.03092" lon="5.98609">
        <ele>323</ele>
        <time>2015-05-28T10:32:41Z</time>
      </trkpt>
      <trkpt lat="47.03094" lon="5.98619">
        <ele>325</ele>
        <time>2015-05-28T10:34:45Z</time>
      </trkpt>
      <trkpt lat="47.03092" lon="5.98626">
        <ele>326</ele>
        <time>2015-05-28T10:35:05Z</time>
      </trkpt>
      <trkpt lat="47.03089" lon="5.98626">
        <ele>329</ele>
        <time>2015-05-28T10:35:22Z</time>
      </trkpt>
      <trkpt lat="47.03089" lon="5.98631">
        <ele>330</ele>
        <time>2015-05-28T10:35:39Z</time>
      </trkpt>
      <trkpt lat="47.03084" lon="5.98652">
        <ele>332</ele>
        <time>2015-05-28T10:36:18Z</time>
      </trkpt>
      <trkpt lat="47.03082" lon="5.98653">
        <ele>331</ele>
        <time>2015-05-28T10:38:40Z</time>
      </trkpt>
      <trkpt lat="47.03081" lon="5.98652">
        <ele>331</ele>
        <time>2015-05-28T10:39:21Z</time>
      </trkpt>
      <trkpt lat="47.03084" lon="5.98657">
        <ele>333</ele>
        <time>2015-05-28T10:44:13Z</time>
      </trkpt>
      <trkpt lat="47.03088" lon="5.98638">
        <ele>334</ele>
        <time>2015-05-28T11:21:54Z</time>
      </trkpt>
      <trkpt lat="47.03092" lon="5.98625">
        <ele>332</ele>
        <time>2015-05-28T11:22:08Z</time>
      </trkpt>
      <trkpt lat="47.03087" lon="5.98614">
        <ele>328</ele>
        <time>2015-05-28T11:22:27Z</time>
      </trkpt>
      <trkpt lat="47.03081" lon="5.98614">
        <ele>327</ele>
        <time>2015-05-28T11:22:48Z</time>
      </trkpt>
      <trkpt lat="47.03062" lon="5.98615">
        <ele>328</ele>
        <time>2015-05-28T11:23:05Z</time>
      </trkpt>
      <trkpt lat="47.03053" lon="5.98619">
        <ele>327</ele>
        <time>2015-05-28T11:23:15Z</time>
      </trkpt>
      <trkpt lat="47.03024" lon="5.98616">
        <ele>328</ele>
        <time>2015-05-28T11:23:52Z</time>
      </trkpt>
      <trkpt lat="47.03018" lon="5.98615">
        <ele>328</ele>
        <time>2015-05-28T11:23:57Z</time>
      </trkpt>
      <trkpt lat="47.03008" lon="5.98609">
        <ele>327</ele>
        <time>2015-05-28T11:24:07Z</time>
      </trkpt>
      <trkpt lat="47.03" lon="5.98608">
        <ele>327</ele>
        <time>2015-05-28T11:24:14Z</time>
      </trkpt>
      <trkpt lat="47.02994" lon="5.98608">
        <ele>327</ele>
        <time>2015-05-28T11:24:20Z</time>
      </trkpt>
      <trkpt lat="47.02987" lon="5.98604">
        <ele>327</ele>
        <time>2015-05-28T11:24:24Z</time>
      </trkpt>
      <trkpt lat="47.02973" lon="5.98592">
        <ele>327</ele>
        <time>2015-05-28T11:24:37Z</time>
      </trkpt>
      <trkpt lat="47.02969" lon="5.98591">
        <ele>327</ele>
        <time>2015-05-28T11:24:42Z</time>
      </trkpt>
      <trkpt lat="47.0296" lon="5.98589">
        <ele>328</ele>
        <time>2015-05-28T11:24:51Z</time>
      </trkpt>
      <trkpt lat="47.02957" lon="5.98583">
        <ele>329</ele>
        <time>2015-05-28T11:25:00Z</time>
      </trkpt>
      <trkpt lat="47.02955" lon="5.98583">
        <ele>327</ele>
        <time>2015-05-28T11:25:44Z</time>
      </trkpt>
      <trkpt lat="47.02946" lon="5.98582">
        <ele>328</ele>
        <time>2015-05-28T11:25:53Z</time>
      </trkpt>
      <trkpt lat="47.02936" lon="5.98581">
        <ele>330</ele>
        <time>2015-05-28T11:26:00Z</time>
      </trkpt>
      <trkpt lat="47.02917" lon="5.9858">
        <ele>331</ele>
        <time>2015-05-28T11:26:16Z</time>
      </trkpt>
      <trkpt lat="47.029" lon="5.98588">
        <ele>334</ele>
        <time>2015-05-28T11:26:34Z</time>
      </trkpt>
      <trkpt lat="47.02894" lon="5.98601">
        <ele>334</ele>
        <time>2015-05-28T11:26:41Z</time>
      </trkpt>
      <trkpt lat="47.02884" lon="5.98608">
        <ele>334</ele>
        <time>2015-05-28T11:26:51Z</time>
      </trkpt>
      <trkpt lat="47.02881" lon="5.98613">
        <ele>334</ele>
        <time>2015-05-28T11:26:57Z</time>
      </trkpt>
      <trkpt lat="47.02882" lon="5.98623">
        <ele>333</ele>
        <time>2015-05-28T11:26:59Z</time>
      </trkpt>
      <trkpt lat="47.02873" lon="5.98619">
        <ele>332</ele>
        <time>2015-05-28T11:27:05Z</time>
      </trkpt>
      <trkpt lat="47.02868" lon="5.98625">
        <ele>331</ele>
        <time>2015-05-28T11:27:13Z</time>
      </trkpt>
      <trkpt lat="47.02861" lon="5.9865">
        <ele>330</ele>
        <time>2015-05-28T11:27:21Z</time>
      </trkpt>
      <trkpt lat="47.02853" lon="5.98659">
        <ele>329</ele>
        <time>2015-05-28T11:27:38Z</time>
      </trkpt>
      <trkpt lat="47.02845" lon="5.98652">
        <ele>328</ele>
        <time>2015-05-28T11:27:48Z</time>
      </trkpt>
      <trkpt lat="47.02838" lon="5.98644">
        <ele>327</ele>
        <time>2015-05-28T11:27:57Z</time>
      </trkpt>
      <trkpt lat="47.02821" lon="5.98617">
        <ele>327</ele>
        <time>2015-05-28T11:28:29Z</time>
      </trkpt>
      <trkpt lat="47.02815" lon="5.98616">
        <ele>327</ele>
        <time>2015-05-28T11:28:46Z</time>
      </trkpt>
      <trkpt lat="47.02807" lon="5.9863">
        <ele>328</ele>
        <time>2015-05-28T11:28:58Z</time>
      </trkpt>
      <trkpt lat="47.02794" lon="5.9865">
        <ele>329</ele>
        <time>2015-05-28T11:29:07Z</time>
      </trkpt>
      <trkpt lat="47.02768" lon="5.98671">
        <ele>329</ele>
        <time>2015-05-28T11:29:38Z</time>
      </trkpt>
      <trkpt lat="47.02759" lon="5.98674">
        <ele>328</ele>
        <time>2015-05-28T11:29:50Z</time>
      </trkpt>
      <trkpt lat="47.0275" lon="5.98679">
        <ele>328</ele>
        <time>2015-05-28T11:30:04Z</time>
      </trkpt>
      <trkpt lat="47.02742" lon="5.98686">
        <ele>329</ele>
        <time>2015-05-28T11:30:13Z</time>
      </trkpt>
      <trkpt lat="47.02731" lon="5.98707">
        <ele>332</ele>
        <time>2015-05-28T11:30:34Z</time>
      </trkpt>
      <trkpt lat="47.02713" lon="5.98721">
        <ele>334</ele>
        <time>2015-05-28T11:30:55Z</time>
      </trkpt>
      <trkpt lat="47.02695" lon="5.98733">
        <ele>334</ele>
        <time>2015-05-28T11:31:12Z</time>
      </trkpt>
      <trkpt lat="47.02689" lon="5.98743">
        <ele>334</ele>
        <time>2015-05-28T11:31:24Z</time>
      </trkpt>
      <trkpt lat="47.02682" lon="5.98751">
        <ele>334</ele>
        <time>2015-05-28T11:31:34Z</time>
      </trkpt>
      <trkpt lat="47.02684" lon="5.98766">
        <ele>336</ele>
        <time>2015-05-28T11:31:50Z</time>
      </trkpt>
      <trkpt lat="47.02674" lon="5.9877">
        <ele>338</ele>
        <time>2015-05-28T11:31:56Z</time>
      </trkpt>
      <trkpt lat="47.02667" lon="5.98773">
        <ele>341</ele>
        <time>2015-05-28T11:32:17Z</time>
      </trkpt>
      <trkpt lat="47.02656" lon="5.98789">
        <ele>344</ele>
        <time>2015-05-28T11:32:39Z</time>
      </trkpt>
      <trkpt lat="47.0265" lon="5.98782">
        <ele>346</ele>
        <time>2015-05-28T11:32:55Z</time>
      </trkpt>
      <trkpt lat="47.02646" lon="5.98792">
        <ele>347</ele>
        <time>2015-05-28T11:33:13Z</time>
      </trkpt>
      <trkpt lat="47.02638" lon="5.98799">
        <ele>347</ele>
        <time>2015-05-28T11:33:29Z</time>
      </trkpt>
      <trkpt lat="47.02635" lon="5.98812">
        <ele>347</ele>
        <time>2015-05-28T11:33:42Z</time>
      </trkpt>
      <trkpt lat="47.02626" lon="5.9885">
        <ele>352</ele>
        <time>2015-05-28T11:34:26Z</time>
      </trkpt>
      <trkpt lat="47.02628" lon="5.98864">
        <ele>353</ele>
        <time>2015-05-28T11:34:36Z</time>
      </trkpt>
      <trkpt lat="47.02619" lon="5.98907">
        <ele>358</ele>
        <time>2015-05-28T11:35:15Z</time>
      </trkpt>
      <trkpt lat="47.02614" lon="5.98924">
        <ele>363</ele>
        <time>2015-05-28T11:35:42Z</time>
      </trkpt>
      <trkpt lat="47.02615" lon="5.98938">
        <ele>364</ele>
        <time>2015-05-28T11:35:59Z</time>
      </trkpt>
      <trkpt lat="47.02625" lon="5.98935">
        <ele>367</ele>
        <time>2015-05-28T11:36:06Z</time>
      </trkpt>
      <trkpt lat="47.02628" lon="5.9894">
        <ele>370</ele>
        <time>2015-05-28T11:36:21Z</time>
      </trkpt>
      <trkpt lat="47.02625" lon="5.98948">
        <ele>374</ele>
        <time>2015-05-28T11:36:41Z</time>
      </trkpt>
      <trkpt lat="47.0262" lon="5.98963">
        <ele>378</ele>
        <time>2015-05-28T11:37:03Z</time>
      </trkpt>
      <trkpt lat="47.02612" lon="5.9897">
        <ele>385</ele>
        <time>2015-05-28T11:37:16Z</time>
      </trkpt>
      <trkpt lat="47.02597" lon="5.98987">
        <ele>393</ele>
        <time>2015-05-28T11:37:58Z</time>
      </trkpt>
      <trkpt lat="47.02605" lon="5.98993">
        <ele>395</ele>
        <time>2015-05-28T11:38:22Z</time>
      </trkpt>
      <trkpt lat="47.02598" lon="5.99004">
        <ele>396</ele>
        <time>2015-05-28T11:38:46Z</time>
      </trkpt>
      <trkpt lat="47.02601" lon="5.99014">
        <ele>408</ele>
        <time>2015-05-28T11:39:42Z</time>
      </trkpt>
      <trkpt lat="47.0259" lon="5.99021">
        <ele>409</ele>
        <time>2015-05-28T11:40:09Z</time>
      </trkpt>
      <trkpt lat="47.02572" lon="5.99054">
        <ele>405</ele>
        <time>2015-05-28T11:40:45Z</time>
      </trkpt>
      <trkpt lat="47.02564" lon="5.99069">
        <ele>404</ele>
        <time>2015-05-28T11:40:58Z</time>
      </trkpt>
      <trkpt lat="47.02557" lon="5.99074">
        <ele>404</ele>
        <time>2015-05-28T11:41:11Z</time>
      </trkpt>
      <trkpt lat="47.02553" lon="5.99086">
        <ele>405</ele>
        <time>2015-05-28T11:41:20Z</time>
      </trkpt>
      <trkpt lat="47.02549" lon="5.99099">
        <ele>406</ele>
        <time>2015-05-28T11:41:30Z</time>
      </trkpt>
      <trkpt lat="47.02548" lon="5.99115">
        <ele>405</ele>
        <time>2015-05-28T11:41:49Z</time>
      </trkpt>
      <trkpt lat="47.02544" lon="5.99127">
        <ele>403</ele>
        <time>2015-05-28T11:41:56Z</time>
      </trkpt>
      <trkpt lat="47.02542" lon="5.99142">
        <ele>403</ele>
        <time>2015-05-28T11:42:04Z</time>
      </trkpt>
      <trkpt lat="47.02538" lon="5.99169">
        <ele>404</ele>
        <time>2015-05-28T11:42:26Z</time>
      </trkpt>
      <trkpt lat="47.02533" lon="5.99182">
        <ele>404</ele>
        <time>2015-05-28T11:42:33Z</time>
      </trkpt>
      <trkpt lat="47.02521" lon="5.99221">
        <ele>406</ele>
        <time>2015-05-28T11:42:53Z</time>
      </trkpt>
      <trkpt lat="47.02514" lon="5.99259">
        <ele>411</ele>
        <time>2015-05-28T11:43:23Z</time>
      </trkpt>
      <trkpt lat="47.02504" lon="5.99282">
        <ele>412</ele>
        <time>2015-05-28T11:43:45Z</time>
      </trkpt>
      <trkpt lat="47.025" lon="5.99294">
        <ele>411</ele>
        <time>2015-05-28T11:43:59Z</time>
      </trkpt>
      <trkpt lat="47.02493" lon="5.99306">
        <ele>412</ele>
        <time>2015-05-28T11:44:06Z</time>
      </trkpt>
      <trkpt lat="47.02488" lon="5.99318">
        <ele>414</ele>
        <time>2015-05-28T11:44:16Z</time>
      </trkpt>
      <trkpt lat="47.02465" lon="5.99343">
        <ele>418</ele>
        <time>2015-05-28T11:44:40Z</time>
      </trkpt>
      <trkpt lat="47.02454" lon="5.99346">
        <ele>418</ele>
        <time>2015-05-28T11:44:46Z</time>
      </trkpt>
      <trkpt lat="47.02447" lon="5.99356">
        <ele>418</ele>
        <time>2015-05-28T11:44:52Z</time>
      </trkpt>
      <trkpt lat="47.02439" lon="5.99359">
        <ele>418</ele>
        <time>2015-05-28T11:45:06Z</time>
      </trkpt>
      <trkpt lat="47.02431" lon="5.99366">
        <ele>418</ele>
        <time>2015-05-28T11:45:13Z</time>
      </trkpt>
      <trkpt lat="47.0242" lon="5.99361">
        <ele>418</ele>
        <time>2015-05-28T11:45:36Z</time>
      </trkpt>
      <trkpt lat="47.02411" lon="5.99355">
        <ele>418</ele>
        <time>2015-05-28T11:45:49Z</time>
      </trkpt>
      <trkpt lat="47.02401" lon="5.99354">
        <ele>419</ele>
        <time>2015-05-28T11:45:56Z</time>
      </trkpt>
      <trkpt lat="47.02396" lon="5.99342">
        <ele>419</ele>
        <time>2015-05-28T11:46:02Z</time>
      </trkpt>
      <trkpt lat="47.0239" lon="5.9933">
        <ele>419</ele>
        <time>2015-05-28T11:46:09Z</time>
      </trkpt>
      <trkpt lat="47.02383" lon="5.99319">
        <ele>419</ele>
        <time>2015-05-28T11:46:20Z</time>
      </trkpt>
      <trkpt lat="47.02381" lon="5.99306">
        <ele>418</ele>
        <time>2015-05-28T11:46:28Z</time>
      </trkpt>
      <trkpt lat="47.02372" lon="5.99304">
        <ele>417</ele>
        <time>2015-05-28T11:46:45Z</time>
      </trkpt>
      <trkpt lat="47.02353" lon="5.99311">
        <ele>417</ele>
        <time>2015-05-28T11:47:04Z</time>
      </trkpt>
      <trkpt lat="47.02343" lon="5.9931">
        <ele>417</ele>
        <time>2015-05-28T11:47:16Z</time>
      </trkpt>
      <trkpt lat="47.02333" lon="5.99309">
        <ele>417</ele>
        <time>2015-05-28T11:47:22Z</time>
      </trkpt>
      <trkpt lat="47.02304" lon="5.99318">
        <ele>418</ele>
        <time>2015-05-28T11:47:51Z</time>
      </trkpt>
      <trkpt lat="47.02295" lon="5.99322">
        <ele>417</ele>
        <time>2015-05-28T11:48:00Z</time>
      </trkpt>
      <trkpt lat="47.02286" lon="5.99323">
        <ele>417</ele>
        <time>2015-05-28T11:48:11Z</time>
      </trkpt>
      <trkpt lat="47.02262" lon="5.99344">
        <ele>419</ele>
        <time>2015-05-28T11:48:41Z</time>
      </trkpt>
      <trkpt lat="47.02243" lon="5.99349">
        <ele>420</ele>
        <time>2015-05-28T11:49:02Z</time>
      </trkpt>
      <trkpt lat="47.02231" lon="5.99347">
        <ele>422</ele>
        <time>2015-05-28T11:49:35Z</time>
      </trkpt>
      <trkpt lat="47.02224" lon="5.99339">
        <ele>422</ele>
        <time>2015-05-28T11:49:45Z</time>
      </trkpt>
      <trkpt lat="47.02215" lon="5.99335">
        <ele>422</ele>
        <time>2015-05-28T11:49:54Z</time>
      </trkpt>
      <trkpt lat="47.02208" lon="5.99344">
        <ele>420</ele>
        <time>2015-05-28T11:50:07Z</time>
      </trkpt>
      <trkpt lat="47.02192" lon="5.99357">
        <ele>417</ele>
        <time>2015-05-28T11:50:29Z</time>
      </trkpt>
      <trkpt lat="47.02178" lon="5.99366">
        <ele>417</ele>
        <time>2015-05-28T11:50:48Z</time>
      </trkpt>
      <trkpt lat="47.0217" lon="5.99372">
        <ele>417</ele>
        <time>2015-05-28T11:51:04Z</time>
      </trkpt>
      <trkpt lat="47.02168" lon="5.99377">
        <ele>415</ele>
        <time>2015-05-28T11:51:23Z</time>
      </trkpt>
      <trkpt lat="47.0216" lon="5.99379">
        <ele>417</ele>
        <time>2015-05-28T11:51:59Z</time>
      </trkpt>
      <trkpt lat="47.02143" lon="5.9939">
        <ele>417</ele>
        <time>2015-05-28T11:52:20Z</time>
      </trkpt>
      <trkpt lat="47.02102" lon="5.99389">
        <ele>417</ele>
        <time>2015-05-28T11:52:56Z</time>
      </trkpt>
      <trkpt lat="47.02093" lon="5.99386">
        <ele>417</ele>
        <time>2015-05-28T11:53:12Z</time>
      </trkpt>
      <trkpt lat="47.02085" lon="5.99381">
        <ele>418</ele>
        <time>2015-05-28T11:53:23Z</time>
      </trkpt>
      <trkpt lat="47.02078" lon="5.99376">
        <ele>421</ele>
        <time>2015-05-28T11:53:56Z</time>
      </trkpt>
      <trkpt lat="47.02072" lon="5.99365">
        <ele>424</ele>
        <time>2015-05-28T11:54:03Z</time>
      </trkpt>
      <trkpt lat="47.02063" lon="5.99362">
        <ele>425</ele>
        <time>2015-05-28T11:54:15Z</time>
      </trkpt>
      <trkpt lat="47.02054" lon="5.99362">
        <ele>425</ele>
        <time>2015-05-28T11:54:26Z</time>
      </trkpt>
      <trkpt lat="47.02027" lon="5.99374">
        <ele>423</ele>
        <time>2015-05-28T11:55:00Z</time>
      </trkpt>
      <trkpt lat="47.02018" lon="5.99373">
        <ele>422</ele>
        <time>2015-05-28T11:55:07Z</time>
      </trkpt>
      <trkpt lat="47.02009" lon="5.99367">
        <ele>422</ele>
        <time>2015-05-28T11:55:15Z</time>
      </trkpt>
      <trkpt lat="47.02" lon="5.99366">
        <ele>422</ele>
        <time>2015-05-28T11:55:22Z</time>
      </trkpt>
      <trkpt lat="47.01976" lon="5.99346">
        <ele>423</ele>
        <time>2015-05-28T11:55:54Z</time>
      </trkpt>
      <trkpt lat="47.01958" lon="5.99341">
        <ele>423</ele>
        <time>2015-05-28T11:56:13Z</time>
      </trkpt>
      <trkpt lat="47.01949" lon="5.99345">
        <ele>424</ele>
        <time>2015-05-28T11:56:30Z</time>
      </trkpt>
      <trkpt lat="47.0194" lon="5.99347">
        <ele>425</ele>
        <time>2015-05-28T11:56:41Z</time>
      </trkpt>
      <trkpt lat="47.0193" lon="5.99349">
        <ele>425</ele>
        <time>2015-05-28T11:56:52Z</time>
      </trkpt>
      <trkpt lat="47.01925" lon="5.99345">
        <ele>425</ele>
        <time>2015-05-28T11:56:59Z</time>
      </trkpt>
      <trkpt lat="47.01923" lon="5.9934">
        <ele>426</ele>
        <time>2015-05-28T11:57:09Z</time>
      </trkpt>
      <trkpt lat="47.01913" lon="5.99334">
        <ele>426</ele>
        <time>2015-05-28T11:58:30Z</time>
      </trkpt>
      <trkpt lat="47.01914" lon="5.99338">
        <ele>433</ele>
        <time>2015-05-28T11:59:30Z</time>
      </trkpt>
      <trkpt lat="47.01915" lon="5.99342">
        <ele>439</ele>
        <time>2015-05-28T12:01:13Z</time>
      </trkpt>
      <trkpt lat="47.01917" lon="5.9935">
        <ele>439</ele>
        <time>2015-05-28T12:01:40Z</time>
      </trkpt>
      <trkpt lat="47.01909" lon="5.99358">
        <ele>438</ele>
        <time>2015-05-28T12:01:54Z</time>
      </trkpt>
      <trkpt lat="47.01904" lon="5.99363">
        <ele>438</ele>
        <time>2015-05-28T12:01:58Z</time>
      </trkpt>
      <trkpt lat="47.01899" lon="5.9938">
        <ele>435</ele>
        <time>2015-05-28T12:02:11Z</time>
      </trkpt>
      <trkpt lat="47.01883" lon="5.99412">
        <ele>432</ele>
        <time>2015-05-28T12:02:43Z</time>
      </trkpt>
      <trkpt lat="47.01875" lon="5.9942">
        <ele>431</ele>
        <time>2015-05-28T12:02:53Z</time>
      </trkpt>
      <trkpt lat="47.01867" lon="5.99446">
        <ele>431</ele>
        <time>2015-05-28T12:03:11Z</time>
      </trkpt>
      <trkpt lat="47.01863" lon="5.99458">
        <ele>431</ele>
        <time>2015-05-28T12:03:17Z</time>
      </trkpt>
      <trkpt lat="47.01855" lon="5.99465">
        <ele>432</ele>
        <time>2015-05-28T12:03:28Z</time>
      </trkpt>
      <trkpt lat="47.0184" lon="5.99484">
        <ele>432</ele>
        <time>2015-05-28T12:03:45Z</time>
      </trkpt>
      <trkpt lat="47.01824" lon="5.99534">
        <ele>435</ele>
        <time>2015-05-28T12:04:25Z</time>
      </trkpt>
      <trkpt lat="47.01816" lon="5.99543">
        <ele>435</ele>
        <time>2015-05-28T12:04:32Z</time>
      </trkpt>
      <trkpt lat="47.0181" lon="5.99553">
        <ele>435</ele>
        <time>2015-05-28T12:04:43Z</time>
      </trkpt>
      <trkpt lat="47.01791" lon="5.99599">
        <ele>433</ele>
        <time>2015-05-28T12:05:17Z</time>
      </trkpt>
      <trkpt lat="47.01773" lon="5.99647">
        <ele>432</ele>
        <time>2015-05-28T12:05:49Z</time>
      </trkpt>
      <trkpt lat="47.01765" lon="5.99671">
        <ele>433</ele>
        <time>2015-05-28T12:06:05Z</time>
      </trkpt>
      <trkpt lat="47.01749" lon="5.99686">
        <ele>435</ele>
        <time>2015-05-28T12:06:25Z</time>
      </trkpt>
      <trkpt lat="47.01739" lon="5.99709">
        <ele>437</ele>
        <time>2015-05-28T12:06:40Z</time>
      </trkpt>
      <trkpt lat="47.01726" lon="5.99728">
        <ele>436</ele>
        <time>2015-05-28T12:06:57Z</time>
      </trkpt>
      <trkpt lat="47.01701" lon="5.99769">
        <ele>437</ele>
        <time>2015-05-28T12:07:32Z</time>
      </trkpt>
      <trkpt lat="47.01693" lon="5.99778">
        <ele>437</ele>
        <time>2015-05-28T12:07:44Z</time>
      </trkpt>
      <trkpt lat="47.01672" lon="5.99806">
        <ele>438</ele>
        <time>2015-05-28T12:08:08Z</time>
      </trkpt>
      <trkpt lat="47.01657" lon="5.99841">
        <ele>438</ele>
        <time>2015-05-28T12:08:32Z</time>
      </trkpt>
      <trkpt lat="47.0164" lon="5.99854">
        <ele>435</ele>
        <time>2015-05-28T12:08:54Z</time>
      </trkpt>
      <trkpt lat="47.01632" lon="5.99861">
        <ele>435</ele>
        <time>2015-05-28T12:09:04Z</time>
      </trkpt>
      <trkpt lat="47.01608" lon="5.99886">
        <ele>439</ele>
        <time>2015-05-28T12:09:26Z</time>
      </trkpt>
      <trkpt lat="47.01604" lon="5.999">
        <ele>439</ele>
        <time>2015-05-28T12:09:35Z</time>
      </trkpt>
      <trkpt lat="47.01589" lon="5.99918">
        <ele>440</ele>
        <time>2015-05-28T12:09:48Z</time>
      </trkpt>
      <trkpt lat="47.01583" lon="5.99929">
        <ele>441</ele>
        <time>2015-05-28T12:09:57Z</time>
      </trkpt>
      <trkpt lat="47.0158" lon="5.99942">
        <ele>442</ele>
        <time>2015-05-28T12:10:05Z</time>
      </trkpt>
      <trkpt lat="47.01574" lon="5.99953">
        <ele>444</ele>
        <time>2015-05-28T12:10:17Z</time>
      </trkpt>
      <trkpt lat="47.01558" lon="5.99968">
        <ele>446</ele>
        <time>2015-05-28T12:10:33Z</time>
      </trkpt>
      <trkpt lat="47.01545" lon="5.99989">
        <ele>447</ele>
        <time>2015-05-28T12:10:48Z</time>
      </trkpt>
      <trkpt lat="47.01536" lon="5.99992">
        <ele>448</ele>
        <time>2015-05-28T12:10:56Z</time>
      </trkpt>
      <trkpt lat="47.01518" lon="6.0004">
        <ele>452</ele>
        <time>2015-05-28T12:11:32Z</time>
      </trkpt>
      <trkpt lat="47.01512" lon="6.00051">
        <ele>453</ele>
        <time>2015-05-28T12:11:44Z</time>
      </trkpt>
      <trkpt lat="47.01505" lon="6.0009">
        <ele>454</ele>
        <time>2015-05-28T12:11:58Z</time>
      </trkpt>
      <trkpt lat="47.01479" lon="6.00131">
        <ele>457</ele>
        <time>2015-05-28T12:12:36Z</time>
      </trkpt>
      <trkpt lat="47.01455" lon="6.00171">
        <ele>460</ele>
        <time>2015-05-28T12:13:09Z</time>
      </trkpt>
      <trkpt lat="47.01448" lon="6.00179">
        <ele>462</ele>
        <time>2015-05-28T12:13:19Z</time>
      </trkpt>
      <trkpt lat="47.0144" lon="6.00188">
        <ele>463</ele>
        <time>2015-05-28T12:13:27Z</time>
      </trkpt>
      <trkpt lat="47.01436" lon="6.00202">
        <ele>464</ele>
        <time>2015-05-28T12:13:36Z</time>
      </trkpt>
      <trkpt lat="47.01418" lon="6.00251">
        <ele>467</ele>
        <time>2015-05-28T12:14:10Z</time>
      </trkpt>
      <trkpt lat="47.01412" lon="6.00262">
        <ele>467</ele>
        <time>2015-05-28T12:14:19Z</time>
      </trkpt>
      <trkpt lat="47.01402" lon="6.00283">
        <ele>466</ele>
        <time>2015-05-28T12:14:32Z</time>
      </trkpt>
      <trkpt lat="47.01389" lon="6.00288">
        <ele>465</ele>
        <time>2015-05-28T12:14:52Z</time>
      </trkpt>
      <trkpt lat="47.01386" lon="6.00302">
        <ele>465</ele>
        <time>2015-05-28T12:15:01Z</time>
      </trkpt>
      <trkpt lat="47.01378" lon="6.0031">
        <ele>465</ele>
        <time>2015-05-28T12:15:10Z</time>
      </trkpt>
      <trkpt lat="47.01374" lon="6.00323">
        <ele>466</ele>
        <time>2015-05-28T12:15:19Z</time>
      </trkpt>
      <trkpt lat="47.01364" lon="6.00327">
        <ele>467</ele>
        <time>2015-05-28T12:15:29Z</time>
      </trkpt>
      <trkpt lat="47.01357" lon="6.00336">
        <ele>470</ele>
        <time>2015-05-28T12:15:36Z</time>
      </trkpt>
      <trkpt lat="47.01354" lon="6.00344">
        <ele>471</ele>
        <time>2015-05-28T12:15:51Z</time>
      </trkpt>
      <trkpt lat="47.01354" lon="6.00359">
        <ele>468</ele>
        <time>2015-05-28T12:17:01Z</time>
      </trkpt>
      <trkpt lat="47.01358" lon="6.00373">
        <ele>468</ele>
        <time>2015-05-28T12:17:12Z</time>
      </trkpt>
      <trkpt lat="47.01357" lon="6.00386">
        <ele>469</ele>
        <time>2015-05-28T12:17:21Z</time>
      </trkpt>
      <trkpt lat="47.01354" lon="6.00399">
        <ele>470</ele>
        <time>2015-05-28T12:17:29Z</time>
      </trkpt>
      <trkpt lat="47.01347" lon="6.00455">
        <ele>475</ele>
        <time>2015-05-28T12:18:05Z</time>
      </trkpt>
      <trkpt lat="47.01343" lon="6.00468">
        <ele>476</ele>
        <time>2015-05-28T12:18:13Z</time>
      </trkpt>
      <trkpt lat="47.01342" lon="6.00482">
        <ele>476</ele>
        <time>2015-05-28T12:18:21Z</time>
      </trkpt>
      <trkpt lat="47.01336" lon="6.00494">
        <ele>477</ele>
        <time>2015-05-28T12:18:29Z</time>
      </trkpt>
      <trkpt lat="47.0133" lon="6.00495">
        <ele>477</ele>
        <time>2015-05-28T12:18:31Z</time>
      </trkpt>
      <trkpt lat="47.01322" lon="6.00511">
        <ele>476</ele>
        <time>2015-05-28T12:18:41Z</time>
      </trkpt>
      <trkpt lat="47.01316" lon="6.00522">
        <ele>476</ele>
        <time>2015-05-28T12:18:45Z</time>
      </trkpt>
      <trkpt lat="47.013" lon="6.00528">
        <ele>475</ele>
        <time>2015-05-28T12:18:53Z</time>
      </trkpt>
      <trkpt lat="47.01301" lon="6.00543">
        <ele>474</ele>
        <time>2015-05-28T12:19:05Z</time>
      </trkpt>
      <trkpt lat="47.01295" lon="6.00555">
        <ele>473</ele>
        <time>2015-05-28T12:19:16Z</time>
      </trkpt>
      <trkpt lat="47.01288" lon="6.00565">
        <ele>473</ele>
        <time>2015-05-28T12:19:23Z</time>
      </trkpt>
      <trkpt lat="47.01284" lon="6.00578">
        <ele>472</ele>
        <time>2015-05-28T12:19:30Z</time>
      </trkpt>
      <trkpt lat="47.01277" lon="6.00586">
        <ele>471</ele>
        <time>2015-05-28T12:19:41Z</time>
      </trkpt>
      <trkpt lat="47.01278" lon="6.00602">
        <ele>471</ele>
        <time>2015-05-28T12:19:53Z</time>
      </trkpt>
      <trkpt lat="47.0127" lon="6.00627">
        <ele>470</ele>
        <time>2015-05-28T12:20:09Z</time>
      </trkpt>
      <trkpt lat="47.01261" lon="6.00633">
        <ele>470</ele>
        <time>2015-05-28T12:20:14Z</time>
      </trkpt>
      <trkpt lat="47.01256" lon="6.00644">
        <ele>469</ele>
        <time>2015-05-28T12:20:18Z</time>
      </trkpt>
      <trkpt lat="47.01245" lon="6.00657">
        <ele>469</ele>
        <time>2015-05-28T12:20:22Z</time>
      </trkpt>
      <trkpt lat="47.01233" lon="6.00666">
        <ele>470</ele>
        <time>2015-05-28T12:20:28Z</time>
      </trkpt>
      <trkpt lat="47.01231" lon="6.0068">
        <ele>471</ele>
        <time>2015-05-28T12:20:42Z</time>
      </trkpt>
      <trkpt lat="47.01233" lon="6.00697">
        <ele>472</ele>
        <time>2015-05-28T12:20:48Z</time>
      </trkpt>
      <trkpt lat="47.01232" lon="6.00711">
        <ele>473</ele>
        <time>2015-05-28T12:21:05Z</time>
      </trkpt>
      <trkpt lat="47.0124" lon="6.00729">
        <ele>475</ele>
        <time>2015-05-28T12:21:11Z</time>
      </trkpt>
      <trkpt lat="47.0124" lon="6.00746">
        <ele>478</ele>
        <time>2015-05-28T12:21:18Z</time>
      </trkpt>
      <trkpt lat="47.01228" lon="6.00769">
        <ele>482</ele>
        <time>2015-05-28T12:21:34Z</time>
      </trkpt>
      <trkpt lat="47.0122" lon="6.00777">
        <ele>484</ele>
        <time>2015-05-28T12:21:42Z</time>
      </trkpt>
      <trkpt lat="47.01217" lon="6.00789">
        <ele>485</ele>
        <time>2015-05-28T12:21:49Z</time>
      </trkpt>
      <trkpt lat="47.0121" lon="6.00798">
        <ele>488</ele>
        <time>2015-05-28T12:22:04Z</time>
      </trkpt>
      <trkpt lat="47.01204" lon="6.00816">
        <ele>488</ele>
        <time>2015-05-28T12:22:39Z</time>
      </trkpt>
      <trkpt lat="47.01198" lon="6.00857">
        <ele>489</ele>
        <time>2015-05-28T12:22:59Z</time>
      </trkpt>
      <trkpt lat="47.01194" lon="6.00869">
        <ele>489</ele>
        <time>2015-05-28T12:23:06Z</time>
      </trkpt>
      <trkpt lat="47.01167" lon="6.00906">
        <ele>489</ele>
        <time>2015-05-28T12:23:33Z</time>
      </trkpt>
      <trkpt lat="47.01165" lon="6.00919">
        <ele>490</ele>
        <time>2015-05-28T12:23:45Z</time>
      </trkpt>
      <trkpt lat="47.01156" lon="6.00925">
        <ele>490</ele>
        <time>2015-05-28T12:23:54Z</time>
      </trkpt>
      <trkpt lat="47.01149" lon="6.00935">
        <ele>492</ele>
        <time>2015-05-28T12:24:05Z</time>
      </trkpt>
      <trkpt lat="47.01153" lon="6.00948">
        <ele>492</ele>
        <time>2015-05-28T12:24:13Z</time>
      </trkpt>
      <trkpt lat="47.01144" lon="6.00954">
        <ele>491</ele>
        <time>2015-05-28T12:24:21Z</time>
      </trkpt>
      <trkpt lat="47.01136" lon="6.00959">
        <ele>492</ele>
        <time>2015-05-28T12:24:26Z</time>
      </trkpt>
      <trkpt lat="47.01129" lon="6.00969">
        <ele>492</ele>
        <time>2015-05-28T12:24:34Z</time>
      </trkpt>
      <trkpt lat="47.01121" lon="6.00976">
        <ele>492</ele>
        <time>2015-05-28T12:24:41Z</time>
      </trkpt>
      <trkpt lat="47.01112" lon="6.00985">
        <ele>491</ele>
        <time>2015-05-28T12:24:48Z</time>
      </trkpt>
      <trkpt lat="47.01105" lon="6.00996">
        <ele>491</ele>
        <time>2015-05-28T12:24:55Z</time>
      </trkpt>
      <trkpt lat="47.0109" lon="6.01018">
        <ele>492</ele>
        <time>2015-05-28T12:25:07Z</time>
      </trkpt>
      <trkpt lat="47.01081" lon="6.01024">
        <ele>492</ele>
        <time>2015-05-28T12:25:12Z</time>
      </trkpt>
      <trkpt lat="47.01081" lon="6.01034">
        <ele>492</ele>
        <time>2015-05-28T12:25:15Z</time>
      </trkpt>
      <trkpt lat="47.0107" lon="6.01074">
        <ele>497</ele>
        <time>2015-05-28T12:25:38Z</time>
      </trkpt>
      <trkpt lat="47.01062" lon="6.01075">
        <ele>497</ele>
        <time>2015-05-28T12:25:41Z</time>
      </trkpt>
      <trkpt lat="47.01054" lon="6.01073">
        <ele>498</ele>
        <time>2015-05-28T12:25:43Z</time>
      </trkpt>
      <trkpt lat="47.01052" lon="6.01087">
        <ele>499</ele>
        <time>2015-05-28T12:25:51Z</time>
      </trkpt>
      <trkpt lat="47.01055" lon="6.01105">
        <ele>501</ele>
        <time>2015-05-28T12:25:58Z</time>
      </trkpt>
      <trkpt lat="47.01045" lon="6.01107">
        <ele>501</ele>
        <time>2015-05-28T12:26:04Z</time>
      </trkpt>
      <trkpt lat="47.01046" lon="6.01121">
        <ele>501</ele>
        <time>2015-05-28T12:26:13Z</time>
      </trkpt>
      <trkpt lat="47.01042" lon="6.01127">
        <ele>500</ele>
        <time>2015-05-28T12:26:16Z</time>
      </trkpt>
      <trkpt lat="47.01038" lon="6.01132">
        <ele>500</ele>
        <time>2015-05-28T12:26:18Z</time>
      </trkpt>
      <trkpt lat="47.01038" lon="6.01145">
        <ele>500</ele>
        <time>2015-05-28T12:26:25Z</time>
      </trkpt>
      <trkpt lat="47.01035" lon="6.01161">
        <ele>500</ele>
        <time>2015-05-28T12:26:33Z</time>
      </trkpt>
      <trkpt lat="47.01019" lon="6.01194">
        <ele>501</ele>
        <time>2015-05-28T12:26:56Z</time>
      </trkpt>
      <trkpt lat="47.0101" lon="6.01203">
        <ele>502</ele>
        <time>2015-05-28T12:27:06Z</time>
      </trkpt>
      <trkpt lat="47.01" lon="6.01211">
        <ele>504</ele>
        <time>2015-05-28T12:27:15Z</time>
      </trkpt>
      <trkpt lat="47.00996" lon="6.01223">
        <ele>505</ele>
        <time>2015-05-28T12:27:23Z</time>
      </trkpt>
      <trkpt lat="47.00985" lon="6.01247">
        <ele>504</ele>
        <time>2015-05-28T12:27:42Z</time>
      </trkpt>
      <trkpt lat="47.00977" lon="6.01253">
        <ele>504</ele>
        <time>2015-05-28T12:27:47Z</time>
      </trkpt>
      <trkpt lat="47.00976" lon="6.01267">
        <ele>504</ele>
        <time>2015-05-28T12:27:56Z</time>
      </trkpt>
      <trkpt lat="47.00972" lon="6.01281">
        <ele>504</ele>
        <time>2015-05-28T12:28:03Z</time>
      </trkpt>
      <trkpt lat="47.00965" lon="6.01292">
        <ele>505</ele>
        <time>2015-05-28T12:28:09Z</time>
      </trkpt>
      <trkpt lat="47.0096" lon="6.01308">
        <ele>505</ele>
        <time>2015-05-28T12:28:16Z</time>
      </trkpt>
      <trkpt lat="47.0096" lon="6.01322">
        <ele>504</ele>
        <time>2015-05-28T12:28:24Z</time>
      </trkpt>
      <trkpt lat="47.00961" lon="6.01336">
        <ele>503</ele>
        <time>2015-05-28T12:28:34Z</time>
      </trkpt>
      <trkpt lat="47.00963" lon="6.01383">
        <ele>501</ele>
        <time>2015-05-28T12:29:01Z</time>
      </trkpt>
      <trkpt lat="47.00968" lon="6.01395">
        <ele>501</ele>
        <time>2015-05-28T12:29:06Z</time>
      </trkpt>
      <trkpt lat="47.00964" lon="6.01407">
        <ele>502</ele>
        <time>2015-05-28T12:29:13Z</time>
      </trkpt>
      <trkpt lat="47.00968" lon="6.01419">
        <ele>502</ele>
        <time>2015-05-28T12:29:26Z</time>
      </trkpt>
      <trkpt lat="47.00966" lon="6.01432">
        <ele>503</ele>
        <time>2015-05-28T12:29:35Z</time>
      </trkpt>
      <trkpt lat="47.00968" lon="6.01446">
        <ele>504</ele>
        <time>2015-05-28T12:29:44Z</time>
      </trkpt>
      <trkpt lat="47.00969" lon="6.01459">
        <ele>504</ele>
        <time>2015-05-28T12:29:54Z</time>
      </trkpt>
      <trkpt lat="47.00961" lon="6.01467">
        <ele>505</ele>
        <time>2015-05-28T12:30:02Z</time>
      </trkpt>
      <trkpt lat="47.00958" lon="6.01481">
        <ele>508</ele>
        <time>2015-05-28T12:30:14Z</time>
      </trkpt>
      <trkpt lat="47.00964" lon="6.01507">
        <ele>510</ele>
        <time>2015-05-28T12:30:32Z</time>
      </trkpt>
      <trkpt lat="47.00971" lon="6.01513">
        <ele>511</ele>
        <time>2015-05-28T12:31:22Z</time>
      </trkpt>
      <trkpt lat="47.00964" lon="6.01521">
        <ele>511</ele>
        <time>2015-05-28T12:31:42Z</time>
      </trkpt>
      <trkpt lat="47.00962" lon="6.01523">
        <ele>512</ele>
        <time>2015-05-28T12:32:47Z</time>
      </trkpt>
      <trkpt lat="47.00962" lon="6.01526">
        <ele>512</ele>
        <time>2015-05-28T12:34:11Z</time>
      </trkpt>
      <trkpt lat="47.00956" lon="6.0154">
        <ele>512</ele>
        <time>2015-05-28T12:34:31Z</time>
      </trkpt>
      <trkpt lat="47.0095" lon="6.01551">
        <ele>515</ele>
        <time>2015-05-28T12:34:40Z</time>
      </trkpt>
      <trkpt lat="47.00935" lon="6.01588">
        <ele>517</ele>
        <time>2015-05-28T12:35:08Z</time>
      </trkpt>
      <trkpt lat="47.00914" lon="6.01636">
        <ele>515</ele>
        <time>2015-05-28T12:35:39Z</time>
      </trkpt>
      <trkpt lat="47.0091" lon="6.01649">
        <ele>514</ele>
        <time>2015-05-28T12:35:48Z</time>
      </trkpt>
      <trkpt lat="47.00896" lon="6.017">
        <ele>516</ele>
        <time>2015-05-28T12:36:18Z</time>
      </trkpt>
      <trkpt lat="47.00898" lon="6.01729">
        <ele>517</ele>
        <time>2015-05-28T12:36:31Z</time>
      </trkpt>
      <trkpt lat="47.00894" lon="6.01741">
        <ele>517</ele>
        <time>2015-05-28T12:36:37Z</time>
      </trkpt>
      <trkpt lat="47.00887" lon="6.01799">
        <ele>514</ele>
        <time>2015-05-28T12:37:09Z</time>
      </trkpt>
      <trkpt lat="47.00886" lon="6.01813">
        <ele>513</ele>
        <time>2015-05-28T12:37:18Z</time>
      </trkpt>
      <trkpt lat="47.0088" lon="6.01839">
        <ele>515</ele>
        <time>2015-05-28T12:37:33Z</time>
      </trkpt>
      <trkpt lat="47.00876" lon="6.01853">
        <ele>517</ele>
        <time>2015-05-28T12:37:41Z</time>
      </trkpt>
      <trkpt lat="47.00873" lon="6.01881">
        <ele>518</ele>
        <time>2015-05-28T12:37:55Z</time>
      </trkpt>
      <trkpt lat="47.00874" lon="6.01895">
        <ele>519</ele>
        <time>2015-05-28T12:38:02Z</time>
      </trkpt>
      <trkpt lat="47.00868" lon="6.01922">
        <ele>517</ele>
        <time>2015-05-28T12:38:17Z</time>
      </trkpt>
      <trkpt lat="47.00865" lon="6.01937">
        <ele>517</ele>
        <time>2015-05-28T12:38:23Z</time>
      </trkpt>
      <trkpt lat="47.00865" lon="6.01964">
        <ele>518</ele>
        <time>2015-05-28T12:38:38Z</time>
      </trkpt>
      <trkpt lat="47.00863" lon="6.01979">
        <ele>518</ele>
        <time>2015-05-28T12:38:45Z</time>
      </trkpt>
      <trkpt lat="47.00865" lon="6.01993">
        <ele>517</ele>
        <time>2015-05-28T12:38:54Z</time>
      </trkpt>
      <trkpt lat="47.00875" lon="6.02062">
        <ele>516</ele>
        <time>2015-05-28T12:39:30Z</time>
      </trkpt>
      <trkpt lat="47.00885" lon="6.02117">
        <ele>516</ele>
        <time>2015-05-28T12:40:00Z</time>
      </trkpt>
      <trkpt lat="47.00891" lon="6.02129">
        <ele>515</ele>
        <time>2015-05-28T12:40:07Z</time>
      </trkpt>
      <trkpt lat="47.00894" lon="6.02142">
        <ele>515</ele>
        <time>2015-05-28T12:40:16Z</time>
      </trkpt>
      <trkpt lat="47.00894" lon="6.02156">
        <ele>515</ele>
        <time>2015-05-28T12:40:26Z</time>
      </trkpt>
      <trkpt lat="47.00894" lon="6.02167">
        <ele>512</ele>
        <time>2015-05-28T12:42:58Z</time>
      </trkpt>
      <trkpt lat="47.00895" lon="6.02175">
        <ele>512</ele>
        <time>2015-05-28T12:43:10Z</time>
      </trkpt>
      <trkpt lat="47.00897" lon="6.02175">
        <ele>512</ele>
        <time>2015-05-28T12:43:40Z</time>
      </trkpt>
      <trkpt lat="47.00902" lon="6.02187">
        <ele>512</ele>
        <time>2015-05-28T12:43:48Z</time>
      </trkpt>
      <trkpt lat="47.00907" lon="6.02198">
        <ele>511</ele>
        <time>2015-05-28T12:43:55Z</time>
      </trkpt>
      <trkpt lat="47.0091" lon="6.02211">
        <ele>511</ele>
        <time>2015-05-28T12:44:02Z</time>
      </trkpt>
      <trkpt lat="47.00914" lon="6.02223">
        <ele>513</ele>
        <time>2015-05-28T12:44:11Z</time>
      </trkpt>
      <trkpt lat="47.00919" lon="6.02235">
        <ele>513</ele>
        <time>2015-05-28T12:44:19Z</time>
      </trkpt>
      <trkpt lat="47.00928" lon="6.0226">
        <ele>517</ele>
        <time>2015-05-28T12:44:34Z</time>
      </trkpt>
      <trkpt lat="47.00935" lon="6.02279">
        <ele>518</ele>
        <time>2015-05-28T12:44:47Z</time>
      </trkpt>
      <trkpt lat="47.00937" lon="6.02286">
        <ele>518</ele>
        <time>2015-05-28T12:44:51Z</time>
      </trkpt>
      <trkpt lat="47.00939" lon="6.02329">
        <ele>517</ele>
        <time>2015-05-28T12:45:18Z</time>
      </trkpt>
      <trkpt lat="47.0094" lon="6.02337">
        <ele>516</ele>
        <time>2015-05-28T12:45:23Z</time>
      </trkpt>
      <trkpt lat="47.00942" lon="6.02344">
        <ele>516</ele>
        <time>2015-05-28T12:45:27Z</time>
      </trkpt>
      <trkpt lat="47.00948" lon="6.02365">
        <ele>516</ele>
        <time>2015-05-28T12:45:37Z</time>
      </trkpt>
      <trkpt lat="47.00952" lon="6.0237">
        <ele>515</ele>
        <time>2015-05-28T12:45:41Z</time>
      </trkpt>
      <trkpt lat="47.00955" lon="6.02382">
        <ele>515</ele>
        <time>2015-05-28T12:45:48Z</time>
      </trkpt>
      <trkpt lat="47.00953" lon="6.02413">
        <ele>514</ele>
        <time>2015-05-28T12:46:03Z</time>
      </trkpt>
      <trkpt lat="47.00962" lon="6.02453">
        <ele>514</ele>
        <time>2015-05-28T12:46:27Z</time>
      </trkpt>
      <trkpt lat="47.00958" lon="6.02481">
        <ele>515</ele>
        <time>2015-05-28T12:46:42Z</time>
      </trkpt>
      <trkpt lat="47.00956" lon="6.02495">
        <ele>515</ele>
        <time>2015-05-28T12:46:49Z</time>
      </trkpt>
      <trkpt lat="47.0095" lon="6.02521">
        <ele>514</ele>
        <time>2015-05-28T12:47:06Z</time>
      </trkpt>
      <trkpt lat="47.00945" lon="6.02533">
        <ele>514</ele>
        <time>2015-05-28T12:47:13Z</time>
      </trkpt>
      <trkpt lat="47.0094" lon="6.02544">
        <ele>514</ele>
        <time>2015-05-28T12:47:20Z</time>
      </trkpt>
      <trkpt lat="47.00931" lon="6.02569">
        <ele>513</ele>
        <time>2015-05-28T12:47:36Z</time>
      </trkpt>
      <trkpt lat="47.00926" lon="6.02581">
        <ele>514</ele>
        <time>2015-05-28T12:47:43Z</time>
      </trkpt>
      <trkpt lat="47.00893" lon="6.02633">
        <ele>513</ele>
        <time>2015-05-28T12:48:20Z</time>
      </trkpt>
      <trkpt lat="47.00888" lon="6.02645">
        <ele>513</ele>
        <time>2015-05-28T12:48:29Z</time>
      </trkpt>
      <trkpt lat="47.00881" lon="6.02655">
        <ele>511</ele>
        <time>2015-05-28T12:48:37Z</time>
      </trkpt>
      <trkpt lat="47.0087" lon="6.02677">
        <ele>511</ele>
        <time>2015-05-28T12:48:51Z</time>
      </trkpt>
      <trkpt lat="47.00848" lon="6.02722">
        <ele>512</ele>
        <time>2015-05-28T12:49:21Z</time>
      </trkpt>
      <trkpt lat="47.00841" lon="6.02733">
        <ele>512</ele>
        <time>2015-05-28T12:49:27Z</time>
      </trkpt>
      <trkpt lat="47.00835" lon="6.02744">
        <ele>513</ele>
        <time>2015-05-28T12:49:34Z</time>
      </trkpt>
      <trkpt lat="47.0081" lon="6.02804">
        <ele>512</ele>
        <time>2015-05-28T12:50:10Z</time>
      </trkpt>
      <trkpt lat="47.00805" lon="6.02817">
        <ele>512</ele>
        <time>2015-05-28T12:50:18Z</time>
      </trkpt>
      <trkpt lat="47.008" lon="6.0283">
        <ele>511</ele>
        <time>2015-05-28T12:50:26Z</time>
      </trkpt>
      <trkpt lat="47.00797" lon="6.02844">
        <ele>511</ele>
        <time>2015-05-28T12:50:35Z</time>
      </trkpt>
      <trkpt lat="47.0078" lon="6.02909">
        <ele>514</ele>
        <time>2015-05-28T12:51:10Z</time>
      </trkpt>
      <trkpt lat="47.00775" lon="6.02922">
        <ele>514</ele>
        <time>2015-05-28T12:51:17Z</time>
      </trkpt>
      <trkpt lat="47.0077" lon="6.02935">
        <ele>513</ele>
        <time>2015-05-28T12:51:26Z</time>
      </trkpt>
      <trkpt lat="47.00762" lon="6.02941">
        <ele>512</ele>
        <time>2015-05-28T12:51:35Z</time>
      </trkpt>
      <trkpt lat="47.00744" lon="6.02937">
        <ele>510</ele>
        <time>2015-05-28T12:51:50Z</time>
      </trkpt>
      <trkpt lat="47.00735" lon="6.02941">
        <ele>510</ele>
        <time>2015-05-28T12:51:58Z</time>
      </trkpt>
      <trkpt lat="47.00726" lon="6.02935">
        <ele>511</ele>
        <time>2015-05-28T12:52:56Z</time>
      </trkpt>
      <trkpt lat="47.00723" lon="6.02928">
        <ele>511</ele>
        <time>2015-05-28T12:53:08Z</time>
      </trkpt>
      <trkpt lat="47.00715" lon="6.02928">
        <ele>508</ele>
        <time>2015-05-28T12:53:26Z</time>
      </trkpt>
      <trkpt lat="47.00705" lon="6.02931">
        <ele>508</ele>
        <time>2015-05-28T12:53:34Z</time>
      </trkpt>
      <trkpt lat="47.00697" lon="6.02936">
        <ele>508</ele>
        <time>2015-05-28T12:53:44Z</time>
      </trkpt>
      <trkpt lat="47.00677" lon="6.02929">
        <ele>509</ele>
        <time>2015-05-28T12:54:02Z</time>
      </trkpt>
      <trkpt lat="47.00668" lon="6.0293">
        <ele>508</ele>
        <time>2015-05-28T12:54:17Z</time>
      </trkpt>
      <trkpt lat="47.00659" lon="6.02935">
        <ele>506</ele>
        <time>2015-05-28T12:54:28Z</time>
      </trkpt>
      <trkpt lat="47.00632" lon="6.02949">
        <ele>503</ele>
        <time>2015-05-28T12:55:01Z</time>
      </trkpt>
      <trkpt lat="47.00628" lon="6.02961">
        <ele>501</ele>
        <time>2015-05-28T12:55:12Z</time>
      </trkpt>
      <trkpt lat="47.00628" lon="6.02975">
        <ele>501</ele>
        <time>2015-05-28T12:55:21Z</time>
      </trkpt>
      <trkpt lat="47.00622" lon="6.02986">
        <ele>500</ele>
        <time>2015-05-28T12:55:31Z</time>
      </trkpt>
      <trkpt lat="47.00618" lon="6.02999">
        <ele>499</ele>
        <time>2015-05-28T12:55:45Z</time>
      </trkpt>
      <trkpt lat="47.00614" lon="6.03025">
        <ele>498</ele>
        <time>2015-05-28T12:56:06Z</time>
      </trkpt>
      <trkpt lat="47.00614" lon="6.03011">
        <ele>498</ele>
        <time>2015-05-28T12:56:17Z</time>
      </trkpt>
      <trkpt lat="47.00619" lon="6.03">
        <ele>497</ele>
        <time>2015-05-28T12:56:24Z</time>
      </trkpt>
      <trkpt lat="47.00643" lon="6.02955">
        <ele>493</ele>
        <time>2015-05-28T12:56:57Z</time>
      </trkpt>
      <trkpt lat="47.00649" lon="6.02946">
        <ele>492</ele>
        <time>2015-05-28T12:57:05Z</time>
      </trkpt>
      <trkpt lat="47.00656" lon="6.02936">
        <ele>491</ele>
        <time>2015-05-28T12:57:13Z</time>
      </trkpt>
      <trkpt lat="47.00649" lon="6.02938">
        <ele>490</ele>
        <time>2015-05-28T12:58:56Z</time>
      </trkpt>
      <trkpt lat="47.0065" lon="6.02944">
        <ele>491</ele>
        <time>2015-05-28T13:01:00Z</time>
      </trkpt>
      <trkpt lat="47.00653" lon="6.02946">
        <ele>491</ele>
        <time>2015-05-28T13:01:47Z</time>
      </trkpt>
      <trkpt lat="47.00644" lon="6.02948">
        <ele>492</ele>
        <time>2015-05-28T13:02:26Z</time>
      </trkpt>
      <trkpt lat="47.00616" lon="6.02952">
        <ele>495</ele>
        <time>2015-05-28T13:02:46Z</time>
      </trkpt>
      <trkpt lat="47.00601" lon="6.02936">
        <ele>499</ele>
        <time>2015-05-28T13:03:06Z</time>
      </trkpt>
      <trkpt lat="47.00592" lon="6.0291">
        <ele>501</ele>
        <time>2015-05-28T13:03:23Z</time>
      </trkpt>
      <trkpt lat="47.00587" lon="6.02898">
        <ele>501</ele>
        <time>2015-05-28T13:03:31Z</time>
      </trkpt>
      <trkpt lat="47.00566" lon="6.02852">
        <ele>503</ele>
        <time>2015-05-28T13:04:08Z</time>
      </trkpt>
      <trkpt lat="47.00561" lon="6.0284">
        <ele>504</ele>
        <time>2015-05-28T13:04:19Z</time>
      </trkpt>
      <trkpt lat="47.00555" lon="6.02829">
        <ele>504</ele>
        <time>2015-05-28T13:04:29Z</time>
      </trkpt>
      <trkpt lat="47.0055" lon="6.02817">
        <ele>504</ele>
        <time>2015-05-28T13:04:38Z</time>
      </trkpt>
      <trkpt lat="47.00546" lon="6.02805">
        <ele>506</ele>
        <time>2015-05-28T13:04:52Z</time>
      </trkpt>
      <trkpt lat="47.00531" lon="6.0277">
        <ele>507</ele>
        <time>2015-05-28T13:05:20Z</time>
      </trkpt>
      <trkpt lat="47.0052" lon="6.02745">
        <ele>509</ele>
        <time>2015-05-28T13:05:38Z</time>
      </trkpt>
      <trkpt lat="47.00529" lon="6.02747">
        <ele>508</ele>
        <time>2015-05-28T13:05:57Z</time>
      </trkpt>
      <trkpt lat="47.0053" lon="6.02761">
        <ele>508</ele>
        <time>2015-05-28T13:06:13Z</time>
      </trkpt>
      <trkpt lat="47.00534" lon="6.02764">
        <ele>507</ele>
        <time>2015-05-28T13:06:24Z</time>
      </trkpt>
      <trkpt lat="47.00539" lon="6.02775">
        <ele>505</ele>
        <time>2015-05-28T13:07:07Z</time>
      </trkpt>
      <trkpt lat="47.00539" lon="6.0279">
        <ele>500</ele>
        <time>2015-05-28T13:07:15Z</time>
      </trkpt>
      <trkpt lat="47.00542" lon="6.02803">
        <ele>499</ele>
        <time>2015-05-28T13:07:23Z</time>
      </trkpt>
      <trkpt lat="47.00558" lon="6.02836">
        <ele>498</ele>
        <time>2015-05-28T13:07:45Z</time>
      </trkpt>
      <trkpt lat="47.00564" lon="6.02848">
        <ele>498</ele>
        <time>2015-05-28T13:07:53Z</time>
      </trkpt>
      <trkpt lat="47.00584" lon="6.02896">
        <ele>499</ele>
        <time>2015-05-28T13:08:25Z</time>
      </trkpt>
      <trkpt lat="47.00589" lon="6.02907">
        <ele>498</ele>
        <time>2015-05-28T13:08:33Z</time>
      </trkpt>
      <trkpt lat="47.00594" lon="6.02919">
        <ele>498</ele>
        <time>2015-05-28T13:08:41Z</time>
      </trkpt>
      <trkpt lat="47.00598" lon="6.02931">
        <ele>499</ele>
        <time>2015-05-28T13:08:47Z</time>
      </trkpt>
      <trkpt lat="47.00605" lon="6.02941">
        <ele>499</ele>
        <time>2015-05-28T13:08:53Z</time>
      </trkpt>
      <trkpt lat="47.00614" lon="6.02967">
        <ele>497</ele>
        <time>2015-05-28T13:09:12Z</time>
      </trkpt>
      <trkpt lat="47.00635" lon="6.03013">
        <ele>495</ele>
        <time>2015-05-28T13:09:42Z</time>
      </trkpt>
      <trkpt lat="47.00658" lon="6.03059">
        <ele>493</ele>
        <time>2015-05-28T13:10:13Z</time>
      </trkpt>
      <trkpt lat="47.00662" lon="6.03071">
        <ele>493</ele>
        <time>2015-05-28T13:10:20Z</time>
      </trkpt>
      <trkpt lat="47.00667" lon="6.03082">
        <ele>494</ele>
        <time>2015-05-28T13:10:27Z</time>
      </trkpt>
      <trkpt lat="47.00671" lon="6.03095">
        <ele>493</ele>
        <time>2015-05-28T13:10:35Z</time>
      </trkpt>
      <trkpt lat="47.00673" lon="6.03109">
        <ele>491</ele>
        <time>2015-05-28T13:10:44Z</time>
      </trkpt>
      <trkpt lat="47.0067" lon="6.03122">
        <ele>490</ele>
        <time>2015-05-28T13:10:53Z</time>
      </trkpt>
      <trkpt lat="47.00664" lon="6.03133">
        <ele>490</ele>
        <time>2015-05-28T13:11:01Z</time>
      </trkpt>
      <trkpt lat="47.00657" lon="6.03152">
        <ele>493</ele>
        <time>2015-05-28T13:11:26Z</time>
      </trkpt>
      <trkpt lat="47.00657" lon="6.03152">
        <ele>494</ele>
        <time>2015-05-28T13:11:58Z</time>
      </trkpt>
      <trkpt lat="47.00652" lon="6.03156">
        <ele>494</ele>
        <time>2015-05-28T13:12:02Z</time>
      </trkpt>
      <trkpt lat="47.00608" lon="6.03178">
        <ele>499</ele>
        <time>2015-05-28T13:12:36Z</time>
      </trkpt>
      <trkpt lat="47.00593" lon="6.03199">
        <ele>501</ele>
        <time>2015-05-28T13:12:54Z</time>
      </trkpt>
      <trkpt lat="47.00589" lon="6.03196">
        <ele>501</ele>
        <time>2015-05-28T13:13:00Z</time>
      </trkpt>
      <trkpt lat="47.00581" lon="6.03178">
        <ele>499</ele>
        <time>2015-05-28T13:13:16Z</time>
      </trkpt>
      <trkpt lat="47.00578" lon="6.03165">
        <ele>499</ele>
        <time>2015-05-28T13:13:23Z</time>
      </trkpt>
      <trkpt lat="47.00576" lon="6.03151">
        <ele>498</ele>
        <time>2015-05-28T13:13:32Z</time>
      </trkpt>
      <trkpt lat="47.00571" lon="6.03139">
        <ele>497</ele>
        <time>2015-05-28T13:13:42Z</time>
      </trkpt>
      <trkpt lat="47.00554" lon="6.03105">
        <ele>497</ele>
        <time>2015-05-28T13:14:03Z</time>
      </trkpt>
      <trkpt lat="47.00545" lon="6.03098">
        <ele>498</ele>
        <time>2015-05-28T13:14:11Z</time>
      </trkpt>
      <trkpt lat="47.00538" lon="6.03089">
        <ele>499</ele>
        <time>2015-05-28T13:14:18Z</time>
      </trkpt>
      <trkpt lat="47.00497" lon="6.03076">
        <ele>501</ele>
        <time>2015-05-28T13:14:54Z</time>
      </trkpt>
      <trkpt lat="47.00459" lon="6.03086">
        <ele>504</ele>
        <time>2015-05-28T13:15:25Z</time>
      </trkpt>
      <trkpt lat="47.00424" lon="6.03083">
        <ele>507</ele>
        <time>2015-05-28T13:15:56Z</time>
      </trkpt>
      <trkpt lat="47.0042" lon="6.03081">
        <ele>508</ele>
        <time>2015-05-28T13:16:01Z</time>
      </trkpt>
      <trkpt lat="47.00415" lon="6.0308">
        <ele>508</ele>
        <time>2015-05-28T13:16:05Z</time>
      </trkpt>
      <trkpt lat="47.00391" lon="6.03071">
        <ele>512</ele>
        <time>2015-05-28T13:16:31Z</time>
      </trkpt>
      <trkpt lat="47.00386" lon="6.0307">
        <ele>512</ele>
        <time>2015-05-28T13:16:36Z</time>
      </trkpt>
      <trkpt lat="47.00381" lon="6.03069">
        <ele>512</ele>
        <time>2015-05-28T13:16:41Z</time>
      </trkpt>
      <trkpt lat="47.00347" lon="6.03067">
        <ele>516</ele>
        <time>2015-05-28T13:17:12Z</time>
      </trkpt>
      <trkpt lat="47.00316" lon="6.03074">
        <ele>520</ele>
        <time>2015-05-28T13:17:42Z</time>
      </trkpt>
      <trkpt lat="47.00295" lon="6.03083">
        <ele>524</ele>
        <time>2015-05-28T13:18:14Z</time>
      </trkpt>
      <trkpt lat="47.00291" lon="6.03084">
        <ele>525</ele>
        <time>2015-05-28T13:18:20Z</time>
      </trkpt>
      <trkpt lat="47.00289" lon="6.03087">
        <ele>526</ele>
        <time>2015-05-28T13:18:31Z</time>
      </trkpt>
      <trkpt lat="47.00286" lon="6.03091">
        <ele>527</ele>
        <time>2015-05-28T13:18:48Z</time>
      </trkpt>
      <trkpt lat="47.0028" lon="6.03095">
        <ele>528</ele>
        <time>2015-05-28T13:19:36Z</time>
      </trkpt>
      <trkpt lat="47.00275" lon="6.03096">
        <ele>528</ele>
        <time>2015-05-28T13:19:44Z</time>
      </trkpt>
      <trkpt lat="47.00262" lon="6.03105">
        <ele>530</ele>
        <time>2015-05-28T13:20:06Z</time>
      </trkpt>
      <trkpt lat="47.00259" lon="6.03118">
        <ele>532</ele>
        <time>2015-05-28T13:20:20Z</time>
      </trkpt>
      <trkpt lat="47.00257" lon="6.0312">
        <ele>534</ele>
        <time>2015-05-28T13:20:27Z</time>
      </trkpt>
      <trkpt lat="47.00244" lon="6.03148">
        <ele>539</ele>
        <time>2015-05-28T13:20:56Z</time>
      </trkpt>
      <trkpt lat="47.00235" lon="6.03153">
        <ele>540</ele>
        <time>2015-05-28T13:21:08Z</time>
      </trkpt>
      <trkpt lat="47.00226" lon="6.03149">
        <ele>542</ele>
        <time>2015-05-28T13:21:24Z</time>
      </trkpt>
      <trkpt lat="47.00219" lon="6.0314">
        <ele>542</ele>
        <time>2015-05-28T13:21:43Z</time>
      </trkpt>
      <trkpt lat="47.00211" lon="6.03133">
        <ele>544</ele>
        <time>2015-05-28T13:21:53Z</time>
      </trkpt>
      <trkpt lat="47.00202" lon="6.03129">
        <ele>544</ele>
        <time>2015-05-28T13:22:03Z</time>
      </trkpt>
      <trkpt lat="47.00179" lon="6.03136">
        <ele>552</ele>
        <time>2015-05-28T13:22:39Z</time>
      </trkpt>
      <trkpt lat="47.00166" lon="6.03136">
        <ele>557</ele>
        <time>2015-05-28T13:23:09Z</time>
      </trkpt>
      <trkpt lat="47.00156" lon="6.03132">
        <ele>559</ele>
        <time>2015-05-28T13:23:18Z</time>
      </trkpt>
      <trkpt lat="47.00148" lon="6.03126">
        <ele>559</ele>
        <time>2015-05-28T13:23:30Z</time>
      </trkpt>
      <trkpt lat="47.0014" lon="6.03119">
        <ele>558</ele>
        <time>2015-05-28T13:23:37Z</time>
      </trkpt>
      <trkpt lat="47.00131" lon="6.0312">
        <ele>558</ele>
        <time>2015-05-28T13:23:49Z</time>
      </trkpt>
      <trkpt lat="47.00124" lon="6.03111">
        <ele>559</ele>
        <time>2015-05-28T13:23:59Z</time>
      </trkpt>
      <trkpt lat="47.00105" lon="6.03096">
        <ele>560</ele>
        <time>2015-05-28T13:24:17Z</time>
      </trkpt>
      <trkpt lat="47.00099" lon="6.03099">
        <ele>560</ele>
        <time>2015-05-28T13:24:27Z</time>
      </trkpt>
      <trkpt lat="47.00092" lon="6.0309">
        <ele>562</ele>
        <time>2015-05-28T13:24:42Z</time>
      </trkpt>
      <trkpt lat="47.00067" lon="6.03071">
        <ele>569</ele>
        <time>2015-05-28T13:25:17Z</time>
      </trkpt>
      <trkpt lat="47.00042" lon="6.03051">
        <ele>578</ele>
        <time>2015-05-28T13:25:51Z</time>
      </trkpt>
      <trkpt lat="47.00021" lon="6.03024">
        <ele>584</ele>
        <time>2015-05-28T13:26:24Z</time>
      </trkpt>
      <trkpt lat="47.00012" lon="6.03018">
        <ele>586</ele>
        <time>2015-05-28T13:26:32Z</time>
      </trkpt>
      <trkpt lat="46.99997" lon="6.03002">
        <ele>588</ele>
        <time>2015-05-28T13:26:58Z</time>
      </trkpt>
      <trkpt lat="46.99989" lon="6.02999">
        <ele>589</ele>
        <time>2015-05-28T13:27:10Z</time>
      </trkpt>
      <trkpt lat="46.99981" lon="6.02991">
        <ele>590</ele>
        <time>2015-05-28T13:27:20Z</time>
      </trkpt>
      <trkpt lat="46.99968" lon="6.02972">
        <ele>591</ele>
        <time>2015-05-28T13:27:42Z</time>
      </trkpt>
      <trkpt lat="46.99954" lon="6.02952">
        <ele>593</ele>
        <time>2015-05-28T13:28:12Z</time>
      </trkpt>
      <trkpt lat="46.99943" lon="6.02946">
        <ele>593</ele>
        <time>2015-05-28T13:29:40Z</time>
      </trkpt>
      <trkpt lat="46.99941" lon="6.02943">
        <ele>596</ele>
        <time>2015-05-28T13:30:02Z</time>
      </trkpt>
      <trkpt lat="46.99946" lon="6.02939">
        <ele>596</ele>
        <time>2015-05-28T13:31:03Z</time>
      </trkpt>
      <trkpt lat="46.99945" lon="6.02939">
        <ele>596</ele>
        <time>2015-05-28T13:31:44Z</time>
      </trkpt>
      <trkpt lat="46.99936" lon="6.02932">
        <ele>596</ele>
        <time>2015-05-28T13:31:55Z</time>
      </trkpt>
      <trkpt lat="46.99916" lon="6.02929">
        <ele>598</ele>
        <time>2015-05-28T13:32:13Z</time>
      </trkpt>
      <trkpt lat="46.99876" lon="6.02931">
        <ele>599</ele>
        <time>2015-05-28T13:32:46Z</time>
      </trkpt>
      <trkpt lat="46.99835" lon="6.02928">
        <ele>600</ele>
        <time>2015-05-28T13:33:21Z</time>
      </trkpt>
      <trkpt lat="46.9983" lon="6.02927">
        <ele>600</ele>
        <time>2015-05-28T13:33:25Z</time>
      </trkpt>
      <trkpt lat="46.99795" lon="6.02931">
        <ele>603</ele>
        <time>2015-05-28T13:33:56Z</time>
      </trkpt>
      <trkpt lat="46.99791" lon="6.02928">
        <ele>603</ele>
        <time>2015-05-28T13:34:01Z</time>
      </trkpt>
      <trkpt lat="46.99753" lon="6.02929">
        <ele>605</ele>
        <time>2015-05-28T13:34:33Z</time>
      </trkpt>
      <trkpt lat="46.99742" lon="6.02931">
        <ele>605</ele>
        <time>2015-05-28T13:34:38Z</time>
      </trkpt>
      <trkpt lat="46.99726" lon="6.02945">
        <ele>607</ele>
        <time>2015-05-28T13:34:56Z</time>
      </trkpt>
      <trkpt lat="46.99719" lon="6.02955">
        <ele>609</ele>
        <time>2015-05-28T13:35:07Z</time>
      </trkpt>
      <trkpt lat="46.99712" lon="6.02964">
        <ele>609</ele>
        <time>2015-05-28T13:35:15Z</time>
      </trkpt>
      <trkpt lat="46.99707" lon="6.02976">
        <ele>611</ele>
        <time>2015-05-28T13:35:22Z</time>
      </trkpt>
      <trkpt lat="46.99695" lon="6.02997">
        <ele>612</ele>
        <time>2015-05-28T13:35:39Z</time>
      </trkpt>
      <trkpt lat="46.99689" lon="6.03008">
        <ele>612</ele>
        <time>2015-05-28T13:35:48Z</time>
      </trkpt>
      <trkpt lat="46.99683" lon="6.0302">
        <ele>611</ele>
        <time>2015-05-28T13:35:57Z</time>
      </trkpt>
      <trkpt lat="46.99677" lon="6.0303">
        <ele>611</ele>
        <time>2015-05-28T13:36:05Z</time>
      </trkpt>
      <trkpt lat="46.99645" lon="6.03084">
        <ele>612</ele>
        <time>2015-05-28T13:36:41Z</time>
      </trkpt>
      <trkpt lat="46.99638" lon="6.03095">
        <ele>612</ele>
        <time>2015-05-28T13:36:49Z</time>
      </trkpt>
      <trkpt lat="46.99612" lon="6.03133">
        <ele>612</ele>
        <time>2015-05-28T13:37:21Z</time>
      </trkpt>
      <trkpt lat="46.99578" lon="6.03157">
        <ele>614</ele>
        <time>2015-05-28T13:37:57Z</time>
      </trkpt>
      <trkpt lat="46.99573" lon="6.03158">
        <ele>615</ele>
        <time>2015-05-28T13:38:08Z</time>
      </trkpt>
      <trkpt lat="46.99568" lon="6.03158">
        <ele>616</ele>
        <time>2015-05-28T13:39:26Z</time>
      </trkpt>
      <trkpt lat="46.99564" lon="6.03161">
        <ele>615</ele>
        <time>2015-05-28T13:40:46Z</time>
      </trkpt>
      <trkpt lat="46.99557" lon="6.03145">
        <ele>616</ele>
        <time>2015-05-28T13:41:30Z</time>
      </trkpt>
      <trkpt lat="46.99553" lon="6.03133">
        <ele>617</ele>
        <time>2015-05-28T13:41:41Z</time>
      </trkpt>
      <trkpt lat="46.99543" lon="6.03078">
        <ele>617</ele>
        <time>2015-05-28T13:42:12Z</time>
      </trkpt>
      <trkpt lat="46.99537" lon="6.03066">
        <ele>617</ele>
        <time>2015-05-28T13:42:16Z</time>
      </trkpt>
      <trkpt lat="46.99535" lon="6.03038">
        <ele>620</ele>
        <time>2015-05-28T13:42:34Z</time>
      </trkpt>
      <trkpt lat="46.99529" lon="6.02984">
        <ele>619</ele>
        <time>2015-05-28T13:43:08Z</time>
      </trkpt>
      <trkpt lat="46.99517" lon="6.02914">
        <ele>620</ele>
        <time>2015-05-28T13:43:42Z</time>
      </trkpt>
      <trkpt lat="46.99509" lon="6.02876">
        <ele>621</ele>
        <time>2015-05-28T13:44:04Z</time>
      </trkpt>
      <trkpt lat="46.99501" lon="6.02836">
        <ele>620</ele>
        <time>2015-05-28T13:44:26Z</time>
      </trkpt>
      <trkpt lat="46.99499" lon="6.02823">
        <ele>618</ele>
        <time>2015-05-28T13:44:35Z</time>
      </trkpt>
      <trkpt lat="46.99484" lon="6.02772">
        <ele>617</ele>
        <time>2015-05-28T13:45:03Z</time>
      </trkpt>
      <trkpt lat="46.99481" lon="6.02759">
        <ele>618</ele>
        <time>2015-05-28T13:45:10Z</time>
      </trkpt>
      <trkpt lat="46.99478" lon="6.02745">
        <ele>619</ele>
        <time>2015-05-28T13:45:17Z</time>
      </trkpt>
      <trkpt lat="46.9947" lon="6.02689">
        <ele>620</ele>
        <time>2015-05-28T13:45:49Z</time>
      </trkpt>
      <trkpt lat="46.99473" lon="6.02676">
        <ele>619</ele>
        <time>2015-05-28T13:45:57Z</time>
      </trkpt>
      <trkpt lat="46.99475" lon="6.02662">
        <ele>618</ele>
        <time>2015-05-28T13:46:07Z</time>
      </trkpt>
      <trkpt lat="46.99473" lon="6.02589">
        <ele>618</ele>
        <time>2015-05-28T13:46:37Z</time>
      </trkpt>
      <trkpt lat="46.99477" lon="6.02518">
        <ele>616</ele>
        <time>2015-05-28T13:47:13Z</time>
      </trkpt>
      <trkpt lat="46.9948" lon="6.02464">
        <ele>615</ele>
        <time>2015-05-28T13:47:43Z</time>
      </trkpt>
      <trkpt lat="46.99485" lon="6.02394">
        <ele>614</ele>
        <time>2015-05-28T13:48:19Z</time>
      </trkpt>
      <trkpt lat="46.99486" lon="6.02325">
        <ele>613</ele>
        <time>2015-05-28T13:48:52Z</time>
      </trkpt>
      <trkpt lat="46.9948" lon="6.02256">
        <ele>616</ele>
        <time>2015-05-28T13:49:30Z</time>
      </trkpt>
      <trkpt lat="46.99469" lon="6.02218">
        <ele>618</ele>
        <time>2015-05-28T13:50:01Z</time>
      </trkpt>
      <trkpt lat="46.99448" lon="6.02156">
        <ele>620</ele>
        <time>2015-05-28T13:50:33Z</time>
      </trkpt>
      <trkpt lat="46.99434" lon="6.02102">
        <ele>622</ele>
        <time>2015-05-28T13:51:05Z</time>
      </trkpt>
      <trkpt lat="46.9942" lon="6.02037">
        <ele>621</ele>
        <time>2015-05-28T13:51:39Z</time>
      </trkpt>
      <trkpt lat="46.99418" lon="6.02024">
        <ele>620</ele>
        <time>2015-05-28T13:51:45Z</time>
      </trkpt>
      <trkpt lat="46.99411" lon="6.01952">
        <ele>623</ele>
        <time>2015-05-28T13:52:18Z</time>
      </trkpt>
      <trkpt lat="46.9941" lon="6.01938">
        <ele>623</ele>
        <time>2015-05-28T13:52:23Z</time>
      </trkpt>
      <trkpt lat="46.99411" lon="6.01925">
        <ele>623</ele>
        <time>2015-05-28T13:52:34Z</time>
      </trkpt>
      <trkpt lat="46.99408" lon="6.01912">
        <ele>622</ele>
        <time>2015-05-28T13:52:42Z</time>
      </trkpt>
      <trkpt lat="46.99405" lon="6.01856">
        <ele>620</ele>
        <time>2015-05-28T13:53:08Z</time>
      </trkpt>
      <trkpt lat="46.99403" lon="6.018">
        <ele>621</ele>
        <time>2015-05-28T13:53:38Z</time>
      </trkpt>
      <trkpt lat="46.99403" lon="6.01786">
        <ele>620</ele>
        <time>2015-05-28T13:53:45Z</time>
      </trkpt>
      <trkpt lat="46.99401" lon="6.01731">
        <ele>620</ele>
        <time>2015-05-28T13:54:18Z</time>
      </trkpt>
      <trkpt lat="46.99399" lon="6.0169">
        <ele>620</ele>
        <time>2015-05-28T13:54:49Z</time>
      </trkpt>
      <trkpt lat="46.99396" lon="6.01678">
        <ele>621</ele>
        <time>2015-05-28T13:55:00Z</time>
      </trkpt>
      <trkpt lat="46.99391" lon="6.01606">
        <ele>620</ele>
        <time>2015-05-28T13:55:33Z</time>
      </trkpt>
      <trkpt lat="46.99386" lon="6.01593">
        <ele>620</ele>
        <time>2015-05-28T13:55:41Z</time>
      </trkpt>
      <trkpt lat="46.99386" lon="6.0158">
        <ele>620</ele>
        <time>2015-05-28T13:55:48Z</time>
      </trkpt>
      <trkpt lat="46.9938" lon="6.01553">
        <ele>619</ele>
        <time>2015-05-28T13:56:02Z</time>
      </trkpt>
      <trkpt lat="46.99375" lon="6.01512">
        <ele>621</ele>
        <time>2015-05-28T13:56:26Z</time>
      </trkpt>
      <trkpt lat="46.9937" lon="6.01499">
        <ele>621</ele>
        <time>2015-05-28T13:56:34Z</time>
      </trkpt>
      <trkpt lat="46.99351" lon="6.01433">
        <ele>624</ele>
        <time>2015-05-28T13:57:10Z</time>
      </trkpt>
      <trkpt lat="46.99343" lon="6.01408">
        <ele>626</ele>
        <time>2015-05-28T13:57:25Z</time>
      </trkpt>
      <trkpt lat="46.99339" lon="6.01397">
        <ele>627</ele>
        <time>2015-05-28T13:57:34Z</time>
      </trkpt>
      <trkpt lat="46.9933" lon="6.0137">
        <ele>625</ele>
        <time>2015-05-28T13:57:48Z</time>
      </trkpt>
      <trkpt lat="46.9932" lon="6.01346">
        <ele>626</ele>
        <time>2015-05-28T13:58:00Z</time>
      </trkpt>
      <trkpt lat="46.99317" lon="6.01331">
        <ele>627</ele>
        <time>2015-05-28T13:58:10Z</time>
      </trkpt>
      <trkpt lat="46.99308" lon="6.01306">
        <ele>626</ele>
        <time>2015-05-28T13:58:24Z</time>
      </trkpt>
      <trkpt lat="46.99303" lon="6.01294">
        <ele>624</ele>
        <time>2015-05-28T13:58:31Z</time>
      </trkpt>
      <trkpt lat="46.99297" lon="6.01282">
        <ele>623</ele>
        <time>2015-05-28T13:58:39Z</time>
      </trkpt>
      <trkpt lat="46.99286" lon="6.01258">
        <ele>624</ele>
        <time>2015-05-28T13:58:53Z</time>
      </trkpt>
      <trkpt lat="46.99287" lon="6.01244">
        <ele>625</ele>
        <time>2015-05-28T13:59:01Z</time>
      </trkpt>
      <trkpt lat="46.99278" lon="6.0122">
        <ele>627</ele>
        <time>2015-05-28T13:59:15Z</time>
      </trkpt>
      <trkpt lat="46.99272" lon="6.01193">
        <ele>625</ele>
        <time>2015-05-28T13:59:29Z</time>
      </trkpt>
      <trkpt lat="46.99268" lon="6.0118">
        <ele>628</ele>
        <time>2015-05-28T13:59:38Z</time>
      </trkpt>
      <trkpt lat="46.99264" lon="6.01167">
        <ele>628</ele>
        <time>2015-05-28T13:59:45Z</time>
      </trkpt>
      <trkpt lat="46.99249" lon="6.01132">
        <ele>635</ele>
        <time>2015-05-28T14:00:08Z</time>
      </trkpt>
      <trkpt lat="46.99238" lon="6.01094">
        <ele>636</ele>
        <time>2015-05-28T14:00:32Z</time>
      </trkpt>
      <trkpt lat="46.99235" lon="6.01087">
        <ele>635</ele>
        <time>2015-05-28T14:00:44Z</time>
      </trkpt>
      <trkpt lat="46.99238" lon="6.01074">
        <ele>632</ele>
        <time>2015-05-28T14:00:58Z</time>
      </trkpt>
      <trkpt lat="46.9925" lon="6.01046">
        <ele>625</ele>
        <time>2015-05-28T14:01:29Z</time>
      </trkpt>
      <trkpt lat="46.99248" lon="6.01054">
        <ele>621</ele>
        <time>2015-05-28T14:02:12Z</time>
      </trkpt>
      <trkpt lat="46.99245" lon="6.01061">
        <ele>617</ele>
        <time>2015-05-28T14:02:55Z</time>
      </trkpt>
      <trkpt lat="46.99242" lon="6.01066">
        <ele>611</ele>
        <time>2015-05-28T14:06:25Z</time>
      </trkpt>
      <trkpt lat="46.99236" lon="6.01077">
        <ele>612</ele>
        <time>2015-05-28T14:06:35Z</time>
      </trkpt>
      <trkpt lat="46.99227" lon="6.01081">
        <ele>617</ele>
        <time>2015-05-28T14:06:42Z</time>
      </trkpt>
      <trkpt lat="46.99218" lon="6.01073">
        <ele>621</ele>
        <time>2015-05-28T14:06:53Z</time>
      </trkpt>
      <trkpt lat="46.99205" lon="6.01058">
        <ele>625</ele>
        <time>2015-05-28T14:07:07Z</time>
      </trkpt>
      <trkpt lat="46.99198" lon="6.01048">
        <ele>626</ele>
        <time>2015-05-28T14:07:19Z</time>
      </trkpt>
      <trkpt lat="46.99191" lon="6.0104">
        <ele>626</ele>
        <time>2015-05-28T14:07:29Z</time>
      </trkpt>
      <trkpt lat="46.99183" lon="6.01031">
        <ele>626</ele>
        <time>2015-05-28T14:07:41Z</time>
      </trkpt>
      <trkpt lat="46.9914" lon="6.01005">
        <ele>626</ele>
        <time>2015-05-28T14:08:11Z</time>
      </trkpt>
      <trkpt lat="46.9912" lon="6.01">
        <ele>624</ele>
        <time>2015-05-28T14:08:24Z</time>
      </trkpt>
      <trkpt lat="46.99104" lon="6.00985">
        <ele>625</ele>
        <time>2015-05-28T14:08:38Z</time>
      </trkpt>
      <trkpt lat="46.99086" lon="6.00976">
        <ele>624</ele>
        <time>2015-05-28T14:08:56Z</time>
      </trkpt>
      <trkpt lat="46.99078" lon="6.00971">
        <ele>623</ele>
        <time>2015-05-28T14:09:03Z</time>
      </trkpt>
      <trkpt lat="46.99056" lon="6.00946">
        <ele>624</ele>
        <time>2015-05-28T14:09:31Z</time>
      </trkpt>
      <trkpt lat="46.99048" lon="6.00939">
        <ele>624</ele>
        <time>2015-05-28T14:09:37Z</time>
      </trkpt>
      <trkpt lat="46.99039" lon="6.00932">
        <ele>624</ele>
        <time>2015-05-28T14:09:45Z</time>
      </trkpt>
      <trkpt lat="46.99007" lon="6.00901">
        <ele>621</ele>
        <time>2015-05-28T14:10:20Z</time>
      </trkpt>
      <trkpt lat="46.98994" lon="6.00876">
        <ele>619</ele>
        <time>2015-05-28T14:10:43Z</time>
      </trkpt>
      <trkpt lat="46.98978" lon="6.00867">
        <ele>619</ele>
        <time>2015-05-28T14:10:51Z</time>
      </trkpt>
      <trkpt lat="46.98972" lon="6.00853">
        <ele>618</ele>
        <time>2015-05-28T14:11:05Z</time>
      </trkpt>
      <trkpt lat="46.98966" lon="6.0085">
        <ele>617</ele>
        <time>2015-05-28T14:11:08Z</time>
      </trkpt>
      <trkpt lat="46.98955" lon="6.00844">
        <ele>617</ele>
        <time>2015-05-28T14:11:12Z</time>
      </trkpt>
      <trkpt lat="46.98951" lon="6.00832">
        <ele>617</ele>
        <time>2015-05-28T14:11:19Z</time>
      </trkpt>
      <trkpt lat="46.98944" lon="6.00823">
        <ele>617</ele>
        <time>2015-05-28T14:11:31Z</time>
      </trkpt>
      <trkpt lat="46.98924" lon="6.00798">
        <ele>616</ele>
        <time>2015-05-28T14:11:47Z</time>
      </trkpt>
      <trkpt lat="46.98924" lon="6.00783">
        <ele>616</ele>
        <time>2015-05-28T14:11:57Z</time>
      </trkpt>
      <trkpt lat="46.98918" lon="6.00772">
        <ele>616</ele>
        <time>2015-05-28T14:12:06Z</time>
      </trkpt>
      <trkpt lat="46.989" lon="6.00759">
        <ele>615</ele>
        <time>2015-05-28T14:12:21Z</time>
      </trkpt>
      <trkpt lat="46.98892" lon="6.00749">
        <ele>613</ele>
        <time>2015-05-28T14:12:33Z</time>
      </trkpt>
      <trkpt lat="46.98881" lon="6.00745">
        <ele>612</ele>
        <time>2015-05-28T14:12:42Z</time>
      </trkpt>
      <trkpt lat="46.98876" lon="6.00749">
        <ele>612</ele>
        <time>2015-05-28T14:12:44Z</time>
      </trkpt>
      <trkpt lat="46.98872" lon="6.00734">
        <ele>612</ele>
        <time>2015-05-28T14:12:54Z</time>
      </trkpt>
      <trkpt lat="46.98867" lon="6.00707">
        <ele>608</ele>
        <time>2015-05-28T14:13:14Z</time>
      </trkpt>
      <trkpt lat="46.98861" lon="6.00696">
        <ele>608</ele>
        <time>2015-05-28T14:13:19Z</time>
      </trkpt>
      <trkpt lat="46.98857" lon="6.00683">
        <ele>608</ele>
        <time>2015-05-28T14:13:26Z</time>
      </trkpt>
      <trkpt lat="46.98843" lon="6.00663">
        <ele>608</ele>
        <time>2015-05-28T14:13:36Z</time>
      </trkpt>
      <trkpt lat="46.98821" lon="6.00634">
        <ele>603</ele>
        <time>2015-05-28T14:14:02Z</time>
      </trkpt>
      <trkpt lat="46.98809" lon="6.00615">
        <ele>593</ele>
        <time>2015-05-28T14:14:36Z</time>
      </trkpt>
      <trkpt lat="46.988" lon="6.0059">
        <ele>586</ele>
        <time>2015-05-28T14:14:58Z</time>
      </trkpt>
      <trkpt lat="46.9879" lon="6.00583">
        <ele>585</ele>
        <time>2015-05-28T14:15:03Z</time>
      </trkpt>
      <trkpt lat="46.98786" lon="6.00572">
        <ele>585</ele>
        <time>2015-05-28T14:15:10Z</time>
      </trkpt>
      <trkpt lat="46.98778" lon="6.00564">
        <ele>585</ele>
        <time>2015-05-28T14:15:16Z</time>
      </trkpt>
      <trkpt lat="46.9877" lon="6.00539">
        <ele>585</ele>
        <time>2015-05-28T14:15:32Z</time>
      </trkpt>
      <trkpt lat="46.98763" lon="6.00531">
        <ele>584</ele>
        <time>2015-05-28T14:15:41Z</time>
      </trkpt>
      <trkpt lat="46.98757" lon="6.00519">
        <ele>583</ele>
        <time>2015-05-28T14:15:51Z</time>
      </trkpt>
      <trkpt lat="46.98743" lon="6.005">
        <ele>581</ele>
        <time>2015-05-28T14:16:03Z</time>
      </trkpt>
      <trkpt lat="46.98748" lon="6.00488">
        <ele>580</ele>
        <time>2015-05-28T14:16:11Z</time>
      </trkpt>
      <trkpt lat="46.98737" lon="6.00481">
        <ele>579</ele>
        <time>2015-05-28T14:16:17Z</time>
      </trkpt>
      <trkpt lat="46.98723" lon="6.00455">
        <ele>576</ele>
        <time>2015-05-28T14:16:32Z</time>
      </trkpt>
      <trkpt lat="46.98707" lon="6.0044">
        <ele>574</ele>
        <time>2015-05-28T14:16:48Z</time>
      </trkpt>
      <trkpt lat="46.98702" lon="6.00435">
        <ele>572</ele>
        <time>2015-05-28T14:17:00Z</time>
      </trkpt>
      <trkpt lat="46.98693" lon="6.00413">
        <ele>568</ele>
        <time>2015-05-28T14:17:36Z</time>
      </trkpt>
      <trkpt lat="46.98671" lon="6.00371">
        <ele>562</ele>
        <time>2015-05-28T14:18:01Z</time>
      </trkpt>
      <trkpt lat="46.9867" lon="6.00358">
        <ele>559</ele>
        <time>2015-05-28T14:18:13Z</time>
      </trkpt>
      <trkpt lat="46.98657" lon="6.00338">
        <ele>558</ele>
        <time>2015-05-28T14:18:27Z</time>
      </trkpt>
      <trkpt lat="46.9864" lon="6.00305">
        <ele>557</ele>
        <time>2015-05-28T14:18:50Z</time>
      </trkpt>
      <trkpt lat="46.9861" lon="6.00271">
        <ele>555</ele>
        <time>2015-05-28T14:19:28Z</time>
      </trkpt>
      <trkpt lat="46.98607" lon="6.00257">
        <ele>553</ele>
        <time>2015-05-28T14:19:36Z</time>
      </trkpt>
      <trkpt lat="46.98589" lon="6.00221">
        <ele>550</ele>
        <time>2015-05-28T14:19:59Z</time>
      </trkpt>
      <trkpt lat="46.98581" lon="6.00211">
        <ele>544</ele>
        <time>2015-05-28T14:20:34Z</time>
      </trkpt>
      <trkpt lat="46.98573" lon="6.00202">
        <ele>542</ele>
        <time>2015-05-28T14:20:39Z</time>
      </trkpt>
      <trkpt lat="46.9857" lon="6.00189">
        <ele>540</ele>
        <time>2015-05-28T14:20:47Z</time>
      </trkpt>
      <trkpt lat="46.98556" lon="6.00169">
        <ele>537</ele>
        <time>2015-05-28T14:21:01Z</time>
      </trkpt>
      <trkpt lat="46.98547" lon="6.00146">
        <ele>536</ele>
        <time>2015-05-28T14:21:18Z</time>
      </trkpt>
      <trkpt lat="46.98541" lon="6.00135">
        <ele>534</ele>
        <time>2015-05-28T14:21:28Z</time>
      </trkpt>
      <trkpt lat="46.98525" lon="6.00086">
        <ele>529</ele>
        <time>2015-05-28T14:22:05Z</time>
      </trkpt>
      <trkpt lat="46.98518" lon="6.00078">
        <ele>528</ele>
        <time>2015-05-28T14:22:17Z</time>
      </trkpt>
      <trkpt lat="46.9851" lon="6.00073">
        <ele>527</ele>
        <time>2015-05-28T14:22:25Z</time>
      </trkpt>
      <trkpt lat="46.985" lon="6.00073">
        <ele>526</ele>
        <time>2015-05-28T14:22:33Z</time>
      </trkpt>
      <trkpt lat="46.98495" lon="6.00061">
        <ele>525</ele>
        <time>2015-05-28T14:22:41Z</time>
      </trkpt>
      <trkpt lat="46.98482" lon="6.00043">
        <ele>523</ele>
        <time>2015-05-28T14:23:04Z</time>
      </trkpt>
      <trkpt lat="46.98475" lon="6.00032">
        <ele>523</ele>
        <time>2015-05-28T14:23:09Z</time>
      </trkpt>
      <trkpt lat="46.98466" lon="6.00006">
        <ele>520</ele>
        <time>2015-05-28T14:23:22Z</time>
      </trkpt>
      <trkpt lat="46.98461" lon="5.99994">
        <ele>515</ele>
        <time>2015-05-28T14:23:41Z</time>
      </trkpt>
      <trkpt lat="46.98426" lon="5.9997">
        <ele>508</ele>
        <time>2015-05-28T14:24:14Z</time>
      </trkpt>
      <trkpt lat="46.98416" lon="5.99969">
        <ele>508</ele>
        <time>2015-05-28T14:24:23Z</time>
      </trkpt>
      <trkpt lat="46.9841" lon="5.9996">
        <ele>507</ele>
        <time>2015-05-28T14:24:30Z</time>
      </trkpt>
      <trkpt lat="46.984" lon="5.99957">
        <ele>507</ele>
        <time>2015-05-28T14:24:40Z</time>
      </trkpt>
      <trkpt lat="46.98395" lon="5.99945">
        <ele>505</ele>
        <time>2015-05-28T14:24:49Z</time>
      </trkpt>
      <trkpt lat="46.984" lon="5.99934">
        <ele>504</ele>
        <time>2015-05-28T14:24:56Z</time>
      </trkpt>
      <trkpt lat="46.9842" lon="5.99928">
        <ele>496</ele>
        <time>2015-05-28T14:25:12Z</time>
      </trkpt>
      <trkpt lat="46.9846" lon="5.99943">
        <ele>482</ele>
        <time>2015-05-28T14:25:51Z</time>
      </trkpt>
      <trkpt lat="46.98489" lon="5.99953">
        <ele>476</ele>
        <time>2015-05-28T14:26:19Z</time>
      </trkpt>
      <trkpt lat="46.98497" lon="5.99944">
        <ele>475</ele>
        <time>2015-05-28T14:26:56Z</time>
      </trkpt>
      <trkpt lat="46.98488" lon="5.99937">
        <ele>475</ele>
        <time>2015-05-28T14:27:00Z</time>
      </trkpt>
      <trkpt lat="46.98482" lon="5.99924">
        <ele>474</ele>
        <time>2015-05-28T14:27:11Z</time>
      </trkpt>
      <trkpt lat="46.98463" lon="5.99894">
        <ele>475</ele>
        <time>2015-05-28T14:27:44Z</time>
      </trkpt>
      <trkpt lat="46.98446" lon="5.99882">
        <ele>473</ele>
        <time>2015-05-28T14:28:03Z</time>
      </trkpt>
      <trkpt lat="46.98439" lon="5.99873">
        <ele>473</ele>
        <time>2015-05-28T14:28:14Z</time>
      </trkpt>
      <trkpt lat="46.98435" lon="5.99883">
        <ele>471</ele>
        <time>2015-05-28T14:28:37Z</time>
      </trkpt>
      <trkpt lat="46.98424" lon="5.99876">
        <ele>469</ele>
        <time>2015-05-28T14:29:06Z</time>
      </trkpt>
      <trkpt lat="46.98416" lon="5.99869">
        <ele>463</ele>
        <time>2015-05-28T14:29:25Z</time>
      </trkpt>
      <trkpt lat="46.98411" lon="5.99857">
        <ele>459</ele>
        <time>2015-05-28T14:29:41Z</time>
      </trkpt>
      <trkpt lat="46.98395" lon="5.99841">
        <ele>458</ele>
        <time>2015-05-28T14:30:00Z</time>
      </trkpt>
      <trkpt lat="46.98389" lon="5.9984">
        <ele>456</ele>
        <time>2015-05-28T14:30:15Z</time>
      </trkpt>
      <trkpt lat="46.98385" lon="5.99852">
        <ele>455</ele>
        <time>2015-05-28T14:30:30Z</time>
      </trkpt>
      <trkpt lat="46.98395" lon="5.99852">
        <ele>456</ele>
        <time>2015-05-28T14:31:07Z</time>
      </trkpt>
      <trkpt lat="46.98392" lon="5.99853">
        <ele>457</ele>
        <time>2015-05-28T14:31:47Z</time>
      </trkpt>
      <trkpt lat="46.98383" lon="5.99859">
        <ele>454</ele>
        <time>2015-05-28T14:32:23Z</time>
      </trkpt>
      <trkpt lat="46.98384" lon="5.99858">
        <ele>449</ele>
        <time>2015-05-28T14:32:53Z</time>
      </trkpt>
      <trkpt lat="46.98381" lon="5.99853">
        <ele>450</ele>
        <time>2015-05-28T14:33:27Z</time>
      </trkpt>
      <trkpt lat="46.98382" lon="5.9984">
        <ele>450</ele>
        <time>2015-05-28T14:33:37Z</time>
      </trkpt>
      <trkpt lat="46.98381" lon="5.99845">
        <ele>453</ele>
        <time>2015-05-28T14:34:48Z</time>
      </trkpt>
      <trkpt lat="46.98378" lon="5.99835">
        <ele>455</ele>
        <time>2015-05-28T14:35:29Z</time>
      </trkpt>
      <trkpt lat="46.98375" lon="5.99827">
        <ele>455</ele>
        <time>2015-05-28T14:35:58Z</time>
      </trkpt>
      <trkpt lat="46.98366" lon="5.99832">
        <ele>455</ele>
        <time>2015-05-28T14:36:08Z</time>
      </trkpt>
      <trkpt lat="46.98348" lon="5.99834">
        <ele>453</ele>
        <time>2015-05-28T14:36:24Z</time>
      </trkpt>
      <trkpt lat="46.98338" lon="5.99829">
        <ele>450</ele>
        <time>2015-05-28T14:36:38Z</time>
      </trkpt>
      <trkpt lat="46.98329" lon="5.99823">
        <ele>449</ele>
        <time>2015-05-28T14:36:46Z</time>
      </trkpt>
      <trkpt lat="46.9831" lon="5.99825">
        <ele>448</ele>
        <time>2015-05-28T14:37:01Z</time>
      </trkpt>
      <trkpt lat="46.983" lon="5.9982">
        <ele>448</ele>
        <time>2015-05-28T14:37:10Z</time>
      </trkpt>
      <trkpt lat="46.98272" lon="5.99825">
        <ele>446</ele>
        <time>2015-05-28T14:37:36Z</time>
      </trkpt>
      <trkpt lat="46.98263" lon="5.99825">
        <ele>444</ele>
        <time>2015-05-28T14:37:46Z</time>
      </trkpt>
      <trkpt lat="46.98215" lon="5.99822">
        <ele>440</ele>
        <time>2015-05-28T14:38:22Z</time>
      </trkpt>
      <trkpt lat="46.98189" lon="5.99805">
        <ele>435</ele>
        <time>2015-05-28T14:38:52Z</time>
      </trkpt>
      <trkpt lat="46.98171" lon="5.99803">
        <ele>434</ele>
        <time>2015-05-28T14:39:09Z</time>
      </trkpt>
      <trkpt lat="46.98163" lon="5.99811">
        <ele>434</ele>
        <time>2015-05-28T14:39:23Z</time>
      </trkpt>
      <trkpt lat="46.98114" lon="5.99816">
        <ele>430</ele>
        <time>2015-05-28T14:39:58Z</time>
      </trkpt>
      <trkpt lat="46.98077" lon="5.99837">
        <ele>426</ele>
        <time>2015-05-28T14:40:23Z</time>
      </trkpt>
      <trkpt lat="46.98066" lon="5.99835">
        <ele>425</ele>
        <time>2015-05-28T14:40:33Z</time>
      </trkpt>
      <trkpt lat="46.98022" lon="5.99865">
        <ele>408</ele>
        <time>2015-05-28T14:41:13Z</time>
      </trkpt>
      <trkpt lat="46.98015" lon="5.99874">
        <ele>403</ele>
        <time>2015-05-28T14:41:19Z</time>
      </trkpt>
      <trkpt lat="46.98005" lon="5.99874">
        <ele>401</ele>
        <time>2015-05-28T14:41:28Z</time>
      </trkpt>
      <trkpt lat="46.97997" lon="5.9987">
        <ele>398</ele>
        <time>2015-05-28T14:41:39Z</time>
      </trkpt>
      <trkpt lat="46.9795" lon="5.99884">
        <ele>395</ele>
        <time>2015-05-28T14:42:20Z</time>
      </trkpt>
      <trkpt lat="46.97923" lon="5.99896">
        <ele>392</ele>
        <time>2015-05-28T14:42:41Z</time>
      </trkpt>
      <trkpt lat="46.97915" lon="5.99905">
        <ele>392</ele>
        <time>2015-05-28T14:42:50Z</time>
      </trkpt>
      <trkpt lat="46.97905" lon="5.99908">
        <ele>392</ele>
        <time>2015-05-28T14:42:56Z</time>
      </trkpt>
      <trkpt lat="46.97879" lon="5.99928">
        <ele>391</ele>
        <time>2015-05-28T14:43:20Z</time>
      </trkpt>
      <trkpt lat="46.97844" lon="5.99951">
        <ele>386</ele>
        <time>2015-05-28T14:43:53Z</time>
      </trkpt>
      <trkpt lat="46.97826" lon="5.99963">
        <ele>383</ele>
        <time>2015-05-28T14:44:09Z</time>
      </trkpt>
      <trkpt lat="46.97818" lon="5.99971">
        <ele>383</ele>
        <time>2015-05-28T14:44:17Z</time>
      </trkpt>
      <trkpt lat="46.97792" lon="5.99992">
        <ele>378</ele>
        <time>2015-05-28T14:44:51Z</time>
      </trkpt>
      <trkpt lat="46.97783" lon="5.99995">
        <ele>377</ele>
        <time>2015-05-28T14:44:58Z</time>
      </trkpt>
      <trkpt lat="46.97774" lon="6">
        <ele>378</ele>
        <time>2015-05-28T14:45:05Z</time>
      </trkpt>
      <trkpt lat="46.97765" lon="6.00003">
        <ele>374</ele>
        <time>2015-05-28T14:45:12Z</time>
      </trkpt>
      <trkpt lat="46.97757" lon="5.99998">
        <ele>371</ele>
        <time>2015-05-28T14:45:21Z</time>
      </trkpt>
      <trkpt lat="46.97748" lon="5.99991">
        <ele>370</ele>
        <time>2015-05-28T14:45:30Z</time>
      </trkpt>
      <trkpt lat="46.97739" lon="5.99986">
        <ele>370</ele>
        <time>2015-05-28T14:45:38Z</time>
      </trkpt>
      <trkpt lat="46.97731" lon="5.99979">
        <ele>371</ele>
        <time>2015-05-28T14:45:47Z</time>
      </trkpt>
      <trkpt lat="46.97724" lon="5.99968">
        <ele>369</ele>
        <time>2015-05-28T14:45:55Z</time>
      </trkpt>
      <trkpt lat="46.97717" lon="5.99959">
        <ele>369</ele>
        <time>2015-05-28T14:46:03Z</time>
      </trkpt>
      <trkpt lat="46.9771" lon="5.99951">
        <ele>368</ele>
        <time>2015-05-28T14:46:11Z</time>
      </trkpt>
      <trkpt lat="46.97704" lon="5.9994">
        <ele>367</ele>
        <time>2015-05-28T14:46:22Z</time>
      </trkpt>
      <trkpt lat="46.97686" lon="5.9991">
        <ele>368</ele>
        <time>2015-05-28T14:46:52Z</time>
      </trkpt>
      <trkpt lat="46.97683" lon="5.99901">
        <ele>368</ele>
        <time>2015-05-28T14:47:08Z</time>
      </trkpt>
    </trkseg>
  </trk>
</gpx>